<?xml version="1.0" encoding="UTF-8"?>
<gpx version="1.1" creator="Garmin Connect"
  xsi:schemaLocation="http://www.topografix.com/GPX/1/1 http://www.topografix.com/GPX/1/1/gpx.xsd http://www.garmin.com/xmlschemas/GpxExtensions/v3 http://www.garmin.com/xmlschemas/GpxExtensionsv3.xsd http://www.garmin.com/xmlschemas/TrackPointExtension/v1 http://www.garmin.com/xmlschemas/TrackPointExtensionv1.xsd"
  xmlns="http://www.topografix.com/GPX/1/1"
  xmlns:gpxtpx="http://www.garmin.com/xmlschemas/TrackPointExtension/v1"
  xmlns:gpxx="http://www.garmin.com/xmlschemas/GpxExtensions/v3" xmlns:xsi="http://www.w3.org/2001/XMLSchema-instance">
  <metadata>
    <link href="connect.garmin.com">
      <text>Garmin Connect</text>
    </link>
    <time>2011-06-17T04:05:22.000Z</time>
  </metadata>
  <trk>
    <name>nachshon-dier rafat-derech psalim-nachshon</name>
    <trkseg>
      <trkpt lon="34.91986943408847" lat="31.815162291750312">
        <ele>278.0</ele>
        <time>2011-06-17T04:05:22.000Z</time>
      </trkpt>
      <trkpt lon="34.91987010464072" lat="31.815125830471516">
        <ele>274.6000061035156</ele>
        <time>2011-06-17T04:06:18.000Z</time>
      </trkpt>
      <trkpt lon="34.91986943408847" lat="31.815125746652484">
        <ele>271.79998779296875</ele>
        <time>2011-06-17T04:06:54.000Z</time>
      </trkpt>
      <trkpt lon="34.91986909881234" lat="31.815126333385706">
        <ele>268.3999938964844</ele>
        <time>2011-06-17T04:07:27.000Z</time>
      </trkpt>
      <trkpt lon="34.91986867971718" lat="31.815125914290547">
        <ele>262.6000061035156</ele>
        <time>2011-06-17T04:07:54.000Z</time>
      </trkpt>
      <trkpt lon="34.91986867971718" lat="31.815125914290547">
        <ele>266.0</ele>
        <time>2011-06-17T04:07:55.000Z</time>
      </trkpt>
      <trkpt lon="34.91986901499331" lat="31.815125327557325">
        <ele>263.0</ele>
        <time>2011-06-17T04:08:36.000Z</time>
      </trkpt>
      <trkpt lon="34.91986893117428" lat="31.815125327557325">
        <ele>259.6000061035156</ele>
        <time>2011-06-17T04:09:14.000Z</time>
      </trkpt>
      <trkpt lon="34.919868763536215" lat="31.81512599810958">
        <ele>256.79998779296875</ele>
        <time>2011-06-17T04:09:53.000Z</time>
      </trkpt>
      <trkpt lon="34.919868260622025" lat="31.81512599810958">
        <ele>254.0</ele>
        <time>2011-06-17T04:10:31.000Z</time>
      </trkpt>
      <trkpt lon="34.91986842826009" lat="31.815126249566674">
        <ele>250.60000610351562</ele>
        <time>2011-06-17T04:11:13.000Z</time>
      </trkpt>
      <trkpt lon="34.91986800916493" lat="31.81512608192861">
        <ele>247.60000610351562</ele>
        <time>2011-06-17T04:11:57.000Z</time>
      </trkpt>
      <trkpt lon="34.919866751879454" lat="31.815126333385706">
        <ele>244.8000030517578</ele>
        <time>2011-06-17T04:12:40.000Z</time>
      </trkpt>
      <trkpt lon="34.91986666806042" lat="31.815128680318594">
        <ele>241.39999389648438</ele>
        <time>2011-06-17T04:13:25.000Z</time>
      </trkpt>
      <trkpt lon="34.9198660813272" lat="31.815128093585372">
        <ele>238.60000610351562</ele>
        <time>2011-06-17T04:14:12.000Z</time>
      </trkpt>
      <trkpt lon="34.91986465640366" lat="31.81512700393796">
        <ele>235.1999969482422</ele>
        <time>2011-06-17T04:15:01.000Z</time>
      </trkpt>
      <trkpt lon="34.91986457258463" lat="31.815126417204738">
        <ele>232.1999969482422</ele>
        <time>2011-06-17T04:15:50.000Z</time>
      </trkpt>
      <trkpt lon="34.91986566223204" lat="31.8151265848428">
        <ele>229.0</ele>
        <time>2011-06-17T04:16:38.000Z</time>
      </trkpt>
      <trkpt lon="34.919865829870105" lat="31.815126836299896">
        <ele>226.0</ele>
        <time>2011-06-17T04:17:32.000Z</time>
      </trkpt>
      <trkpt lon="34.91986566223204" lat="31.815125914290547">
        <ele>223.1999969482422</ele>
        <time>2011-06-17T04:18:23.000Z</time>
      </trkpt>
      <trkpt lon="34.919865326955914" lat="31.815125914290547">
        <ele>219.8000030517578</ele>
        <time>2011-06-17T04:19:17.000Z</time>
      </trkpt>
      <trkpt lon="34.91986574605107" lat="31.81512465700507">
        <ele>217.0</ele>
        <time>2011-06-17T04:20:11.000Z</time>
      </trkpt>
      <trkpt lon="34.919866332784295" lat="31.81512507610023">
        <ele>213.60000610351562</ele>
        <time>2011-06-17T04:21:08.000Z</time>
      </trkpt>
      <trkpt lon="34.919857112690806" lat="31.81512507610023">
        <ele>211.60000610351562</ele>
        <time>2011-06-17T04:21:50.000Z</time>
      </trkpt>
      <trkpt lon="34.919819394126534" lat="31.815121974796057">
        <ele>211.60000610351562</ele>
        <time>2011-06-17T04:21:53.000Z</time>
      </trkpt>
      <trkpt lon="34.91975116543472" lat="31.815072689205408">
        <ele>211.1999969482422</ele>
        <time>2011-06-17T04:21:57.000Z</time>
      </trkpt>
      <trkpt lon="34.91967665031552" lat="31.81494419462979">
        <ele>211.1999969482422</ele>
        <time>2011-06-17T04:22:03.000Z</time>
      </trkpt>
      <trkpt lon="34.91956005804241" lat="31.814924413338304">
        <ele>211.1999969482422</ele>
        <time>2011-06-17T04:22:08.000Z</time>
      </trkpt>
      <trkpt lon="34.918933594599366" lat="31.81498484686017">
        <ele>208.8000030517578</ele>
        <time>2011-06-17T04:22:28.000Z</time>
      </trkpt>
      <trkpt lon="34.91882127709687" lat="31.814719811081886">
        <ele>207.8000030517578</ele>
        <time>2011-06-17T04:22:37.000Z</time>
      </trkpt>
      <trkpt lon="34.91863176226616" lat="31.814313121140003">
        <ele>207.8000030517578</ele>
        <time>2011-06-17T04:22:51.000Z</time>
      </trkpt>
      <trkpt lon="34.91868859156966" lat="31.813885727897286">
        <ele>207.8000030517578</ele>
        <time>2011-06-17T04:23:06.000Z</time>
      </trkpt>
      <trkpt lon="34.918569568544626" lat="31.813344256952405">
        <ele>207.8000030517578</ele>
        <time>2011-06-17T04:23:26.000Z</time>
      </trkpt>
      <trkpt lon="34.918394135311246" lat="31.812957767397165">
        <ele>206.8000030517578</ele>
        <time>2011-06-17T04:23:41.000Z</time>
      </trkpt>
      <trkpt lon="34.91866319440305" lat="31.812666496261954">
        <ele>207.39999389648438</ele>
        <time>2011-06-17T04:23:57.000Z</time>
      </trkpt>
      <trkpt lon="34.9189059343189" lat="31.81234714575112">
        <ele>207.8000030517578</ele>
        <time>2011-06-17T04:24:15.000Z</time>
      </trkpt>
      <trkpt lon="34.91889973171055" lat="31.812079595401883">
        <ele>207.39999389648438</ele>
        <time>2011-06-17T04:24:28.000Z</time>
      </trkpt>
      <trkpt lon="34.918893948197365" lat="31.812060987576842">
        <ele>207.39999389648438</ele>
        <time>2011-06-17T04:24:44.000Z</time>
      </trkpt>
      <trkpt lon="34.918893948197365" lat="31.812060736119747">
        <ele>206.8000030517578</ele>
        <time>2011-06-17T04:24:46.000Z</time>
      </trkpt>
      <trkpt lon="34.91891565732658" lat="31.811711126938462">
        <ele>207.39999389648438</ele>
        <time>2011-06-17T04:25:01.000Z</time>
      </trkpt>
      <trkpt lon="34.91864106617868" lat="31.811453299596906">
        <ele>207.39999389648438</ele>
        <time>2011-06-17T04:25:13.000Z</time>
      </trkpt>
      <trkpt lon="34.91842447780073" lat="31.811498561874032">
        <ele>206.8000030517578</ele>
        <time>2011-06-17T04:25:18.000Z</time>
      </trkpt>
      <trkpt lon="34.91790681146085" lat="31.811799220740795">
        <ele>203.39999389648438</ele>
        <time>2011-06-17T04:25:32.000Z</time>
      </trkpt>
      <trkpt lon="34.91764378733933" lat="31.81164792738855">
        <ele>202.39999389648438</ele>
        <time>2011-06-17T04:25:42.000Z</time>
      </trkpt>
      <trkpt lon="34.9173741415143" lat="31.811381801962852">
        <ele>202.0</ele>
        <time>2011-06-17T04:25:56.000Z</time>
      </trkpt>
      <trkpt lon="34.91710449568927" lat="31.811088854447007">
        <ele>200.60000610351562</ele>
        <time>2011-06-17T04:26:11.000Z</time>
      </trkpt>
      <trkpt lon="34.91654349491" lat="31.81065701879561">
        <ele>198.1999969482422</ele>
        <time>2011-06-17T04:26:28.000Z</time>
      </trkpt>
      <trkpt lon="34.91606564261019" lat="31.81065416894853">
        <ele>195.8000030517578</ele>
        <time>2011-06-17T04:26:41.000Z</time>
      </trkpt>
      <trkpt lon="34.915904542431235" lat="31.81046884506941">
        <ele>194.39999389648438</ele>
        <time>2011-06-17T04:26:49.000Z</time>
      </trkpt>
      <trkpt lon="34.91580211557448" lat="31.810010354965925">
        <ele>194.8000030517578</ele>
        <time>2011-06-17T04:27:02.000Z</time>
      </trkpt>
      <trkpt lon="34.91596732288599" lat="31.80970910936594">
        <ele>194.8000030517578</ele>
        <time>2011-06-17T04:27:15.000Z</time>
      </trkpt>
      <trkpt lon="34.91621861234307" lat="31.809386238455772">
        <ele>195.8000030517578</ele>
        <time>2011-06-17T04:27:31.000Z</time>
      </trkpt>
      <trkpt lon="34.91625406779349" lat="31.808949541300535">
        <ele>196.8000030517578</ele>
        <time>2011-06-17T04:27:50.000Z</time>
      </trkpt>
      <trkpt lon="34.9162585940212" lat="31.808596244081855">
        <ele>197.60000610351562</ele>
        <time>2011-06-17T04:28:08.000Z</time>
      </trkpt>
      <trkpt lon="34.91624157875776" lat="31.80827245116234">
        <ele>197.60000610351562</ele>
        <time>2011-06-17T04:28:25.000Z</time>
      </trkpt>
      <trkpt lon="34.91616178303957" lat="31.807908257469535">
        <ele>197.1999969482422</ele>
        <time>2011-06-17T04:28:37.000Z</time>
      </trkpt>
      <trkpt lon="34.915959192439914" lat="31.80765151977539">
        <ele>198.1999969482422</ele>
        <time>2011-06-17T04:28:51.000Z</time>
      </trkpt>
      <trkpt lon="34.91565543226898" lat="31.807306772097945">
        <ele>199.1999969482422</ele>
        <time>2011-06-17T04:29:11.000Z</time>
      </trkpt>
      <trkpt lon="34.91537447087467" lat="31.80696588009596">
        <ele>200.60000610351562</ele>
        <time>2011-06-17T04:29:31.000Z</time>
      </trkpt>
      <trkpt lon="34.915059730410576" lat="31.80676069110632">
        <ele>202.0</ele>
        <time>2011-06-17T04:29:49.000Z</time>
      </trkpt>
      <trkpt lon="34.914766531437635" lat="31.806786339730024">
        <ele>203.0</ele>
        <time>2011-06-17T04:30:06.000Z</time>
      </trkpt>
      <trkpt lon="34.91445162333548" lat="31.806848030537367">
        <ele>204.39999389648438</ele>
        <time>2011-06-17T04:30:25.000Z</time>
      </trkpt>
      <trkpt lon="34.914086842909455" lat="31.80689555592835">
        <ele>206.39999389648438</ele>
        <time>2011-06-17T04:30:44.000Z</time>
      </trkpt>
      <trkpt lon="34.91374243050814" lat="31.807025223970413">
        <ele>207.39999389648438</ele>
        <time>2011-06-17T04:31:01.000Z</time>
      </trkpt>
      <trkpt lon="34.91338946856558" lat="31.807233346626163">
        <ele>207.8000030517578</ele>
        <time>2011-06-17T04:31:19.000Z</time>
      </trkpt>
      <trkpt lon="34.912915052846074" lat="31.807523779571056">
        <ele>206.39999389648438</ele>
        <time>2011-06-17T04:31:38.000Z</time>
      </trkpt>
      <trkpt lon="34.9125009868294" lat="31.807761322706938">
        <ele>204.39999389648438</ele>
        <time>2011-06-17T04:31:54.000Z</time>
      </trkpt>
      <trkpt lon="34.91193076595664" lat="31.808030046522617">
        <ele>202.0</ele>
        <time>2011-06-17T04:32:09.000Z</time>
      </trkpt>
      <trkpt lon="34.911448722705245" lat="31.808009762316942">
        <ele>201.60000610351562</ele>
        <time>2011-06-17T04:32:23.000Z</time>
      </trkpt>
      <trkpt lon="34.910975228995085" lat="31.80782686918974">
        <ele>201.60000610351562</ele>
        <time>2011-06-17T04:32:42.000Z</time>
      </trkpt>
      <trkpt lon="34.910535430535674" lat="31.80767490528524">
        <ele>201.0</ele>
        <time>2011-06-17T04:33:00.000Z</time>
      </trkpt>
      <trkpt lon="34.91011993959546" lat="31.807531910017133">
        <ele>199.60000610351562</ele>
        <time>2011-06-17T04:33:17.000Z</time>
      </trkpt>
      <trkpt lon="34.90972054190934" lat="31.80734273046255">
        <ele>196.1999969482422</ele>
        <time>2011-06-17T04:33:26.000Z</time>
      </trkpt>
      <trkpt lon="34.908734913915396" lat="31.806989517062902">
        <ele>194.8000030517578</ele>
        <time>2011-06-17T04:33:44.000Z</time>
      </trkpt>
      <trkpt lon="34.90840584039688" lat="31.806851886212826">
        <ele>193.39999389648438</ele>
        <time>2011-06-17T04:33:51.000Z</time>
      </trkpt>
      <trkpt lon="34.90824608132243" lat="31.80678508244455">
        <ele>192.39999389648438</ele>
        <time>2011-06-17T04:33:54.000Z</time>
      </trkpt>
      <trkpt lon="34.90729498676956" lat="31.806441424414515">
        <ele>190.0</ele>
        <time>2011-06-17T04:34:11.000Z</time>
      </trkpt>
      <trkpt lon="34.90689449943602" lat="31.806347547098994">
        <ele>189.60000610351562</ele>
        <time>2011-06-17T04:34:19.000Z</time>
      </trkpt>
      <trkpt lon="34.90675603039563" lat="31.806316198781133">
        <ele>189.60000610351562</ele>
        <time>2011-06-17T04:34:22.000Z</time>
      </trkpt>
      <trkpt lon="34.90550201386213" lat="31.806118385866284">
        <ele>187.1999969482422</ele>
        <time>2011-06-17T04:34:48.000Z</time>
      </trkpt>
      <trkpt lon="34.904676312580705" lat="31.806072704494">
        <ele>188.60000610351562</ele>
        <time>2011-06-17T04:35:08.000Z</time>
      </trkpt>
      <trkpt lon="34.903828985989094" lat="31.805978575721383">
        <ele>186.60000610351562</ele>
        <time>2011-06-17T04:35:26.000Z</time>
      </trkpt>
      <trkpt lon="34.90298677235842" lat="31.805898277089">
        <ele>187.1999969482422</ele>
        <time>2011-06-17T04:35:46.000Z</time>
      </trkpt>
      <trkpt lon="34.90243750624359" lat="31.80584060959518">
        <ele>187.1999969482422</ele>
        <time>2011-06-17T04:35:59.000Z</time>
      </trkpt>
      <trkpt lon="34.901856975629926" lat="31.805692417547107">
        <ele>185.60000610351562</ele>
        <time>2011-06-17T04:36:13.000Z</time>
      </trkpt>
      <trkpt lon="34.90102398209274" lat="31.80553374812007">
        <ele>182.39999389648438</ele>
        <time>2011-06-17T04:36:28.000Z</time>
      </trkpt>
      <trkpt lon="34.899840373545885" lat="31.805375078693032">
        <ele>180.8000030517578</ele>
        <time>2011-06-17T04:36:47.000Z</time>
      </trkpt>
      <trkpt lon="34.89867512136698" lat="31.8051228672266">
        <ele>179.0</ele>
        <time>2011-06-17T04:37:07.000Z</time>
      </trkpt>
      <trkpt lon="34.898579232394695" lat="31.805090932175517">
        <ele>179.0</ele>
        <time>2011-06-17T04:37:09.000Z</time>
      </trkpt>
      <trkpt lon="34.89835023880005" lat="31.805033683776855">
        <ele>179.0</ele>
        <time>2011-06-17T04:37:16.000Z</time>
      </trkpt>
      <trkpt lon="34.89835023880005" lat="31.805033683776855">
        <ele>179.0</ele>
        <time>2011-06-17T04:37:20.000Z</time>
      </trkpt>
      <trkpt lon="34.89805670455098" lat="31.804207395762205">
        <ele>175.60000610351562</ele>
        <time>2011-06-17T04:37:34.000Z</time>
      </trkpt>
      <trkpt lon="34.897931730374694" lat="31.803703559562564">
        <ele>172.1999969482422</ele>
        <time>2011-06-17T04:37:42.000Z</time>
      </trkpt>
      <trkpt lon="34.89781295880675" lat="31.80324900895357">
        <ele>168.8000030517578</ele>
        <time>2011-06-17T04:37:48.000Z</time>
      </trkpt>
      <trkpt lon="34.8977068439126" lat="31.802812898531556">
        <ele>166.0</ele>
        <time>2011-06-17T04:37:53.000Z</time>
      </trkpt>
      <trkpt lon="34.89750693552196" lat="31.801806902512908">
        <ele>163.60000610351562</ele>
        <time>2011-06-17T04:38:06.000Z</time>
      </trkpt>
      <trkpt lon="34.89738464355469" lat="31.801106929779053">
        <ele>162.1999969482422</ele>
        <time>2011-06-17T04:38:17.000Z</time>
      </trkpt>
      <trkpt lon="34.89731792360544" lat="31.80019849911332">
        <ele>161.1999969482422</ele>
        <time>2011-06-17T04:38:33.000Z</time>
      </trkpt>
      <trkpt lon="34.8972475156188" lat="31.79923726245761">
        <ele>159.8000030517578</ele>
        <time>2011-06-17T04:38:57.000Z</time>
      </trkpt>
      <trkpt lon="34.89719077013433" lat="31.798451291397214">
        <ele>158.1999969482422</ele>
        <time>2011-06-17T04:39:18.000Z</time>
      </trkpt>
      <trkpt lon="34.897152967751026" lat="31.797729106619954">
        <ele>157.8000030517578</ele>
        <time>2011-06-17T04:39:39.000Z</time>
      </trkpt>
      <trkpt lon="34.897132348269224" lat="31.79748904891312">
        <ele>157.39999389648438</ele>
        <time>2011-06-17T04:39:49.000Z</time>
      </trkpt>
      <trkpt lon="34.89803717471659" lat="31.797342533245683">
        <ele>156.39999389648438</ele>
        <time>2011-06-17T04:40:08.000Z</time>
      </trkpt>
      <trkpt lon="34.898844519630075" lat="31.79719727486372">
        <ele>156.39999389648438</ele>
        <time>2011-06-17T04:40:28.000Z</time>
      </trkpt>
      <trkpt lon="34.899696204811335" lat="31.796922767534852">
        <ele>156.8000030517578</ele>
        <time>2011-06-17T04:40:51.000Z</time>
      </trkpt>
      <trkpt lon="34.90059365518391" lat="31.796633508056402">
        <ele>155.8000030517578</ele>
        <time>2011-06-17T04:41:13.000Z</time>
      </trkpt>
      <trkpt lon="34.90176234394312" lat="31.79612380452454">
        <ele>155.39999389648438</ele>
        <time>2011-06-17T04:41:43.000Z</time>
      </trkpt>
      <trkpt lon="34.90194573998451" lat="31.795728262513876">
        <ele>156.8000030517578</ele>
        <time>2011-06-17T04:41:55.000Z</time>
      </trkpt>
      <trkpt lon="34.90199049934745" lat="31.795059135183692">
        <ele>156.39999389648438</ele>
        <time>2011-06-17T04:42:14.000Z</time>
      </trkpt>
      <trkpt lon="34.90190550684929" lat="31.794305685907602">
        <ele>155.8000030517578</ele>
        <time>2011-06-17T04:42:37.000Z</time>
      </trkpt>
      <trkpt lon="34.90168070420623" lat="31.793546369299293">
        <ele>155.39999389648438</ele>
        <time>2011-06-17T04:43:00.000Z</time>
      </trkpt>
      <trkpt lon="34.90164114162326" lat="31.79300439544022">
        <ele>155.0</ele>
        <time>2011-06-17T04:43:16.000Z</time>
      </trkpt>
      <trkpt lon="34.90204447880387" lat="31.792373824864626">
        <ele>155.39999389648438</ele>
        <time>2011-06-17T04:43:37.000Z</time>
      </trkpt>
      <trkpt lon="34.90279038436711" lat="31.791992532089353">
        <ele>155.39999389648438</ele>
        <time>2011-06-17T04:43:58.000Z</time>
      </trkpt>
      <trkpt lon="34.90340972319245" lat="31.79211708717048">
        <ele>156.39999389648438</ele>
        <time>2011-06-17T04:44:16.000Z</time>
      </trkpt>
      <trkpt lon="34.90421270951629" lat="31.79220199584961">
        <ele>156.39999389648438</ele>
        <time>2011-06-17T04:44:38.000Z</time>
      </trkpt>
      <trkpt lon="34.905026676133275" lat="31.7920349445194">
        <ele>155.8000030517578</ele>
        <time>2011-06-17T04:44:59.000Z</time>
      </trkpt>
      <trkpt lon="34.905865704640746" lat="31.791751133278012">
        <ele>155.8000030517578</ele>
        <time>2011-06-17T04:45:22.000Z</time>
      </trkpt>
      <trkpt lon="34.9065175652504" lat="31.7916067969054">
        <ele>155.39999389648438</ele>
        <time>2011-06-17T04:45:40.000Z</time>
      </trkpt>
      <trkpt lon="34.907344691455364" lat="31.791456509381533">
        <ele>155.39999389648438</ele>
        <time>2011-06-17T04:46:04.000Z</time>
      </trkpt>
      <trkpt lon="34.90763143636286" lat="31.791354166343808">
        <ele>155.0</ele>
        <time>2011-06-17T04:46:14.000Z</time>
      </trkpt>
      <trkpt lon="34.90851472131908" lat="31.791371516883373">
        <ele>155.39999389648438</ele>
        <time>2011-06-17T04:46:36.000Z</time>
      </trkpt>
      <trkpt lon="34.909477550536394" lat="31.7913596983999">
        <ele>155.39999389648438</ele>
        <time>2011-06-17T04:47:00.000Z</time>
      </trkpt>
      <trkpt lon="34.91043803282082" lat="31.791321644559503">
        <ele>155.8000030517578</ele>
        <time>2011-06-17T04:47:23.000Z</time>
      </trkpt>
      <trkpt lon="34.91108704358339" lat="31.791433962062">
        <ele>155.8000030517578</ele>
        <time>2011-06-17T04:47:41.000Z</time>
      </trkpt>
      <trkpt lon="34.91216495633125" lat="31.79146765731275">
        <ele>156.39999389648438</ele>
        <time>2011-06-17T04:48:09.000Z</time>
      </trkpt>
      <trkpt lon="34.91308772005141" lat="31.791647113859653">
        <ele>156.39999389648438</ele>
        <time>2011-06-17T04:48:32.000Z</time>
      </trkpt>
      <trkpt lon="34.91365861147642" lat="31.79177686572075">
        <ele>156.8000030517578</ele>
        <time>2011-06-17T04:48:47.000Z</time>
      </trkpt>
      <trkpt lon="34.91386950016022" lat="31.79150177165866">
        <ele>156.8000030517578</ele>
        <time>2011-06-17T04:48:58.000Z</time>
      </trkpt>
      <trkpt lon="34.91409044712782" lat="31.7910195607692">
        <ele>156.8000030517578</ele>
        <time>2011-06-17T04:49:19.000Z</time>
      </trkpt>
      <trkpt lon="34.91409044712782" lat="31.7910195607692">
        <ele>156.39999389648438</ele>
        <time>2011-06-17T04:49:39.000Z</time>
      </trkpt>
      <trkpt lon="34.91409044712782" lat="31.7910195607692">
        <ele>155.8000030517578</ele>
        <time>2011-06-17T04:49:57.000Z</time>
      </trkpt>
      <trkpt lon="34.91407686844468" lat="31.79104931652546">
        <ele>155.8000030517578</ele>
        <time>2011-06-17T04:50:16.000Z</time>
      </trkpt>
      <trkpt lon="34.91407686844468" lat="31.79104931652546">
        <ele>153.0</ele>
        <time>2011-06-17T04:52:08.000Z</time>
      </trkpt>
      <trkpt lon="34.91405373439193" lat="31.79109960794449">
        <ele>153.0</ele>
        <time>2011-06-17T04:52:25.000Z</time>
      </trkpt>
      <trkpt lon="34.91412908770144" lat="31.790935406461358">
        <ele>152.60000610351562</ele>
        <time>2011-06-17T04:52:44.000Z</time>
      </trkpt>
      <trkpt lon="34.91436503827572" lat="31.790420589968562">
        <ele>153.0</ele>
        <time>2011-06-17T04:53:09.000Z</time>
      </trkpt>
      <trkpt lon="34.91450937464833" lat="31.790105681866407">
        <ele>153.39999389648438</ele>
        <time>2011-06-17T04:53:28.000Z</time>
      </trkpt>
      <trkpt lon="34.91474172100425" lat="31.789598744362593">
        <ele>153.0</ele>
        <time>2011-06-17T04:53:46.000Z</time>
      </trkpt>
      <trkpt lon="34.91500038653612" lat="31.789034558460116">
        <ele>153.0</ele>
        <time>2011-06-17T04:54:01.000Z</time>
      </trkpt>
      <trkpt lon="34.91535695269704" lat="31.788527872413397">
        <ele>153.0</ele>
        <time>2011-06-17T04:54:20.000Z</time>
      </trkpt>
      <trkpt lon="34.91562366485596" lat="31.788489818572998">
        <ele>153.39999389648438</ele>
        <time>2011-06-17T04:54:30.000Z</time>
      </trkpt>
      <trkpt lon="34.91563062183559" lat="31.788490740582347">
        <ele>153.39999389648438</ele>
        <time>2011-06-17T04:54:46.000Z</time>
      </trkpt>
      <trkpt lon="34.91563062183559" lat="31.788490740582347">
        <ele>153.0</ele>
        <time>2011-06-17T04:55:20.000Z</time>
      </trkpt>
      <trkpt lon="34.91563062183559" lat="31.788490740582347">
        <ele>149.60000610351562</ele>
        <time>2011-06-17T04:58:33.000Z</time>
      </trkpt>
      <trkpt lon="34.91563062183559" lat="31.788490740582347">
        <ele>146.8000030517578</ele>
        <time>2011-06-17T05:02:00.000Z</time>
      </trkpt>
      <trkpt lon="34.91563062183559" lat="31.788490740582347">
        <ele>144.8000030517578</ele>
        <time>2011-06-17T05:04:57.000Z</time>
      </trkpt>
      <trkpt lon="34.91563062183559" lat="31.788490740582347">
        <ele>144.39999389648438</ele>
        <time>2011-06-17T05:05:22.000Z</time>
      </trkpt>
      <trkpt lon="34.91563062183559" lat="31.788490740582347">
        <ele>143.8000030517578</ele>
        <time>2011-06-17T05:05:27.000Z</time>
      </trkpt>
      <trkpt lon="34.916032617911696" lat="31.7885432112962">
        <ele>143.8000030517578</ele>
        <time>2011-06-17T05:05:44.000Z</time>
      </trkpt>
      <trkpt lon="34.916615411639214" lat="31.788619235157967">
        <ele>145.1999969482422</ele>
        <time>2011-06-17T05:06:06.000Z</time>
      </trkpt>
      <trkpt lon="34.91712159477174" lat="31.78868293762207">
        <ele>145.8000030517578</ele>
        <time>2011-06-17T05:06:27.000Z</time>
      </trkpt>
      <trkpt lon="34.917757865041494" lat="31.788656869903207">
        <ele>147.60000610351562</ele>
        <time>2011-06-17T05:06:50.000Z</time>
      </trkpt>
      <trkpt lon="34.91782374680042" lat="31.788601968437433">
        <ele>147.60000610351562</ele>
        <time>2011-06-17T05:06:55.000Z</time>
      </trkpt>
      <trkpt lon="34.917957186698914" lat="31.788303907960653">
        <ele>148.1999969482422</ele>
        <time>2011-06-17T05:07:11.000Z</time>
      </trkpt>
      <trkpt lon="34.91813630796969" lat="31.78797483444214">
        <ele>149.1999969482422</ele>
        <time>2011-06-17T05:07:25.000Z</time>
      </trkpt>
      <trkpt lon="34.9182446859777" lat="31.78797483444214">
        <ele>149.1999969482422</ele>
        <time>2011-06-17T05:07:29.000Z</time>
      </trkpt>
      <trkpt lon="34.918764531612396" lat="31.788141885772347">
        <ele>151.60000610351562</ele>
        <time>2011-06-17T05:07:50.000Z</time>
      </trkpt>
      <trkpt lon="34.91919963620603" lat="31.788293179124594">
        <ele>153.0</ele>
        <time>2011-06-17T05:08:10.000Z</time>
      </trkpt>
      <trkpt lon="34.91929376497865" lat="31.7883032374084">
        <ele>153.39999389648438</ele>
        <time>2011-06-17T05:08:14.000Z</time>
      </trkpt>
      <trkpt lon="34.919364927336574" lat="31.788207767531276">
        <ele>154.0</ele>
        <time>2011-06-17T05:08:22.000Z</time>
      </trkpt>
      <trkpt lon="34.91958570666611" lat="31.7876953817904">
        <ele>155.8000030517578</ele>
        <time>2011-06-17T05:08:50.000Z</time>
      </trkpt>
      <trkpt lon="34.91982978768647" lat="31.787128765136003">
        <ele>157.39999389648438</ele>
        <time>2011-06-17T05:09:15.000Z</time>
      </trkpt>
      <trkpt lon="34.92006087675691" lat="31.78658042103052">
        <ele>156.8000030517578</ele>
        <time>2011-06-17T05:09:37.000Z</time>
      </trkpt>
      <trkpt lon="34.920194149017334" lat="31.786258220672607">
        <ele>158.1999969482422</ele>
        <time>2011-06-17T05:09:56.000Z</time>
      </trkpt>
      <trkpt lon="34.920194149017334" lat="31.786258220672607">
        <ele>158.1999969482422</ele>
        <time>2011-06-17T05:10:08.000Z</time>
      </trkpt>
      <trkpt lon="34.920194149017334" lat="31.786258220672607">
        <ele>158.1999969482422</ele>
        <time>2011-06-17T05:10:12.000Z</time>
      </trkpt>
      <trkpt lon="34.920687172561884" lat="31.786321168765426">
        <ele>159.1999969482422</ele>
        <time>2011-06-17T05:10:33.000Z</time>
      </trkpt>
      <trkpt lon="34.921073326841" lat="31.786370454356074">
        <ele>161.1999969482422</ele>
        <time>2011-06-17T05:10:55.000Z</time>
      </trkpt>
      <trkpt lon="34.92137851193547" lat="31.786448322236538">
        <ele>162.60000610351562</ele>
        <time>2011-06-17T05:11:14.000Z</time>
      </trkpt>
      <trkpt lon="34.921748992055655" lat="31.786577571183443">
        <ele>165.0</ele>
        <time>2011-06-17T05:11:38.000Z</time>
      </trkpt>
      <trkpt lon="34.92217663675547" lat="31.786719476804137">
        <ele>167.39999389648438</ele>
        <time>2011-06-17T05:12:04.000Z</time>
      </trkpt>
      <trkpt lon="34.922514678910375" lat="31.786789381876588">
        <ele>169.39999389648438</ele>
        <time>2011-06-17T05:12:24.000Z</time>
      </trkpt>
      <trkpt lon="34.92289463058114" lat="31.78680363111198">
        <ele>171.1999969482422</ele>
        <time>2011-06-17T05:12:47.000Z</time>
      </trkpt>
      <trkpt lon="34.9232005700469" lat="31.78667119704187">
        <ele>173.1999969482422</ele>
        <time>2011-06-17T05:13:07.000Z</time>
      </trkpt>
      <trkpt lon="34.92353584617376" lat="31.786474641412497">
        <ele>175.0</ele>
        <time>2011-06-17T05:13:28.000Z</time>
      </trkpt>
      <trkpt lon="34.92380750365555" lat="31.786363078281283">
        <ele>177.0</ele>
        <time>2011-06-17T05:13:45.000Z</time>
      </trkpt>
      <trkpt lon="34.92424420081079" lat="31.78630616515875">
        <ele>178.39999389648438</ele>
        <time>2011-06-17T05:14:06.000Z</time>
      </trkpt>
      <trkpt lon="34.924590876325965" lat="31.786183202639222">
        <ele>180.0</ele>
        <time>2011-06-17T05:14:24.000Z</time>
      </trkpt>
      <trkpt lon="34.92467947304249" lat="31.786116985604167">
        <ele>180.39999389648438</ele>
        <time>2011-06-17T05:14:41.000Z</time>
      </trkpt>
      <trkpt lon="34.92485758848488" lat="31.785965273156762">
        <ele>181.8000030517578</ele>
        <time>2011-06-17T05:14:59.000Z</time>
      </trkpt>
      <trkpt lon="34.92511633783579" lat="31.78574482910335">
        <ele>182.8000030517578</ele>
        <time>2011-06-17T05:15:18.000Z</time>
      </trkpt>
      <trkpt lon="34.92533720098436" lat="31.785617424175143">
        <ele>183.8000030517578</ele>
        <time>2011-06-17T05:15:33.000Z</time>
      </trkpt>
      <trkpt lon="34.925694689154625" lat="31.785464202985168">
        <ele>182.39999389648438</ele>
        <time>2011-06-17T05:15:45.000Z</time>
      </trkpt>
      <trkpt lon="34.92619483731687" lat="31.785165555775166">
        <ele>183.1999969482422</ele>
        <time>2011-06-17T05:16:08.000Z</time>
      </trkpt>
      <trkpt lon="34.92663798853755" lat="31.784904208034277">
        <ele>182.8000030517578</ele>
        <time>2011-06-17T05:16:28.000Z</time>
      </trkpt>
      <trkpt lon="34.92682767100632" lat="31.78469859994948">
        <ele>183.1999969482422</ele>
        <time>2011-06-17T05:16:35.000Z</time>
      </trkpt>
      <trkpt lon="34.92685507982969" lat="31.784193171188235">
        <ele>185.60000610351562</ele>
        <time>2011-06-17T05:17:00.000Z</time>
      </trkpt>
      <trkpt lon="34.92680311203003" lat="31.783769465982914">
        <ele>187.1999969482422</ele>
        <time>2011-06-17T05:17:21.000Z</time>
      </trkpt>
      <trkpt lon="34.92678349837661" lat="31.78343502804637">
        <ele>188.0</ele>
        <time>2011-06-17T05:17:40.000Z</time>
      </trkpt>
      <trkpt lon="34.926977790892124" lat="31.783036552369595">
        <ele>187.60000610351562</ele>
        <time>2011-06-17T05:17:56.000Z</time>
      </trkpt>
      <trkpt lon="34.927407279610634" lat="31.782841756939888">
        <ele>187.1999969482422</ele>
        <time>2011-06-17T05:18:15.000Z</time>
      </trkpt>
      <trkpt lon="34.92757081054151" lat="31.782872434705496">
        <ele>186.1999969482422</ele>
        <time>2011-06-17T05:18:19.000Z</time>
      </trkpt>
      <trkpt lon="34.92789686657488" lat="31.782830441370606">
        <ele>186.1999969482422</ele>
        <time>2011-06-17T05:18:27.000Z</time>
      </trkpt>
      <trkpt lon="34.928199453279376" lat="31.78260882385075">
        <ele>188.0</ele>
        <time>2011-06-17T05:18:43.000Z</time>
      </trkpt>
      <trkpt lon="34.92842182517052" lat="31.782187214121222">
        <ele>190.39999389648438</ele>
        <time>2011-06-17T05:19:06.000Z</time>
      </trkpt>
      <trkpt lon="34.92862273938954" lat="31.781765772029757">
        <ele>190.0</ele>
        <time>2011-06-17T05:19:27.000Z</time>
      </trkpt>
      <trkpt lon="34.92897167801857" lat="31.781607186421752">
        <ele>188.60000610351562</ele>
        <time>2011-06-17T05:19:45.000Z</time>
      </trkpt>
      <trkpt lon="34.92926822975278" lat="31.781367296352983">
        <ele>185.60000610351562</ele>
        <time>2011-06-17T05:19:59.000Z</time>
      </trkpt>
      <trkpt lon="34.92928004823625" lat="31.780981058254838">
        <ele>183.8000030517578</ele>
        <time>2011-06-17T05:20:13.000Z</time>
      </trkpt>
      <trkpt lon="34.92944114841521" lat="31.780783999711275">
        <ele>180.8000030517578</ele>
        <time>2011-06-17T05:20:20.000Z</time>
      </trkpt>
      <trkpt lon="34.92965438403189" lat="31.780649218708277">
        <ele>177.0</ele>
        <time>2011-06-17T05:20:25.000Z</time>
      </trkpt>
      <trkpt lon="34.929700484499335" lat="31.78062013350427">
        <ele>176.60000610351562</ele>
        <time>2011-06-17T05:20:26.000Z</time>
      </trkpt>
      <trkpt lon="34.92989896796644" lat="31.780593395233154">
        <ele>175.0</ele>
        <time>2011-06-17T05:20:30.000Z</time>
      </trkpt>
      <trkpt lon="34.930085968226194" lat="31.780593395233154">
        <ele>175.60000610351562</ele>
        <time>2011-06-17T05:20:43.000Z</time>
      </trkpt>
      <trkpt lon="34.93020021356642" lat="31.78057705052197">
        <ele>175.60000610351562</ele>
        <time>2011-06-17T05:20:48.000Z</time>
      </trkpt>
      <trkpt lon="34.93054177612066" lat="31.780379321426153">
        <ele>176.0</ele>
        <time>2011-06-17T05:21:02.000Z</time>
      </trkpt>
      <trkpt lon="34.930955339223146" lat="31.78032391704619">
        <ele>177.60000610351562</ele>
        <time>2011-06-17T05:21:19.000Z</time>
      </trkpt>
      <trkpt lon="34.93142019957304" lat="31.780282594263554">
        <ele>180.0</ele>
        <time>2011-06-17T05:21:41.000Z</time>
      </trkpt>
      <trkpt lon="34.93183325976133" lat="31.78021394647658">
        <ele>178.0</ele>
        <time>2011-06-17T05:21:56.000Z</time>
      </trkpt>
      <trkpt lon="34.93200198747218" lat="31.780180167406797">
        <ele>177.0</ele>
        <time>2011-06-17T05:21:59.000Z</time>
      </trkpt>
      <trkpt lon="34.932174403220415" lat="31.78016424179077">
        <ele>176.60000610351562</ele>
        <time>2011-06-17T05:22:02.000Z</time>
      </trkpt>
      <trkpt lon="34.932476906105876" lat="31.78016424179077">
        <ele>176.60000610351562</ele>
        <time>2011-06-17T05:22:12.000Z</time>
      </trkpt>
      <trkpt lon="34.93290714919567" lat="31.780006159096956">
        <ele>177.0</ele>
        <time>2011-06-17T05:22:30.000Z</time>
      </trkpt>
      <trkpt lon="34.9331109970808" lat="31.77988571114838">
        <ele>178.0</ele>
        <time>2011-06-17T05:22:43.000Z</time>
      </trkpt>
      <trkpt lon="34.933427749201655" lat="31.78005267865956">
        <ele>180.0</ele>
        <time>2011-06-17T05:23:00.000Z</time>
      </trkpt>
      <trkpt lon="34.93384432978928" lat="31.78014169447124">
        <ele>182.8000030517578</ele>
        <time>2011-06-17T05:23:24.000Z</time>
      </trkpt>
      <trkpt lon="34.93423358537257" lat="31.78013247437775">
        <ele>185.1999969482422</ele>
        <time>2011-06-17T05:23:46.000Z</time>
      </trkpt>
      <trkpt lon="34.934249091893435" lat="31.780132139101624">
        <ele>185.1999969482422</ele>
        <time>2011-06-17T05:23:47.000Z</time>
      </trkpt>
      <trkpt lon="34.93462024256587" lat="31.780123421922326">
        <ele>188.0</ele>
        <time>2011-06-17T05:24:08.000Z</time>
      </trkpt>
      <trkpt lon="34.93505660444498" lat="31.780113112181425">
        <ele>191.39999389648438</ele>
        <time>2011-06-17T05:24:30.000Z</time>
      </trkpt>
      <trkpt lon="34.93545189499855" lat="31.780103808268905">
        <ele>194.39999389648438</ele>
        <time>2011-06-17T05:24:49.000Z</time>
      </trkpt>
      <trkpt lon="34.93592396378517" lat="31.780206318944693">
        <ele>193.39999389648438</ele>
        <time>2011-06-17T05:25:06.000Z</time>
      </trkpt>
      <trkpt lon="34.93637189269066" lat="31.780413771048188">
        <ele>195.8000030517578</ele>
        <time>2011-06-17T05:25:27.000Z</time>
      </trkpt>
      <trkpt lon="34.93677757680416" lat="31.78046464920044">
        <ele>197.1999969482422</ele>
        <time>2011-06-17T05:25:47.000Z</time>
      </trkpt>
      <trkpt lon="34.93709600530565" lat="31.78046464920044">
        <ele>200.60000610351562</ele>
        <time>2011-06-17T05:26:05.000Z</time>
      </trkpt>
      <trkpt lon="34.937397418543696" lat="31.78038753569126">
        <ele>203.39999389648438</ele>
        <time>2011-06-17T05:26:22.000Z</time>
      </trkpt>
      <trkpt lon="34.937721798196435" lat="31.780289886519313">
        <ele>206.39999389648438</ele>
        <time>2011-06-17T05:26:35.000Z</time>
      </trkpt>
      <trkpt lon="34.938104934990406" lat="31.78022718988359">
        <ele>209.8000030517578</ele>
        <time>2011-06-17T05:26:54.000Z</time>
      </trkpt>
      <trkpt lon="34.93853987194598" lat="31.780238673090935">
        <ele>210.60000610351562</ele>
        <time>2011-06-17T05:27:18.000Z</time>
      </trkpt>
      <trkpt lon="34.939004899933934" lat="31.780307069420815">
        <ele>210.60000610351562</ele>
        <time>2011-06-17T05:27:34.000Z</time>
      </trkpt>
      <trkpt lon="34.939460875466466" lat="31.780251245945692">
        <ele>210.60000610351562</ele>
        <time>2011-06-17T05:27:49.000Z</time>
      </trkpt>
      <trkpt lon="34.93983630090952" lat="31.780192740261555">
        <ele>211.1999969482422</ele>
        <time>2011-06-17T05:28:04.000Z</time>
      </trkpt>
      <trkpt lon="34.940375592559576" lat="31.780108669772744">
        <ele>212.1999969482422</ele>
        <time>2011-06-17T05:28:24.000Z</time>
      </trkpt>
      <trkpt lon="34.940891079604626" lat="31.78005033172667">
        <ele>212.1999969482422</ele>
        <time>2011-06-17T05:28:41.000Z</time>
      </trkpt>
      <trkpt lon="34.94131973013282" lat="31.780037255957723">
        <ele>212.1999969482422</ele>
        <time>2011-06-17T05:28:56.000Z</time>
      </trkpt>
      <trkpt lon="34.94197016581893" lat="31.780138928443193">
        <ele>210.60000610351562</ele>
        <time>2011-06-17T05:29:14.000Z</time>
      </trkpt>
      <trkpt lon="34.94277994148433" lat="31.78042072802782">
        <ele>209.8000030517578</ele>
        <time>2011-06-17T05:29:33.000Z</time>
      </trkpt>
      <trkpt lon="34.942995021119714" lat="31.78049691952765">
        <ele>210.1999969482422</ele>
        <time>2011-06-17T05:29:40.000Z</time>
      </trkpt>
      <trkpt lon="34.94311111047864" lat="31.780452243983746">
        <ele>210.1999969482422</ele>
        <time>2011-06-17T05:29:45.000Z</time>
      </trkpt>
      <trkpt lon="34.94328352622688" lat="31.780341435223818">
        <ele>210.60000610351562</ele>
        <time>2011-06-17T05:30:01.000Z</time>
      </trkpt>
      <trkpt lon="34.94328352622688" lat="31.780341435223818">
        <ele>210.60000610351562</ele>
        <time>2011-06-17T05:30:18.000Z</time>
      </trkpt>
      <trkpt lon="34.94328352622688" lat="31.780341435223818">
        <ele>210.1999969482422</ele>
        <time>2011-06-17T05:30:36.000Z</time>
      </trkpt>
      <trkpt lon="34.94328352622688" lat="31.780341435223818">
        <ele>210.1999969482422</ele>
        <time>2011-06-17T05:30:52.000Z</time>
      </trkpt>
      <trkpt lon="34.94328352622688" lat="31.780341435223818">
        <ele>210.1999969482422</ele>
        <time>2011-06-17T05:31:39.000Z</time>
      </trkpt>
      <trkpt lon="34.94342057034373" lat="31.78027220070362">
        <ele>210.60000610351562</ele>
        <time>2011-06-17T05:31:50.000Z</time>
      </trkpt>
      <trkpt lon="34.94383245706558" lat="31.78010154515505">
        <ele>212.1999969482422</ele>
        <time>2011-06-17T05:32:07.000Z</time>
      </trkpt>
      <trkpt lon="34.944675005972385" lat="31.7798138782382">
        <ele>213.0</ele>
        <time>2011-06-17T05:32:30.000Z</time>
      </trkpt>
      <trkpt lon="34.94545611552894" lat="31.779547166079283">
        <ele>212.60000610351562</ele>
        <time>2011-06-17T05:32:49.000Z</time>
      </trkpt>
      <trkpt lon="34.94547128677368" lat="31.779541969299316">
        <ele>212.1999969482422</ele>
        <time>2011-06-17T05:32:52.000Z</time>
      </trkpt>
      <trkpt lon="34.94568636640906" lat="31.779176853597164">
        <ele>211.1999969482422</ele>
        <time>2011-06-17T05:32:57.000Z</time>
      </trkpt>
      <trkpt lon="34.94591502472758" lat="31.779053723439574">
        <ele>211.60000610351562</ele>
        <time>2011-06-17T05:33:03.000Z</time>
      </trkpt>
      <trkpt lon="34.946364630013704" lat="31.778867058455944">
        <ele>213.60000610351562</ele>
        <time>2011-06-17T05:33:20.000Z</time>
      </trkpt>
      <trkpt lon="34.94680074043572" lat="31.778735546395183">
        <ele>215.39999389648438</ele>
        <time>2011-06-17T05:33:39.000Z</time>
      </trkpt>
      <trkpt lon="34.94704817421734" lat="31.778675196692348">
        <ele>217.8000030517578</ele>
        <time>2011-06-17T05:33:55.000Z</time>
      </trkpt>
      <trkpt lon="34.94734648615122" lat="31.778570422902703">
        <ele>220.8000030517578</ele>
        <time>2011-06-17T05:34:14.000Z</time>
      </trkpt>
      <trkpt lon="34.94761001318693" lat="31.77853999659419">
        <ele>224.1999969482422</ele>
        <time>2011-06-17T05:34:29.000Z</time>
      </trkpt>
      <trkpt lon="34.94805651716888" lat="31.77822433412075">
        <ele>227.0</ele>
        <time>2011-06-17T05:34:46.000Z</time>
      </trkpt>
      <trkpt lon="34.94808434508741" lat="31.77810405381024">
        <ele>228.39999389648438</ele>
        <time>2011-06-17T05:34:53.000Z</time>
      </trkpt>
      <trkpt lon="34.94808434508741" lat="31.77810405381024">
        <ele>229.39999389648438</ele>
        <time>2011-06-17T05:34:57.000Z</time>
      </trkpt>
      <trkpt lon="34.947911174967885" lat="31.777789229527116">
        <ele>230.39999389648438</ele>
        <time>2011-06-17T05:35:14.000Z</time>
      </trkpt>
      <trkpt lon="34.94813974946737" lat="31.777489241212606">
        <ele>233.1999969482422</ele>
        <time>2011-06-17T05:35:38.000Z</time>
      </trkpt>
      <trkpt lon="34.94825600646436" lat="31.777280448004603">
        <ele>236.1999969482422</ele>
        <time>2011-06-17T05:35:56.000Z</time>
      </trkpt>
      <trkpt lon="34.948406126350164" lat="31.777089508250356">
        <ele>239.0</ele>
        <time>2011-06-17T05:36:12.000Z</time>
      </trkpt>
      <trkpt lon="34.948561023920774" lat="31.776906782761216">
        <ele>242.0</ele>
        <time>2011-06-17T05:36:28.000Z</time>
      </trkpt>
      <trkpt lon="34.948800411075354" lat="31.776681980118155">
        <ele>244.39999389648438</ele>
        <time>2011-06-17T05:36:49.000Z</time>
      </trkpt>
      <trkpt lon="34.949153205379844" lat="31.776429852470756">
        <ele>247.1999969482422</ele>
        <time>2011-06-17T05:37:12.000Z</time>
      </trkpt>
      <trkpt lon="34.94931531138718" lat="31.776309236884117">
        <ele>248.1999969482422</ele>
        <time>2011-06-17T05:37:24.000Z</time>
      </trkpt>
      <trkpt lon="34.94944866746664" lat="31.77626489661634">
        <ele>249.1999969482422</ele>
        <time>2011-06-17T05:37:31.000Z</time>
      </trkpt>
      <trkpt lon="34.94957230053842" lat="31.776058115065098">
        <ele>250.60000610351562</ele>
        <time>2011-06-17T05:37:46.000Z</time>
      </trkpt>
      <trkpt lon="34.949770448729396" lat="31.775848483666778">
        <ele>253.0</ele>
        <time>2011-06-17T05:38:06.000Z</time>
      </trkpt>
      <trkpt lon="34.9498098436743" lat="31.77582459524274">
        <ele>253.39999389648438</ele>
        <time>2011-06-17T05:38:09.000Z</time>
      </trkpt>
      <trkpt lon="34.949839264154434" lat="31.775776483118534">
        <ele>254.0</ele>
        <time>2011-06-17T05:38:13.000Z</time>
      </trkpt>
      <trkpt lon="34.94984840042889" lat="31.775737339630723">
        <ele>254.39999389648438</ele>
        <time>2011-06-17T05:38:16.000Z</time>
      </trkpt>
      <trkpt lon="34.949977062642574" lat="31.775459479540586">
        <ele>255.8000030517578</ele>
        <time>2011-06-17T05:38:41.000Z</time>
      </trkpt>
      <trkpt lon="34.949991311877966" lat="31.77542687393725">
        <ele>256.3999938964844</ele>
        <time>2011-06-17T05:38:44.000Z</time>
      </trkpt>
      <trkpt lon="34.950050320476294" lat="31.77532872185111">
        <ele>256.79998779296875</ele>
        <time>2011-06-17T05:38:57.000Z</time>
      </trkpt>
      <trkpt lon="34.95008912868798" lat="31.77531690336764">
        <ele>256.79998779296875</ele>
        <time>2011-06-17T05:39:00.000Z</time>
      </trkpt>
      <trkpt lon="34.95030169375241" lat="31.775185307487845">
        <ele>258.20001220703125</ele>
        <time>2011-06-17T05:39:18.000Z</time>
      </trkpt>
      <trkpt lon="34.95040060020983" lat="31.774980621412396">
        <ele>257.20001220703125</ele>
        <time>2011-06-17T05:39:31.000Z</time>
      </trkpt>
      <trkpt lon="34.95042432099581" lat="31.774884900078177">
        <ele>257.20001220703125</ele>
        <time>2011-06-17T05:39:38.000Z</time>
      </trkpt>
      <trkpt lon="34.950443767011166" lat="31.77495145238936">
        <ele>256.79998779296875</ele>
        <time>2011-06-17T05:39:44.000Z</time>
      </trkpt>
      <trkpt lon="34.950358271598816" lat="31.77507609128952">
        <ele>257.20001220703125</ele>
        <time>2011-06-17T05:39:51.000Z</time>
      </trkpt>
      <trkpt lon="34.950347542762756" lat="31.775101320818067">
        <ele>257.79998779296875</ele>
        <time>2011-06-17T05:39:53.000Z</time>
      </trkpt>
      <trkpt lon="34.95029104873538" lat="31.775161419063807">
        <ele>257.20001220703125</ele>
        <time>2011-06-17T05:39:57.000Z</time>
      </trkpt>
      <trkpt lon="34.9497321434319" lat="31.775492504239082">
        <ele>255.39999389648438</ele>
        <time>2011-06-17T05:40:13.000Z</time>
      </trkpt>
      <trkpt lon="34.94922235608101" lat="31.775698363780975">
        <ele>256.3999938964844</ele>
        <time>2011-06-17T05:40:28.000Z</time>
      </trkpt>
      <trkpt lon="34.94858189485967" lat="31.776005141437054">
        <ele>256.3999938964844</ele>
        <time>2011-06-17T05:40:44.000Z</time>
      </trkpt>
      <trkpt lon="34.94810261763632" lat="31.77625752054155">
        <ele>257.79998779296875</ele>
        <time>2011-06-17T05:41:01.000Z</time>
      </trkpt>
      <trkpt lon="34.947899440303445" lat="31.776362881064415">
        <ele>258.20001220703125</ele>
        <time>2011-06-17T05:41:08.000Z</time>
      </trkpt>
      <trkpt lon="34.94779718108475" lat="31.776400515809655">
        <ele>258.20001220703125</ele>
        <time>2011-06-17T05:41:12.000Z</time>
      </trkpt>
      <trkpt lon="34.94743173010647" lat="31.77650780417025">
        <ele>258.20001220703125</ele>
        <time>2011-06-17T05:41:27.000Z</time>
      </trkpt>
      <trkpt lon="34.94708798825741" lat="31.77646815776825">
        <ele>259.20001220703125</ele>
        <time>2011-06-17T05:41:42.000Z</time>
      </trkpt>
      <trkpt lon="34.94706166908145" lat="31.77647645585239">
        <ele>258.79998779296875</ele>
        <time>2011-06-17T05:41:44.000Z</time>
      </trkpt>
      <trkpt lon="34.94667090475559" lat="31.776501853019">
        <ele>258.20001220703125</ele>
        <time>2011-06-17T05:42:00.000Z</time>
      </trkpt>
      <trkpt lon="34.9465546477586" lat="31.776491794735193">
        <ele>258.20001220703125</ele>
        <time>2011-06-17T05:42:14.000Z</time>
      </trkpt>
      <trkpt lon="34.946584990248084" lat="31.776469750329852">
        <ele>259.6000061035156</ele>
        <time>2011-06-17T05:42:31.000Z</time>
      </trkpt>
      <trkpt lon="34.94660720229149" lat="31.77652238868177">
        <ele>258.20001220703125</ele>
        <time>2011-06-17T05:42:44.000Z</time>
      </trkpt>
      <trkpt lon="34.94650452397764" lat="31.776534290984273">
        <ele>257.79998779296875</ele>
        <time>2011-06-17T05:43:07.000Z</time>
      </trkpt>
      <trkpt lon="34.94654064998031" lat="31.77653663791716">
        <ele>258.20001220703125</ele>
        <time>2011-06-17T05:43:19.000Z</time>
      </trkpt>
      <trkpt lon="34.9465823918581" lat="31.776549965143204">
        <ele>258.20001220703125</ele>
        <time>2011-06-17T05:43:46.000Z</time>
      </trkpt>
      <trkpt lon="34.94658197276294" lat="31.776544181630015">
        <ele>258.20001220703125</ele>
        <time>2011-06-17T05:43:57.000Z</time>
      </trkpt>
      <trkpt lon="34.94663301855326" lat="31.776541331782937">
        <ele>258.20001220703125</ele>
        <time>2011-06-17T05:44:01.000Z</time>
      </trkpt>
      <trkpt lon="34.946707701310515" lat="31.77655080333352">
        <ele>258.20001220703125</ele>
        <time>2011-06-17T05:44:05.000Z</time>
      </trkpt>
      <trkpt lon="34.94704373180866" lat="31.77648877725005">
        <ele>258.79998779296875</ele>
        <time>2011-06-17T05:44:23.000Z</time>
      </trkpt>
      <trkpt lon="34.9474664311856" lat="31.776505708694458">
        <ele>258.20001220703125</ele>
        <time>2011-06-17T05:44:35.000Z</time>
      </trkpt>
      <trkpt lon="34.94769701734185" lat="31.77637629210949">
        <ele>258.20001220703125</ele>
        <time>2011-06-17T05:44:45.000Z</time>
      </trkpt>
      <trkpt lon="34.947564667090774" lat="31.77610714919865">
        <ele>261.20001220703125</ele>
        <time>2011-06-17T05:45:01.000Z</time>
      </trkpt>
      <trkpt lon="34.94755729101598" lat="31.776055181398988">
        <ele>261.6000061035156</ele>
        <time>2011-06-17T05:45:05.000Z</time>
      </trkpt>
      <trkpt lon="34.947392754256725" lat="31.77574253641069">
        <ele>258.79998779296875</ele>
        <time>2011-06-17T05:45:23.000Z</time>
      </trkpt>
      <trkpt lon="34.947275910526514" lat="31.77565368823707">
        <ele>257.20001220703125</ele>
        <time>2011-06-17T05:45:27.000Z</time>
      </trkpt>
      <trkpt lon="34.947140123695135" lat="31.775607503950596">
        <ele>254.8000030517578</ele>
        <time>2011-06-17T05:45:31.000Z</time>
      </trkpt>
      <trkpt lon="34.947010204195976" lat="31.77566877566278">
        <ele>255.39999389648438</ele>
        <time>2011-06-17T05:45:36.000Z</time>
      </trkpt>
      <trkpt lon="34.9470192566514" lat="31.77560867741704">
        <ele>255.39999389648438</ele>
        <time>2011-06-17T05:45:46.000Z</time>
      </trkpt>
      <trkpt lon="34.94703979231417" lat="31.775622507557273">
        <ele>255.39999389648438</ele>
        <time>2011-06-17T05:45:48.000Z</time>
      </trkpt>
      <trkpt lon="34.9470573104918" lat="31.775640696287155">
        <ele>255.39999389648438</ele>
        <time>2011-06-17T05:45:50.000Z</time>
      </trkpt>
      <trkpt lon="34.946964271366596" lat="31.77570196799934">
        <ele>255.8000030517578</ele>
        <time>2011-06-17T05:45:57.000Z</time>
      </trkpt>
      <trkpt lon="34.94692135602236" lat="31.775699704885483">
        <ele>255.8000030517578</ele>
        <time>2011-06-17T05:46:00.000Z</time>
      </trkpt>
      <trkpt lon="34.94699075818062" lat="31.77562041208148">
        <ele>255.39999389648438</ele>
        <time>2011-06-17T05:46:09.000Z</time>
      </trkpt>
      <trkpt lon="34.94732377119362" lat="31.77539996802807">
        <ele>253.39999389648438</ele>
        <time>2011-06-17T05:46:23.000Z</time>
      </trkpt>
      <trkpt lon="34.947415636852384" lat="31.775328805670142">
        <ele>252.0</ele>
        <time>2011-06-17T05:46:25.000Z</time>
      </trkpt>
      <trkpt lon="34.94757631793618" lat="31.77520450204611">
        <ele>250.60000610351562</ele>
        <time>2011-06-17T05:46:28.000Z</time>
      </trkpt>
      <trkpt lon="34.94793280027807" lat="31.77492848597467">
        <ele>251.60000610351562</ele>
        <time>2011-06-17T05:46:38.000Z</time>
      </trkpt>
      <trkpt lon="34.94819624349475" lat="31.774761183187366">
        <ele>249.60000610351562</ele>
        <time>2011-06-17T05:46:49.000Z</time>
      </trkpt>
      <trkpt lon="34.94860586710274" lat="31.77491289563477">
        <ele>250.0</ele>
        <time>2011-06-17T05:47:04.000Z</time>
      </trkpt>
      <trkpt lon="34.949102494865656" lat="31.775172483175993">
        <ele>252.39999389648438</ele>
        <time>2011-06-17T05:47:27.000Z</time>
      </trkpt>
      <trkpt lon="34.94938454590738" lat="31.775344144552946">
        <ele>254.8000030517578</ele>
        <time>2011-06-17T05:47:44.000Z</time>
      </trkpt>
      <trkpt lon="34.94958629831672" lat="31.775545896962285">
        <ele>255.8000030517578</ele>
        <time>2011-06-17T05:47:58.000Z</time>
      </trkpt>
      <trkpt lon="34.94970129802823" lat="31.775505244731903">
        <ele>256.3999938964844</ele>
        <time>2011-06-17T05:48:02.000Z</time>
      </trkpt>
      <trkpt lon="34.950076220557094" lat="31.775350095704198">
        <ele>257.20001220703125</ele>
        <time>2011-06-17T05:48:19.000Z</time>
      </trkpt>
      <trkpt lon="34.950440833345056" lat="31.775001576170325">
        <ele>257.79998779296875</ele>
        <time>2011-06-17T05:48:38.000Z</time>
      </trkpt>
      <trkpt lon="34.9509412329644" lat="31.774520706385374">
        <ele>256.79998779296875</ele>
        <time>2011-06-17T05:48:54.000Z</time>
      </trkpt>
      <trkpt lon="34.9516180716455" lat="31.77428735420108">
        <ele>256.79998779296875</ele>
        <time>2011-06-17T05:49:12.000Z</time>
      </trkpt>
      <trkpt lon="34.95231150649488" lat="31.774045368656516">
        <ele>257.20001220703125</ele>
        <time>2011-06-17T05:49:35.000Z</time>
      </trkpt>
      <trkpt lon="34.95297468267381" lat="31.77380665205419">
        <ele>254.39999389648438</ele>
        <time>2011-06-17T05:49:49.000Z</time>
      </trkpt>
      <trkpt lon="34.953511795029044" lat="31.773499622941017">
        <ele>251.0</ele>
        <time>2011-06-17T05:49:57.000Z</time>
      </trkpt>
      <trkpt lon="34.95398621074855" lat="31.772887744009495">
        <ele>251.0</ele>
        <time>2011-06-17T05:50:07.000Z</time>
      </trkpt>
      <trkpt lon="34.954055193811655" lat="31.77262656390667">
        <ele>249.60000610351562</ele>
        <time>2011-06-17T05:50:11.000Z</time>
      </trkpt>
      <trkpt lon="34.954181760549545" lat="31.77161369472742">
        <ele>246.8000030517578</ele>
        <time>2011-06-17T05:50:27.000Z</time>
      </trkpt>
      <trkpt lon="34.95422786101699" lat="31.771245226264">
        <ele>242.8000030517578</ele>
        <time>2011-06-17T05:50:32.000Z</time>
      </trkpt>
      <trkpt lon="34.95424747467041" lat="31.770872650668025">
        <ele>240.0</ele>
        <time>2011-06-17T05:50:36.000Z</time>
      </trkpt>
      <trkpt lon="34.95424747467041" lat="31.770447688177228">
        <ele>235.60000610351562</ele>
        <time>2011-06-17T05:50:40.000Z</time>
      </trkpt>
      <trkpt lon="34.95424747467041" lat="31.769988359883428">
        <ele>231.8000030517578</ele>
        <time>2011-06-17T05:50:44.000Z</time>
      </trkpt>
      <trkpt lon="34.95424261316657" lat="31.769501203671098">
        <ele>228.0</ele>
        <time>2011-06-17T05:50:48.000Z</time>
      </trkpt>
      <trkpt lon="34.95415518991649" lat="31.769126364961267">
        <ele>224.60000610351562</ele>
        <time>2011-06-17T05:50:51.000Z</time>
      </trkpt>
      <trkpt lon="34.95396072976291" lat="31.768623618409038">
        <ele>219.8000030517578</ele>
        <time>2011-06-17T05:50:55.000Z</time>
      </trkpt>
      <trkpt lon="34.95383148081601" lat="31.768383057788014">
        <ele>217.0</ele>
        <time>2011-06-17T05:50:57.000Z</time>
      </trkpt>
      <trkpt lon="34.95371086522937" lat="31.76815850660205">
        <ele>216.0</ele>
        <time>2011-06-17T05:50:59.000Z</time>
      </trkpt>
      <trkpt lon="34.95350165292621" lat="31.76776916719973">
        <ele>211.60000610351562</ele>
        <time>2011-06-17T05:51:03.000Z</time>
      </trkpt>
      <trkpt lon="34.953315909951925" lat="31.767348144203424">
        <ele>208.1999969482422</ele>
        <time>2011-06-17T05:51:08.000Z</time>
      </trkpt>
      <trkpt lon="34.95330040343106" lat="31.76718419417739">
        <ele>207.39999389648438</ele>
        <time>2011-06-17T05:51:10.000Z</time>
      </trkpt>
      <trkpt lon="34.95337726548314" lat="31.766809187829494">
        <ele>204.0</ele>
        <time>2011-06-17T05:51:15.000Z</time>
      </trkpt>
      <trkpt lon="34.95367482304573" lat="31.76658472046256">
        <ele>200.0</ele>
        <time>2011-06-17T05:51:19.000Z</time>
      </trkpt>
      <trkpt lon="34.953791331499815" lat="31.766561586409807">
        <ele>199.60000610351562</ele>
        <time>2011-06-17T05:51:20.000Z</time>
      </trkpt>
      <trkpt lon="34.95403138920665" lat="31.766513977199793">
        <ele>198.1999969482422</ele>
        <time>2011-06-17T05:51:22.000Z</time>
      </trkpt>
      <trkpt lon="34.95438711717725" lat="31.766443317756057">
        <ele>196.8000030517578</ele>
        <time>2011-06-17T05:51:25.000Z</time>
      </trkpt>
      <trkpt lon="34.95490713045001" lat="31.766340052708983">
        <ele>198.60000610351562</ele>
        <time>2011-06-17T05:51:30.000Z</time>
      </trkpt>
      <trkpt lon="34.955645157024264" lat="31.766193453222513">
        <ele>201.0</ele>
        <time>2011-06-17T05:51:41.000Z</time>
      </trkpt>
      <trkpt lon="34.95648485608399" lat="31.76602673716843">
        <ele>203.39999389648438</ele>
        <time>2011-06-17T05:52:01.000Z</time>
      </trkpt>
      <trkpt lon="34.95666657574475" lat="31.7662597540766">
        <ele>205.39999389648438</ele>
        <time>2011-06-17T05:52:12.000Z</time>
      </trkpt>
      <trkpt lon="34.956688452512026" lat="31.766290850937366">
        <ele>205.8000030517578</ele>
        <time>2011-06-17T05:52:15.000Z</time>
      </trkpt>
      <trkpt lon="34.956812504678965" lat="31.766467122361064">
        <ele>208.1999969482422</ele>
        <time>2011-06-17T05:52:32.000Z</time>
      </trkpt>
      <trkpt lon="34.95694820769131" lat="31.766632245853543">
        <ele>211.1999969482422</ele>
        <time>2011-06-17T05:52:49.000Z</time>
      </trkpt>
      <trkpt lon="34.95699112303555" lat="31.766663677990437">
        <ele>211.60000610351562</ele>
        <time>2011-06-17T05:52:55.000Z</time>
      </trkpt>
      <trkpt lon="34.95725934393704" lat="31.766860149800777">
        <ele>214.60000610351562</ele>
        <time>2011-06-17T05:53:17.000Z</time>
      </trkpt>
      <trkpt lon="34.95729404501617" lat="31.766885463148355">
        <ele>214.60000610351562</ele>
        <time>2011-06-17T05:53:20.000Z</time>
      </trkpt>
      <trkpt lon="34.95732480660081" lat="31.766908010467887">
        <ele>217.0</ele>
        <time>2011-06-17T05:53:43.000Z</time>
      </trkpt>
      <trkpt lon="34.95732480660081" lat="31.766908010467887">
        <ele>218.8000030517578</ele>
        <time>2011-06-17T05:54:12.000Z</time>
      </trkpt>
      <trkpt lon="34.95732480660081" lat="31.766908010467887">
        <ele>219.39999389648438</ele>
        <time>2011-06-17T05:54:13.000Z</time>
      </trkpt>
      <trkpt lon="34.957971554249525" lat="31.76738158799708">
        <ele>221.8000030517578</ele>
        <time>2011-06-17T05:54:36.000Z</time>
      </trkpt>
      <trkpt lon="34.95811530388892" lat="31.767484601587057">
        <ele>223.1999969482422</ele>
        <time>2011-06-17T05:54:50.000Z</time>
      </trkpt>
      <trkpt lon="34.95815017260611" lat="31.767496587708592">
        <ele>223.60000610351562</ele>
        <time>2011-06-17T05:54:53.000Z</time>
      </trkpt>
      <trkpt lon="34.95830154977739" lat="31.767548639327288">
        <ele>225.0</ele>
        <time>2011-06-17T05:55:07.000Z</time>
      </trkpt>
      <trkpt lon="34.958687368780375" lat="31.76768124103546">
        <ele>228.0</ele>
        <time>2011-06-17T05:55:36.000Z</time>
      </trkpt>
      <trkpt lon="34.9589210562408" lat="31.76782876253128">
        <ele>230.8000030517578</ele>
        <time>2011-06-17T05:56:01.000Z</time>
      </trkpt>
      <trkpt lon="34.95915088802576" lat="31.768031520769">
        <ele>233.8000030517578</ele>
        <time>2011-06-17T05:56:21.000Z</time>
      </trkpt>
      <trkpt lon="34.95915088802576" lat="31.768031520769">
        <ele>235.1999969482422</ele>
        <time>2011-06-17T05:56:29.000Z</time>
      </trkpt>
      <trkpt lon="34.95927284471691" lat="31.768228746950626">
        <ele>238.0</ele>
        <time>2011-06-17T05:56:48.000Z</time>
      </trkpt>
      <trkpt lon="34.95933906175196" lat="31.76834031008184">
        <ele>238.60000610351562</ele>
        <time>2011-06-17T05:56:51.000Z</time>
      </trkpt>
      <trkpt lon="34.95944785885513" lat="31.768523370847106">
        <ele>242.0</ele>
        <time>2011-06-17T05:57:05.000Z</time>
      </trkpt>
      <trkpt lon="34.95950225740671" lat="31.76861498504877">
        <ele>243.8000030517578</ele>
        <time>2011-06-17T05:57:13.000Z</time>
      </trkpt>
      <trkpt lon="34.9596652854234" lat="31.768814055249095">
        <ele>246.8000030517578</ele>
        <time>2011-06-17T05:57:34.000Z</time>
      </trkpt>
      <trkpt lon="34.95983334258199" lat="31.76896526478231">
        <ele>249.60000610351562</ele>
        <time>2011-06-17T05:57:52.000Z</time>
      </trkpt>
      <trkpt lon="34.959979858249426" lat="31.76909719593823">
        <ele>253.0</ele>
        <time>2011-06-17T05:58:06.000Z</time>
      </trkpt>
      <trkpt lon="34.960057055577636" lat="31.769245387986302">
        <ele>256.3999938964844</ele>
        <time>2011-06-17T05:58:19.000Z</time>
      </trkpt>
      <trkpt lon="34.96010508388281" lat="31.769352676346898">
        <ele>259.20001220703125</ele>
        <time>2011-06-17T05:58:32.000Z</time>
      </trkpt>
      <trkpt lon="34.96010508388281" lat="31.769352676346898">
        <ele>261.20001220703125</ele>
        <time>2011-06-17T05:58:44.000Z</time>
      </trkpt>
      <trkpt lon="34.96010508388281" lat="31.769352676346898">
        <ele>262.0</ele>
        <time>2011-06-17T05:58:49.000Z</time>
      </trkpt>
      <trkpt lon="34.96019594371319" lat="31.76955602131784">
        <ele>265.3999938964844</ele>
        <time>2011-06-17T05:59:02.000Z</time>
      </trkpt>
      <trkpt lon="34.960280768573284" lat="31.76974561996758">
        <ele>268.3999938964844</ele>
        <time>2011-06-17T05:59:18.000Z</time>
      </trkpt>
      <trkpt lon="34.96032075025141" lat="31.769835222512484">
        <ele>271.20001220703125</ele>
        <time>2011-06-17T05:59:31.000Z</time>
      </trkpt>
      <trkpt lon="34.96032075025141" lat="31.769835222512484">
        <ele>273.6000061035156</ele>
        <time>2011-06-17T05:59:45.000Z</time>
      </trkpt>
      <trkpt lon="34.96032075025141" lat="31.769835222512484">
        <ele>274.20001220703125</ele>
        <time>2011-06-17T06:00:24.000Z</time>
      </trkpt>
      <trkpt lon="34.960549995303154" lat="31.770069245249033">
        <ele>274.6000061035156</ele>
        <time>2011-06-17T06:01:11.000Z</time>
      </trkpt>
      <trkpt lon="34.960549995303154" lat="31.770069245249033">
        <ele>277.3999938964844</ele>
        <time>2011-06-17T06:01:29.000Z</time>
      </trkpt>
      <trkpt lon="34.96097336523235" lat="31.770195560529828">
        <ele>280.3999938964844</ele>
        <time>2011-06-17T06:01:42.000Z</time>
      </trkpt>
      <trkpt lon="34.96116690337658" lat="31.770202266052365">
        <ele>283.20001220703125</ele>
        <time>2011-06-17T06:01:55.000Z</time>
      </trkpt>
      <trkpt lon="34.96124753728509" lat="31.770205032080412">
        <ele>284.20001220703125</ele>
        <time>2011-06-17T06:02:00.000Z</time>
      </trkpt>
      <trkpt lon="34.96136102825403" lat="31.770200170576572">
        <ele>288.0</ele>
        <time>2011-06-17T06:02:15.000Z</time>
      </trkpt>
      <trkpt lon="34.96136102825403" lat="31.770200170576572">
        <ele>291.0</ele>
        <time>2011-06-17T06:02:34.000Z</time>
      </trkpt>
      <trkpt lon="34.96136102825403" lat="31.770200170576572">
        <ele>291.0</ele>
        <time>2011-06-17T06:02:37.000Z</time>
      </trkpt>
      <trkpt lon="34.96198338456452" lat="31.7700519785285">
        <ele>294.3999938964844</ele>
        <time>2011-06-17T06:03:01.000Z</time>
      </trkpt>
      <trkpt lon="34.96198338456452" lat="31.7700519785285">
        <ele>296.20001220703125</ele>
        <time>2011-06-17T06:03:25.000Z</time>
      </trkpt>
      <trkpt lon="34.96245553717017" lat="31.769970757886767">
        <ele>299.6000061035156</ele>
        <time>2011-06-17T06:03:45.000Z</time>
      </trkpt>
      <trkpt lon="34.96283657848835" lat="31.769932620227337">
        <ele>302.3999938964844</ele>
        <time>2011-06-17T06:04:05.000Z</time>
      </trkpt>
      <trkpt lon="34.96283657848835" lat="31.769932620227337">
        <ele>305.3999938964844</ele>
        <time>2011-06-17T06:04:27.000Z</time>
      </trkpt>
      <trkpt lon="34.96283657848835" lat="31.769932620227337">
        <ele>307.20001220703125</ele>
        <time>2011-06-17T06:04:48.000Z</time>
      </trkpt>
      <trkpt lon="34.96283657848835" lat="31.769932620227337">
        <ele>307.79998779296875</ele>
        <time>2011-06-17T06:04:50.000Z</time>
      </trkpt>
      <trkpt lon="34.96340143494308" lat="31.76936700940132">
        <ele>307.20001220703125</ele>
        <time>2011-06-17T06:05:09.000Z</time>
      </trkpt>
      <trkpt lon="34.96337712742388" lat="31.7691729683429">
        <ele>307.20001220703125</ele>
        <time>2011-06-17T06:05:17.000Z</time>
      </trkpt>
      <trkpt lon="34.96336832642555" lat="31.76910314708948">
        <ele>307.79998779296875</ele>
        <time>2011-06-17T06:05:21.000Z</time>
      </trkpt>
      <trkpt lon="34.963366985321045" lat="31.769092082977295">
        <ele>307.79998779296875</ele>
        <time>2011-06-17T06:05:23.000Z</time>
      </trkpt>
      <trkpt lon="34.963369918987155" lat="31.769114965572953">
        <ele>308.79998779296875</ele>
        <time>2011-06-17T06:05:30.000Z</time>
      </trkpt>
      <trkpt lon="34.96339757926762" lat="31.769337002187967">
        <ele>311.6000061035156</ele>
        <time>2011-06-17T06:05:49.000Z</time>
      </trkpt>
      <trkpt lon="34.963342593982816" lat="31.769536323845387">
        <ele>313.0</ele>
        <time>2011-06-17T06:06:05.000Z</time>
      </trkpt>
      <trkpt lon="34.9633763730526" lat="31.769794151186943">
        <ele>314.3999938964844</ele>
        <time>2011-06-17T06:06:16.000Z</time>
      </trkpt>
      <trkpt lon="34.963055178523064" lat="31.770055750384927">
        <ele>317.79998779296875</ele>
        <time>2011-06-17T06:06:40.000Z</time>
      </trkpt>
      <trkpt lon="34.96272744610906" lat="31.770282816141844">
        <ele>320.79998779296875</ele>
        <time>2011-06-17T06:07:02.000Z</time>
      </trkpt>
      <trkpt lon="34.96241748332977" lat="31.770461266860366">
        <ele>322.6000061035156</ele>
        <time>2011-06-17T06:07:21.000Z</time>
      </trkpt>
      <trkpt lon="34.96207030490041" lat="31.770647512748837">
        <ele>326.0</ele>
        <time>2011-06-17T06:07:39.000Z</time>
      </trkpt>
      <trkpt lon="34.96172044426203" lat="31.77080785855651">
        <ele>329.3999938964844</ele>
        <time>2011-06-17T06:07:57.000Z</time>
      </trkpt>
      <trkpt lon="34.96143965050578" lat="31.77104297094047">
        <ele>331.79998779296875</ele>
        <time>2011-06-17T06:08:19.000Z</time>
      </trkpt>
      <trkpt lon="34.96140193194151" lat="31.771340277045965">
        <ele>334.20001220703125</ele>
        <time>2011-06-17T06:08:39.000Z</time>
      </trkpt>
      <trkpt lon="34.961427580565214" lat="31.77160288207233">
        <ele>337.6000061035156</ele>
        <time>2011-06-17T06:08:56.000Z</time>
      </trkpt>
      <trkpt lon="34.961661687120795" lat="31.77184813655913">
        <ele>339.0</ele>
        <time>2011-06-17T06:09:19.000Z</time>
      </trkpt>
      <trkpt lon="34.962014397606254" lat="31.771940169855952">
        <ele>340.0</ele>
        <time>2011-06-17T06:09:35.000Z</time>
      </trkpt>
      <trkpt lon="34.962333999574184" lat="31.772048883140087">
        <ele>342.3999938964844</ele>
        <time>2011-06-17T06:09:52.000Z</time>
      </trkpt>
      <trkpt lon="34.96266374364495" lat="31.77211015485227">
        <ele>345.79998779296875</ele>
        <time>2011-06-17T06:10:11.000Z</time>
      </trkpt>
      <trkpt lon="34.96285619214177" lat="31.772024491801858">
        <ele>346.6000061035156</ele>
        <time>2011-06-17T06:10:31.000Z</time>
      </trkpt>
      <trkpt lon="34.96285619214177" lat="31.772024491801858">
        <ele>346.6000061035156</ele>
        <time>2011-06-17T06:10:58.000Z</time>
      </trkpt>
      <trkpt lon="34.96285619214177" lat="31.772024491801858">
        <ele>346.6000061035156</ele>
        <time>2011-06-17T06:11:36.000Z</time>
      </trkpt>
      <trkpt lon="34.96285619214177" lat="31.772024491801858">
        <ele>346.6000061035156</ele>
        <time>2011-06-17T06:12:32.000Z</time>
      </trkpt>
      <trkpt lon="34.96285619214177" lat="31.772024491801858">
        <ele>347.20001220703125</ele>
        <time>2011-06-17T06:12:37.000Z</time>
      </trkpt>
      <trkpt lon="34.96288485825062" lat="31.771976044401526">
        <ele>346.6000061035156</ele>
        <time>2011-06-17T06:12:40.000Z</time>
      </trkpt>
      <trkpt lon="34.96287178248167" lat="31.77199825644493">
        <ele>346.6000061035156</ele>
        <time>2011-06-17T06:12:45.000Z</time>
      </trkpt>
      <trkpt lon="34.96281553991139" lat="31.772046955302358">
        <ele>346.6000061035156</ele>
        <time>2011-06-17T06:12:53.000Z</time>
      </trkpt>
      <trkpt lon="34.962787544354796" lat="31.772016026079655">
        <ele>347.20001220703125</ele>
        <time>2011-06-17T06:12:58.000Z</time>
      </trkpt>
      <trkpt lon="34.96278176084161" lat="31.771981492638588">
        <ele>347.20001220703125</ele>
        <time>2011-06-17T06:13:00.000Z</time>
      </trkpt>
      <trkpt lon="34.962660893797874" lat="31.771946204826236">
        <ele>346.6000061035156</ele>
        <time>2011-06-17T06:13:08.000Z</time>
      </trkpt>
      <trkpt lon="34.96261588297784" lat="31.771962298080325">
        <ele>346.20001220703125</ele>
        <time>2011-06-17T06:13:10.000Z</time>
      </trkpt>
      <trkpt lon="34.962506499141455" lat="31.77194201387465">
        <ele>346.6000061035156</ele>
        <time>2011-06-17T06:13:16.000Z</time>
      </trkpt>
      <trkpt lon="34.962448831647635" lat="31.77169432863593">
        <ele>349.0</ele>
        <time>2011-06-17T06:13:32.000Z</time>
      </trkpt>
      <trkpt lon="34.96238990686834" lat="31.771524595096707">
        <ele>352.3999938964844</ele>
        <time>2011-06-17T06:13:44.000Z</time>
      </trkpt>
      <trkpt lon="34.962367694824934" lat="31.771400291472673">
        <ele>354.3999938964844</ele>
        <time>2011-06-17T06:13:54.000Z</time>
      </trkpt>
      <trkpt lon="34.96227205730975" lat="31.771357711404562">
        <ele>355.79998779296875</ele>
        <time>2011-06-17T06:14:02.000Z</time>
      </trkpt>
      <trkpt lon="34.96222495101392" lat="31.77127213217318">
        <ele>356.79998779296875</ele>
        <time>2011-06-17T06:14:11.000Z</time>
      </trkpt>
      <trkpt lon="34.96223517693579" lat="31.77124187350273">
        <ele>356.79998779296875</ele>
        <time>2011-06-17T06:14:14.000Z</time>
      </trkpt>
      <trkpt lon="34.962312458083034" lat="31.771243633702397">
        <ele>356.79998779296875</ele>
        <time>2011-06-17T06:14:27.000Z</time>
      </trkpt>
      <trkpt lon="34.962304243817925" lat="31.7712555360049">
        <ele>357.20001220703125</ele>
        <time>2011-06-17T06:14:40.000Z</time>
      </trkpt>
      <trkpt lon="34.962222604081035" lat="31.771344048902392">
        <ele>355.79998779296875</ele>
        <time>2011-06-17T06:14:48.000Z</time>
      </trkpt>
      <trkpt lon="34.96215496212244" lat="31.771341199055314">
        <ele>355.79998779296875</ele>
        <time>2011-06-17T06:14:54.000Z</time>
      </trkpt>
      <trkpt lon="34.96201959438622" lat="31.771191079169512">
        <ele>353.3999938964844</ele>
        <time>2011-06-17T06:15:03.000Z</time>
      </trkpt>
      <trkpt lon="34.96210223995149" lat="31.771126287057996">
        <ele>354.0</ele>
        <time>2011-06-17T06:15:15.000Z</time>
      </trkpt>
      <trkpt lon="34.96209176257253" lat="31.7711484991014">
        <ele>354.3999938964844</ele>
        <time>2011-06-17T06:16:53.000Z</time>
      </trkpt>
      <trkpt lon="34.961975924670696" lat="31.771312281489372">
        <ele>353.3999938964844</ele>
        <time>2011-06-17T06:17:07.000Z</time>
      </trkpt>
      <trkpt lon="34.96204096823931" lat="31.77143968641758">
        <ele>354.0</ele>
        <time>2011-06-17T06:17:20.000Z</time>
      </trkpt>
      <trkpt lon="34.96209628880024" lat="31.771490229293704">
        <ele>352.3999938964844</ele>
        <time>2011-06-17T06:17:46.000Z</time>
      </trkpt>
      <trkpt lon="34.962203996255994" lat="31.771685276180506">
        <ele>349.6000061035156</ele>
        <time>2011-06-17T06:17:54.000Z</time>
      </trkpt>
      <trkpt lon="34.96235688216984" lat="31.771899685263634">
        <ele>346.20001220703125</ele>
        <time>2011-06-17T06:18:05.000Z</time>
      </trkpt>
      <trkpt lon="34.962405832484365" lat="31.7719635553658">
        <ele>345.79998779296875</ele>
        <time>2011-06-17T06:18:09.000Z</time>
      </trkpt>
      <trkpt lon="34.9624350015074" lat="31.772053744643927">
        <ele>344.79998779296875</ele>
        <time>2011-06-17T06:18:13.000Z</time>
      </trkpt>
      <trkpt lon="34.962493842467666" lat="31.772084422409534">
        <ele>345.79998779296875</ele>
        <time>2011-06-17T06:18:17.000Z</time>
      </trkpt>
      <trkpt lon="34.962814282625914" lat="31.77206019870937">
        <ele>347.6000061035156</ele>
        <time>2011-06-17T06:18:43.000Z</time>
      </trkpt>
      <trkpt lon="34.96298066340387" lat="31.771798180416226">
        <ele>347.20001220703125</ele>
        <time>2011-06-17T06:19:01.000Z</time>
      </trkpt>
      <trkpt lon="34.96313321404159" lat="31.77155493758619">
        <ele>345.20001220703125</ele>
        <time>2011-06-17T06:19:11.000Z</time>
      </trkpt>
      <trkpt lon="34.96317436918616" lat="31.771467681974173">
        <ele>344.20001220703125</ele>
        <time>2011-06-17T06:19:13.000Z</time>
      </trkpt>
      <trkpt lon="34.96330403722823" lat="31.771192839369178">
        <ele>341.0</ele>
        <time>2011-06-17T06:19:18.000Z</time>
      </trkpt>
      <trkpt lon="34.96340151876211" lat="31.770986476913095">
        <ele>337.6000061035156</ele>
        <time>2011-06-17T06:19:21.000Z</time>
      </trkpt>
      <trkpt lon="34.9635021854192" lat="31.770775839686394">
        <ele>336.20001220703125</ele>
        <time>2011-06-17T06:19:24.000Z</time>
      </trkpt>
      <trkpt lon="34.96367963030934" lat="31.770463027060032">
        <ele>332.79998779296875</ele>
        <time>2011-06-17T06:19:30.000Z</time>
      </trkpt>
      <trkpt lon="34.96376495808363" lat="31.770312823355198">
        <ele>331.3999938964844</ele>
        <time>2011-06-17T06:19:39.000Z</time>
      </trkpt>
      <trkpt lon="34.963869228959084" lat="31.770129008218646">
        <ele>330.79998779296875</ele>
        <time>2011-06-17T06:19:56.000Z</time>
      </trkpt>
      <trkpt lon="34.9640341848135" lat="31.769921388477087">
        <ele>329.3999938964844</ele>
        <time>2011-06-17T06:20:07.000Z</time>
      </trkpt>
      <trkpt lon="34.96405949816108" lat="31.769900685176253">
        <ele>329.3999938964844</ele>
        <time>2011-06-17T06:20:10.000Z</time>
      </trkpt>
      <trkpt lon="34.9639702308923" lat="31.769753666594625">
        <ele>329.0</ele>
        <time>2011-06-17T06:20:15.000Z</time>
      </trkpt>
      <trkpt lon="34.963961681351066" lat="31.769704297184944">
        <ele>329.0</ele>
        <time>2011-06-17T06:20:33.000Z</time>
      </trkpt>
      <trkpt lon="34.963962687179446" lat="31.76964151673019">
        <ele>329.3999938964844</ele>
        <time>2011-06-17T06:20:58.000Z</time>
      </trkpt>
      <trkpt lon="34.96396545320749" lat="31.769646545872092">
        <ele>329.3999938964844</ele>
        <time>2011-06-17T06:21:39.000Z</time>
      </trkpt>
      <trkpt lon="34.96394634246826" lat="31.76965576596558">
        <ele>332.20001220703125</ele>
        <time>2011-06-17T06:52:23.000Z</time>
      </trkpt>
      <trkpt lon="34.96394667774439" lat="31.76968703046441">
        <ele>331.3999938964844</ele>
        <time>2011-06-17T07:24:02.000Z</time>
      </trkpt>
      <trkpt lon="34.963946007192135" lat="31.769683258607984">
        <ele>331.3999938964844</ele>
        <time>2011-06-17T07:25:07.000Z</time>
      </trkpt>
      <trkpt lon="34.96394977904856" lat="31.769684348255396">
        <ele>330.79998779296875</ele>
        <time>2011-06-17T07:26:36.000Z</time>
      </trkpt>
      <trkpt lon="34.963950365781784" lat="31.769694155082107">
        <ele>331.3999938964844</ele>
        <time>2011-06-17T07:26:51.000Z</time>
      </trkpt>
      <trkpt lon="34.963949443772435" lat="31.76984184421599">
        <ele>331.3999938964844</ele>
        <time>2011-06-17T07:27:03.000Z</time>
      </trkpt>
      <trkpt lon="34.96398204937577" lat="31.769893392920494">
        <ele>331.79998779296875</ele>
        <time>2011-06-17T07:27:16.000Z</time>
      </trkpt>
      <trkpt lon="34.96401775628328" lat="31.769915940240026">
        <ele>332.20001220703125</ele>
        <time>2011-06-17T07:27:23.000Z</time>
      </trkpt>
      <trkpt lon="34.964108280837536" lat="31.76987847313285">
        <ele>332.20001220703125</ele>
        <time>2011-06-17T07:27:30.000Z</time>
      </trkpt>
      <trkpt lon="34.964361833408475" lat="31.769784009084105">
        <ele>330.79998779296875</ele>
        <time>2011-06-17T07:27:38.000Z</time>
      </trkpt>
      <trkpt lon="34.96459040790796" lat="31.76991233602166">
        <ele>331.79998779296875</ele>
        <time>2011-06-17T07:27:48.000Z</time>
      </trkpt>
      <trkpt lon="34.96473155915737" lat="31.770138395950198">
        <ele>334.20001220703125</ele>
        <time>2011-06-17T07:28:02.000Z</time>
      </trkpt>
      <trkpt lon="34.96475838124752" lat="31.770181227475405">
        <ele>335.20001220703125</ele>
        <time>2011-06-17T07:28:06.000Z</time>
      </trkpt>
      <trkpt lon="34.964769864454865" lat="31.77022883668542">
        <ele>336.20001220703125</ele>
        <time>2011-06-17T07:28:11.000Z</time>
      </trkpt>
      <trkpt lon="34.96478092856705" lat="31.770285665988922">
        <ele>337.0</ele>
        <time>2011-06-17T07:28:18.000Z</time>
      </trkpt>
      <trkpt lon="34.96479484252632" lat="31.770356995984912">
        <ele>337.0</ele>
        <time>2011-06-17T07:28:22.000Z</time>
      </trkpt>
      <trkpt lon="34.96485133655369" lat="31.7706476803869">
        <ele>339.0</ele>
        <time>2011-06-17T07:28:43.000Z</time>
      </trkpt>
      <trkpt lon="34.96508854441345" lat="31.771035427227616">
        <ele>340.3999938964844</ele>
        <time>2011-06-17T07:29:03.000Z</time>
      </trkpt>
      <trkpt lon="34.965190552175045" lat="31.77107959985733">
        <ele>341.0</ele>
        <time>2011-06-17T07:29:09.000Z</time>
      </trkpt>
      <trkpt lon="34.965513003990054" lat="31.77121941000223">
        <ele>343.3999938964844</ele>
        <time>2011-06-17T07:29:28.000Z</time>
      </trkpt>
      <trkpt lon="34.96560914441943" lat="31.771235754713416">
        <ele>344.20001220703125</ele>
        <time>2011-06-17T07:29:37.000Z</time>
      </trkpt>
      <trkpt lon="34.96602471917868" lat="31.771219158545136">
        <ele>346.6000061035156</ele>
        <time>2011-06-17T07:29:59.000Z</time>
      </trkpt>
      <trkpt lon="34.966092109680176" lat="31.77121639251709">
        <ele>347.20001220703125</ele>
        <time>2011-06-17T07:30:04.000Z</time>
      </trkpt>
      <trkpt lon="34.966390589252114" lat="31.77112989127636">
        <ele>349.6000061035156</ele>
        <time>2011-06-17T07:30:21.000Z</time>
      </trkpt>
      <trkpt lon="34.96667565777898" lat="31.771047245711088">
        <ele>351.0</ele>
        <time>2011-06-17T07:30:35.000Z</time>
      </trkpt>
      <trkpt lon="34.96699928306043" lat="31.7709534522146">
        <ele>353.0</ele>
        <time>2011-06-17T07:30:52.000Z</time>
      </trkpt>
      <trkpt lon="34.967323411256075" lat="31.770859491080046">
        <ele>354.3999938964844</ele>
        <time>2011-06-17T07:31:09.000Z</time>
      </trkpt>
      <trkpt lon="34.96757101267576" lat="31.770787741988897">
        <ele>355.3999938964844</ele>
        <time>2011-06-17T07:31:24.000Z</time>
      </trkpt>
      <trkpt lon="34.96787351556122" lat="31.770686991512775">
        <ele>356.79998779296875</ele>
        <time>2011-06-17T07:31:41.000Z</time>
      </trkpt>
      <trkpt lon="34.96825581416488" lat="31.770559586584568">
        <ele>358.20001220703125</ele>
        <time>2011-06-17T07:32:02.000Z</time>
      </trkpt>
      <trkpt lon="34.96859226375818" lat="31.7704473529011">
        <ele>360.20001220703125</ele>
        <time>2011-06-17T07:32:22.000Z</time>
      </trkpt>
      <trkpt lon="34.96895897202194" lat="31.77032514475286">
        <ele>362.6000061035156</ele>
        <time>2011-06-17T07:32:42.000Z</time>
      </trkpt>
      <trkpt lon="34.969116132706404" lat="31.770288683474064">
        <ele>363.0</ele>
        <time>2011-06-17T07:32:50.000Z</time>
      </trkpt>
      <trkpt lon="34.96915879659355" lat="31.770285163074732">
        <ele>363.6000061035156</ele>
        <time>2011-06-17T07:32:53.000Z</time>
      </trkpt>
      <trkpt lon="34.96963740326464" lat="31.770246354863048">
        <ele>364.3999938964844</ele>
        <time>2011-06-17T07:33:13.000Z</time>
      </trkpt>
      <trkpt lon="34.970239056274295" lat="31.770283989608288">
        <ele>363.0</ele>
        <time>2011-06-17T07:33:30.000Z</time>
      </trkpt>
      <trkpt lon="34.97039085254073" lat="31.770305195823312">
        <ele>362.0</ele>
        <time>2011-06-17T07:33:33.000Z</time>
      </trkpt>
      <trkpt lon="34.970836685970426" lat="31.770354565232992">
        <ele>361.20001220703125</ele>
        <time>2011-06-17T07:33:41.000Z</time>
      </trkpt>
      <trkpt lon="34.970984207466245" lat="31.770346853882074">
        <ele>361.20001220703125</ele>
        <time>2011-06-17T07:33:44.000Z</time>
      </trkpt>
      <trkpt lon="34.97104363515973" lat="31.770630413666368">
        <ele>361.20001220703125</ele>
        <time>2011-06-17T07:33:52.000Z</time>
      </trkpt>
      <trkpt lon="34.9710210878402" lat="31.770654134452343">
        <ele>361.20001220703125</ele>
        <time>2011-06-17T07:33:53.000Z</time>
      </trkpt>
      <trkpt lon="34.970735935494304" lat="31.770954625681043">
        <ele>364.3999938964844</ele>
        <time>2011-06-17T07:34:09.000Z</time>
      </trkpt>
      <trkpt lon="34.970533261075616" lat="31.771168280392885">
        <ele>366.3999938964844</ele>
        <time>2011-06-17T07:34:21.000Z</time>
      </trkpt>
      <trkpt lon="34.97038925997913" lat="31.771505065262318">
        <ele>367.3999938964844</ele>
        <time>2011-06-17T07:34:35.000Z</time>
      </trkpt>
      <trkpt lon="34.97056779451668" lat="31.77176414988935">
        <ele>368.79998779296875</ele>
        <time>2011-06-17T07:34:49.000Z</time>
      </trkpt>
      <trkpt lon="34.97096442617476" lat="31.771896416321397">
        <ele>369.20001220703125</ele>
        <time>2011-06-17T07:35:05.000Z</time>
      </trkpt>
      <trkpt lon="34.971463987603784" lat="31.77216279320419">
        <ele>368.3999938964844</ele>
        <time>2011-06-17T07:35:19.000Z</time>
      </trkpt>
      <trkpt lon="34.97162961401045" lat="31.772393798455596">
        <ele>370.20001220703125</ele>
        <time>2011-06-17T07:35:34.000Z</time>
      </trkpt>
      <trkpt lon="34.97225088067353" lat="31.77254978567362">
        <ele>372.20001220703125</ele>
        <time>2011-06-17T07:35:53.000Z</time>
      </trkpt>
      <trkpt lon="34.972545923665166" lat="31.7724609375">
        <ele>373.20001220703125</ele>
        <time>2011-06-17T07:36:07.000Z</time>
      </trkpt>
      <trkpt lon="34.97294892556965" lat="31.77225130610168">
        <ele>376.0</ele>
        <time>2011-06-17T07:36:21.000Z</time>
      </trkpt>
      <trkpt lon="34.973342372104526" lat="31.771889878436923">
        <ele>378.3999938964844</ele>
        <time>2011-06-17T07:36:37.000Z</time>
      </trkpt>
      <trkpt lon="34.97365484945476" lat="31.77165376022458">
        <ele>380.79998779296875</ele>
        <time>2011-06-17T07:36:50.000Z</time>
      </trkpt>
      <trkpt lon="34.97378191910684" lat="31.771607492119074">
        <ele>381.79998779296875</ele>
        <time>2011-06-17T07:36:57.000Z</time>
      </trkpt>
      <trkpt lon="34.97410722076893" lat="31.771520990878344">
        <ele>383.79998779296875</ele>
        <time>2011-06-17T07:37:12.000Z</time>
      </trkpt>
      <trkpt lon="34.974210569635034" lat="31.7715266905725">
        <ele>384.6000061035156</ele>
        <time>2011-06-17T07:37:17.000Z</time>
      </trkpt>
      <trkpt lon="34.97465749271214" lat="31.77160489372909">
        <ele>385.6000061035156</ele>
        <time>2011-06-17T07:37:36.000Z</time>
      </trkpt>
      <trkpt lon="34.97506753541529" lat="31.771848388016224">
        <ele>385.6000061035156</ele>
        <time>2011-06-17T07:37:50.000Z</time>
      </trkpt>
      <trkpt lon="34.975516218692064" lat="31.772193470969796">
        <ele>384.6000061035156</ele>
        <time>2011-06-17T07:38:05.000Z</time>
      </trkpt>
      <trkpt lon="34.97571151703596" lat="31.772343758493662">
        <ele>383.20001220703125</ele>
        <time>2011-06-17T07:38:10.000Z</time>
      </trkpt>
      <trkpt lon="34.976364048197865" lat="31.772817755118012">
        <ele>381.79998779296875</ele>
        <time>2011-06-17T07:38:24.000Z</time>
      </trkpt>
      <trkpt lon="34.976565884426236" lat="31.772919092327356">
        <ele>380.79998779296875</ele>
        <time>2011-06-17T07:38:28.000Z</time>
      </trkpt>
      <trkpt lon="34.97681231237948" lat="31.772960163652897">
        <ele>380.3999938964844</ele>
        <time>2011-06-17T07:38:32.000Z</time>
      </trkpt>
      <trkpt lon="34.97694248333573" lat="31.77297491580248">
        <ele>379.3999938964844</ele>
        <time>2011-06-17T07:38:34.000Z</time>
      </trkpt>
      <trkpt lon="34.977344730868936" lat="31.772963097319007">
        <ele>361.6000061035156</ele>
        <time>2011-06-17T07:38:39.000Z</time>
      </trkpt>
      <trkpt lon="34.97743399813771" lat="31.772960415109992">
        <ele>378.3999938964844</ele>
        <time>2011-06-17T07:38:40.000Z</time>
      </trkpt>
      <trkpt lon="34.97778997756541" lat="31.77297701127827">
        <ele>375.0</ele>
        <time>2011-06-17T07:38:44.000Z</time>
      </trkpt>
      <trkpt lon="34.97807336971164" lat="31.773018669337034">
        <ele>373.6000061035156</ele>
        <time>2011-06-17T07:38:47.000Z</time>
      </trkpt>
      <trkpt lon="34.978347374126315" lat="31.77305898629129">
        <ele>372.6000061035156</ele>
        <time>2011-06-17T07:38:50.000Z</time>
      </trkpt>
      <trkpt lon="34.97877359390259" lat="31.77321195602417">
        <ele>372.20001220703125</ele>
        <time>2011-06-17T07:38:56.000Z</time>
      </trkpt>
      <trkpt lon="34.97905313037336" lat="31.773377247154713">
        <ele>374.0</ele>
        <time>2011-06-17T07:39:02.000Z</time>
      </trkpt>
      <trkpt lon="34.979153126478195" lat="31.773731550201774">
        <ele>377.0</ele>
        <time>2011-06-17T07:39:19.000Z</time>
      </trkpt>
      <trkpt lon="34.97889194637537" lat="31.773959454149008">
        <ele>378.3999938964844</ele>
        <time>2011-06-17T07:39:34.000Z</time>
      </trkpt>
      <trkpt lon="34.97847570106387" lat="31.774157099425793">
        <ele>380.79998779296875</ele>
        <time>2011-06-17T07:39:52.000Z</time>
      </trkpt>
      <trkpt lon="34.97821033000946" lat="31.774497237056494">
        <ele>383.20001220703125</ele>
        <time>2011-06-17T07:40:08.000Z</time>
      </trkpt>
      <trkpt lon="34.97818384319544" lat="31.774845672771335">
        <ele>385.6000061035156</ele>
        <time>2011-06-17T07:40:24.000Z</time>
      </trkpt>
      <trkpt lon="34.97823472134769" lat="31.775150606408715">
        <ele>388.6000061035156</ele>
        <time>2011-06-17T07:40:41.000Z</time>
      </trkpt>
      <trkpt lon="34.97828392311931" lat="31.77544590085745">
        <ele>391.0</ele>
        <time>2011-06-17T07:40:57.000Z</time>
      </trkpt>
      <trkpt lon="34.97840906493366" lat="31.775824511423707">
        <ele>392.79998779296875</ele>
        <time>2011-06-17T07:41:13.000Z</time>
      </trkpt>
      <trkpt lon="34.97843027114868" lat="31.775829792022705">
        <ele>393.3999938964844</ele>
        <time>2011-06-17T07:41:15.000Z</time>
      </trkpt>
      <trkpt lon="34.978710897266865" lat="31.775619238615036">
        <ele>394.79998779296875</ele>
        <time>2011-06-17T07:41:29.000Z</time>
      </trkpt>
      <trkpt lon="34.97878901660442" lat="31.775560649111867">
        <ele>394.79998779296875</ele>
        <time>2011-06-17T07:41:33.000Z</time>
      </trkpt>
      <trkpt lon="34.97917491942644" lat="31.775271221995354">
        <ele>393.79998779296875</ele>
        <time>2011-06-17T07:41:47.000Z</time>
      </trkpt>
      <trkpt lon="34.979448253288865" lat="31.77507952786982">
        <ele>392.79998779296875</ele>
        <time>2011-06-17T07:41:54.000Z</time>
      </trkpt>
      <trkpt lon="34.97998360544443" lat="31.775018256157637">
        <ele>393.79998779296875</ele>
        <time>2011-06-17T07:42:07.000Z</time>
      </trkpt>
      <trkpt lon="34.980049235746264" lat="31.775015741586685">
        <ele>393.79998779296875</ele>
        <time>2011-06-17T07:42:09.000Z</time>
      </trkpt>
      <trkpt lon="34.98013858683407" lat="31.775036780163646">
        <ele>394.20001220703125</ele>
        <time>2011-06-17T07:42:13.000Z</time>
      </trkpt>
      <trkpt lon="34.980601938441396" lat="31.77527641877532">
        <ele>393.79998779296875</ele>
        <time>2011-06-17T07:42:28.000Z</time>
      </trkpt>
      <trkpt lon="34.980861358344555" lat="31.775535754859447">
        <ele>393.79998779296875</ele>
        <time>2011-06-17T07:42:38.000Z</time>
      </trkpt>
      <trkpt lon="34.981105607002974" lat="31.77593121305108">
        <ele>392.79998779296875</ele>
        <time>2011-06-17T07:42:50.000Z</time>
      </trkpt>
      <trkpt lon="34.98131347820163" lat="31.77629029378295">
        <ele>391.3999938964844</ele>
        <time>2011-06-17T07:42:59.000Z</time>
      </trkpt>
      <trkpt lon="34.981731651350856" lat="31.77633966319263">
        <ele>389.3999938964844</ele>
        <time>2011-06-17T07:43:06.000Z</time>
      </trkpt>
      <trkpt lon="34.98178370296955" lat="31.7763049621135">
        <ele>389.0</ele>
        <time>2011-06-17T07:43:07.000Z</time>
      </trkpt>
      <trkpt lon="34.98218737542629" lat="31.7759595438838">
        <ele>387.6000061035156</ele>
        <time>2011-06-17T07:43:16.000Z</time>
      </trkpt>
      <trkpt lon="34.98225845396519" lat="31.775862565264106">
        <ele>387.0</ele>
        <time>2011-06-17T07:43:18.000Z</time>
      </trkpt>
      <trkpt lon="34.98234746977687" lat="31.7756780795753">
        <ele>386.20001220703125</ele>
        <time>2011-06-17T07:43:21.000Z</time>
      </trkpt>
      <trkpt lon="34.98239650391042" lat="31.775474650785327">
        <ele>384.6000061035156</ele>
        <time>2011-06-17T07:43:24.000Z</time>
      </trkpt>
      <trkpt lon="34.98237990774214" lat="31.77531656809151">
        <ele>383.20001220703125</ele>
        <time>2011-06-17T07:43:26.000Z</time>
      </trkpt>
      <trkpt lon="34.98228217475116" lat="31.77474433556199">
        <ele>378.79998779296875</ele>
        <time>2011-06-17T07:43:33.000Z</time>
      </trkpt>
      <trkpt lon="34.98227370902896" lat="31.774678034707904">
        <ele>378.3999938964844</ele>
        <time>2011-06-17T07:43:34.000Z</time>
      </trkpt>
      <trkpt lon="34.98244629241526" lat="31.774372346699238">
        <ele>376.0</ele>
        <time>2011-06-17T07:43:39.000Z</time>
      </trkpt>
      <trkpt lon="34.982575038447976" lat="31.774290455505252">
        <ele>375.0</ele>
        <time>2011-06-17T07:43:41.000Z</time>
      </trkpt>
      <trkpt lon="34.9827516451478" lat="31.77417797036469">
        <ele>369.79998779296875</ele>
        <time>2011-06-17T07:43:44.000Z</time>
      </trkpt>
      <trkpt lon="34.98281710781157" lat="31.774140167981386">
        <ele>375.6000061035156</ele>
        <time>2011-06-17T07:43:45.000Z</time>
      </trkpt>
      <trkpt lon="34.98288550414145" lat="31.774105047807097">
        <ele>371.6000061035156</ele>
        <time>2011-06-17T07:43:46.000Z</time>
      </trkpt>
      <trkpt lon="34.98340006917715" lat="31.7738407664001">
        <ele>367.79998779296875</ele>
        <time>2011-06-17T07:43:53.000Z</time>
      </trkpt>
      <trkpt lon="34.98353132978082" lat="31.7737733758986">
        <ele>367.3999938964844</ele>
        <time>2011-06-17T07:43:55.000Z</time>
      </trkpt>
      <trkpt lon="34.98364431783557" lat="31.77373926155269">
        <ele>366.79998779296875</ele>
        <time>2011-06-17T07:43:57.000Z</time>
      </trkpt>
      <trkpt lon="34.98378940857947" lat="31.773652927950025">
        <ele>366.0</ele>
        <time>2011-06-17T07:44:01.000Z</time>
      </trkpt>
      <trkpt lon="34.98395377770066" lat="31.773914359509945">
        <ele>363.6000061035156</ele>
        <time>2011-06-17T07:44:11.000Z</time>
      </trkpt>
      <trkpt lon="34.98396425507963" lat="31.773949563503265">
        <ele>363.0</ele>
        <time>2011-06-17T07:44:13.000Z</time>
      </trkpt>
      <trkpt lon="34.9839327391237" lat="31.774075459688902">
        <ele>357.20001220703125</ele>
        <time>2011-06-17T07:44:16.000Z</time>
      </trkpt>
      <trkpt lon="34.98392075300217" lat="31.774123487994075">
        <ele>361.6000061035156</ele>
        <time>2011-06-17T07:44:17.000Z</time>
      </trkpt>
      <trkpt lon="34.98386668972671" lat="31.774455914273858">
        <ele>356.79998779296875</ele>
        <time>2011-06-17T07:44:23.000Z</time>
      </trkpt>
      <trkpt lon="34.98387163504958" lat="31.774512324482203">
        <ele>355.79998779296875</ele>
        <time>2011-06-17T07:44:24.000Z</time>
      </trkpt>
      <trkpt lon="34.98388772830367" lat="31.774693708866835">
        <ele>344.79998779296875</ele>
        <time>2011-06-17T07:44:27.000Z</time>
      </trkpt>
      <trkpt lon="34.98389393091202" lat="31.774764200672507">
        <ele>352.3999938964844</ele>
        <time>2011-06-17T07:44:28.000Z</time>
      </trkpt>
      <trkpt lon="34.98390046879649" lat="31.774839386343956">
        <ele>357.20001220703125</ele>
        <time>2011-06-17T07:44:29.000Z</time>
      </trkpt>
      <trkpt lon="34.983907006680965" lat="31.774913650006056">
        <ele>353.0</ele>
        <time>2011-06-17T07:44:30.000Z</time>
      </trkpt>
      <trkpt lon="34.98393081128597" lat="31.775135854259133">
        <ele>350.6000061035156</ele>
        <time>2011-06-17T07:44:33.000Z</time>
      </trkpt>
      <trkpt lon="34.98405670747161" lat="31.775733651593328">
        <ele>348.20001220703125</ele>
        <time>2011-06-17T07:44:41.000Z</time>
      </trkpt>
      <trkpt lon="34.98421856202185" lat="31.776025677099824">
        <ele>347.20001220703125</ele>
        <time>2011-06-17T07:44:46.000Z</time>
      </trkpt>
      <trkpt lon="34.98428938910365" lat="31.776103544980288">
        <ele>344.20001220703125</ele>
        <time>2011-06-17T07:44:48.000Z</time>
      </trkpt>
      <trkpt lon="34.9843629822135" lat="31.776178311556578">
        <ele>347.20001220703125</ele>
        <time>2011-06-17T07:44:50.000Z</time>
      </trkpt>
      <trkpt lon="34.98439961113036" lat="31.776196667924523">
        <ele>346.6000061035156</ele>
        <time>2011-06-17T07:44:51.000Z</time>
      </trkpt>
      <trkpt lon="34.98486505821347" lat="31.776381405070424">
        <ele>346.6000061035156</ele>
        <time>2011-06-17T07:45:03.000Z</time>
      </trkpt>
      <trkpt lon="34.9852139968425" lat="31.776423314586282">
        <ele>349.0</ele>
        <time>2011-06-17T07:45:13.000Z</time>
      </trkpt>
      <trkpt lon="34.9854507856071" lat="31.77649254910648">
        <ele>345.79998779296875</ele>
        <time>2011-06-17T07:45:23.000Z</time>
      </trkpt>
      <trkpt lon="34.985578525811434" lat="31.77653764374554">
        <ele>355.79998779296875</ele>
        <time>2011-06-17T07:45:27.000Z</time>
      </trkpt>
      <trkpt lon="34.985610796138644" lat="31.776549043133855">
        <ele>355.79998779296875</ele>
        <time>2011-06-17T07:45:28.000Z</time>
      </trkpt>
      <trkpt lon="34.985630242154" lat="31.776555916294456">
        <ele>347.6000061035156</ele>
        <time>2011-06-17T07:45:29.000Z</time>
      </trkpt>
      <trkpt lon="34.985682629048824" lat="31.7765639629215">
        <ele>347.6000061035156</ele>
        <time>2011-06-17T07:45:30.000Z</time>
      </trkpt>
      <trkpt lon="34.98608814552426" lat="31.77660738117993">
        <ele>345.79998779296875</ele>
        <time>2011-06-17T07:45:38.000Z</time>
      </trkpt>
      <trkpt lon="34.98642669059336" lat="31.77667686715722">
        <ele>342.79998779296875</ele>
        <time>2011-06-17T07:45:46.000Z</time>
      </trkpt>
      <trkpt lon="34.98661947436631" lat="31.776731936261058">
        <ele>341.3999938964844</ele>
        <time>2011-06-17T07:45:50.000Z</time>
      </trkpt>
      <trkpt lon="34.98691954649985" lat="31.776904435828328">
        <ele>338.0</ele>
        <time>2011-06-17T07:45:55.000Z</time>
      </trkpt>
      <trkpt lon="34.98722791671753" lat="31.777138710021973">
        <ele>339.3999938964844</ele>
        <time>2011-06-17T07:46:03.000Z</time>
      </trkpt>
      <trkpt lon="34.98764491640031" lat="31.777570880949497">
        <ele>341.0</ele>
        <time>2011-06-17T07:46:19.000Z</time>
      </trkpt>
      <trkpt lon="34.987887321040034" lat="31.77798544988036">
        <ele>341.3999938964844</ele>
        <time>2011-06-17T07:46:33.000Z</time>
      </trkpt>
      <trkpt lon="34.988005170598626" lat="31.77822140045464">
        <ele>341.3999938964844</ele>
        <time>2011-06-17T07:46:41.000Z</time>
      </trkpt>
      <trkpt lon="34.98808982782066" lat="31.778390714898705">
        <ele>341.0</ele>
        <time>2011-06-17T07:46:45.000Z</time>
      </trkpt>
      <trkpt lon="34.988343715667725" lat="31.77866220474243">
        <ele>343.3999938964844</ele>
        <time>2011-06-17T07:46:58.000Z</time>
      </trkpt>
      <trkpt lon="34.988496182486415" lat="31.77866220474243">
        <ele>343.79998779296875</ele>
        <time>2011-06-17T07:47:04.000Z</time>
      </trkpt>
      <trkpt lon="34.98866558074951" lat="31.77866220474243">
        <ele>344.20001220703125</ele>
        <time>2011-06-17T07:47:09.000Z</time>
      </trkpt>
      <trkpt lon="34.98890312388539" lat="31.778536392375827">
        <ele>345.20001220703125</ele>
        <time>2011-06-17T07:47:22.000Z</time>
      </trkpt>
      <trkpt lon="34.98930260539055" lat="31.778469420969486">
        <ele>343.3999938964844</ele>
        <time>2011-06-17T07:47:29.000Z</time>
      </trkpt>
      <trkpt lon="34.98964517377317" lat="31.778477719053626">
        <ele>339.0</ele>
        <time>2011-06-17T07:47:34.000Z</time>
      </trkpt>
      <trkpt lon="34.98988959006965" lat="31.77848375402391">
        <ele>336.6000061035156</ele>
        <time>2011-06-17T07:47:37.000Z</time>
      </trkpt>
      <trkpt lon="34.99012453481555" lat="31.778489453718066">
        <ele>335.20001220703125</ele>
        <time>2011-06-17T07:47:40.000Z</time>
      </trkpt>
      <trkpt lon="34.99028345569968" lat="31.778542678803205">
        <ele>333.79998779296875</ele>
        <time>2011-06-17T07:47:42.000Z</time>
      </trkpt>
      <trkpt lon="34.99036786146462" lat="31.778580648824573">
        <ele>332.79998779296875</ele>
        <time>2011-06-17T07:47:43.000Z</time>
      </trkpt>
      <trkpt lon="34.99054094776511" lat="31.778658600524068">
        <ele>330.79998779296875</ele>
        <time>2011-06-17T07:47:45.000Z</time>
      </trkpt>
      <trkpt lon="34.990766840055585" lat="31.7789523024112">
        <ele>331.3999938964844</ele>
        <time>2011-06-17T07:47:50.000Z</time>
      </trkpt>
      <trkpt lon="34.990971023216844" lat="31.779274754226208">
        <ele>334.20001220703125</ele>
        <time>2011-06-17T07:48:00.000Z</time>
      </trkpt>
      <trkpt lon="34.99118870124221" lat="31.77958848886192">
        <ele>336.6000061035156</ele>
        <time>2011-06-17T07:48:15.000Z</time>
      </trkpt>
      <trkpt lon="34.991445019841194" lat="31.779992496594787">
        <ele>338.0</ele>
        <time>2011-06-17T07:48:32.000Z</time>
      </trkpt>
      <trkpt lon="34.99164258129895" lat="31.7803165409714">
        <ele>340.0</ele>
        <time>2011-06-17T07:48:47.000Z</time>
      </trkpt>
      <trkpt lon="34.991723634302616" lat="31.780449645593762">
        <ele>339.3999938964844</ele>
        <time>2011-06-17T07:48:52.000Z</time>
      </trkpt>
      <trkpt lon="34.99184240587056" lat="31.780910398811102">
        <ele>341.0</ele>
        <time>2011-06-17T07:49:05.000Z</time>
      </trkpt>
      <trkpt lon="34.99186193570495" lat="31.781060602515936">
        <ele>340.3999938964844</ele>
        <time>2011-06-17T07:49:08.000Z</time>
      </trkpt>
      <trkpt lon="34.99207307584584" lat="31.781615149229765">
        <ele>340.0</ele>
        <time>2011-06-17T07:49:22.000Z</time>
      </trkpt>
      <trkpt lon="34.99205354601145" lat="31.781694944947958">
        <ele>340.0</ele>
        <time>2011-06-17T07:49:24.000Z</time>
      </trkpt>
      <trkpt lon="34.99187886714935" lat="31.7819241899997">
        <ele>340.3999938964844</ele>
        <time>2011-06-17T07:49:31.000Z</time>
      </trkpt>
      <trkpt lon="34.99119364656508" lat="31.782026533037424">
        <ele>340.0</ele>
        <time>2011-06-17T07:49:47.000Z</time>
      </trkpt>
      <trkpt lon="34.99087572097778" lat="31.78201555274427">
        <ele>338.0</ele>
        <time>2011-06-17T07:49:53.000Z</time>
      </trkpt>
      <trkpt lon="34.990575732663274" lat="31.78198730573058">
        <ele>334.6000061035156</ele>
        <time>2011-06-17T07:49:57.000Z</time>
      </trkpt>
      <trkpt lon="34.99041857197881" lat="31.781959980726242">
        <ele>334.20001220703125</ele>
        <time>2011-06-17T07:49:59.000Z</time>
      </trkpt>
      <trkpt lon="34.99015253037214" lat="31.78194036707282">
        <ele>332.79998779296875</ele>
        <time>2011-06-17T07:50:03.000Z</time>
      </trkpt>
      <trkpt lon="34.98992714099586" lat="31.782083697617054">
        <ele>329.79998779296875</ele>
        <time>2011-06-17T07:50:08.000Z</time>
      </trkpt>
      <trkpt lon="34.98995396308601" lat="31.78220028989017">
        <ele>330.3999938964844</ele>
        <time>2011-06-17T07:50:11.000Z</time>
      </trkpt>
      <trkpt lon="34.989966955035925" lat="31.782256616279483">
        <ele>330.79998779296875</ele>
        <time>2011-06-17T07:50:13.000Z</time>
      </trkpt>
      <trkpt lon="34.989942563697696" lat="31.782365245744586">
        <ele>332.79998779296875</ele>
        <time>2011-06-17T07:50:18.000Z</time>
      </trkpt>
      <trkpt lon="34.989932253956795" lat="31.782390223816037">
        <ele>332.79998779296875</ele>
        <time>2011-06-17T07:50:19.000Z</time>
      </trkpt>
      <trkpt lon="34.98988321982324" lat="31.78250757046044">
        <ele>331.3999938964844</ele>
        <time>2011-06-17T07:50:22.000Z</time>
      </trkpt>
      <trkpt lon="34.989783726632595" lat="31.782846534624696">
        <ele>329.79998779296875</ele>
        <time>2011-06-17T07:50:27.000Z</time>
      </trkpt>
      <trkpt lon="34.990158481523395" lat="31.78306521847844">
        <ele>329.79998779296875</ele>
        <time>2011-06-17T07:50:34.000Z</time>
      </trkpt>
      <trkpt lon="34.990550838410854" lat="31.783184492960572">
        <ele>333.20001220703125</ele>
        <time>2011-06-17T07:50:44.000Z</time>
      </trkpt>
      <trkpt lon="34.99095819890499" lat="31.78331483155489">
        <ele>336.20001220703125</ele>
        <time>2011-06-17T07:50:56.000Z</time>
      </trkpt>
      <trkpt lon="34.9911736138165" lat="31.78338381461799">
        <ele>337.6000061035156</ele>
        <time>2011-06-17T07:51:05.000Z</time>
      </trkpt>
      <trkpt lon="34.9914828222245" lat="31.78356997668743">
        <ele>339.3999938964844</ele>
        <time>2011-06-17T07:51:18.000Z</time>
      </trkpt>
      <trkpt lon="34.99180871061981" lat="31.783919166773558">
        <ele>338.6000061035156</ele>
        <time>2011-06-17T07:51:32.000Z</time>
      </trkpt>
      <trkpt lon="34.99194751493633" lat="31.784253856167197">
        <ele>340.0</ele>
        <time>2011-06-17T07:51:43.000Z</time>
      </trkpt>
      <trkpt lon="34.992096461355686" lat="31.784613020718098">
        <ele>342.3999938964844</ele>
        <time>2011-06-17T07:51:58.000Z</time>
      </trkpt>
      <trkpt lon="34.99184022657573" lat="31.785059357061982">
        <ele>343.3999938964844</ele>
        <time>2011-06-17T07:52:13.000Z</time>
      </trkpt>
      <trkpt lon="34.991290709003806" lat="31.785066314041615">
        <ele>342.79998779296875</ele>
        <time>2011-06-17T07:52:24.000Z</time>
      </trkpt>
      <trkpt lon="34.99125215224922" lat="31.78504896350205">
        <ele>342.3999938964844</ele>
        <time>2011-06-17T07:52:25.000Z</time>
      </trkpt>
      <trkpt lon="34.990772288292646" lat="31.78492784500122">
        <ele>342.3999938964844</ele>
        <time>2011-06-17T07:52:37.000Z</time>
      </trkpt>
      <trkpt lon="34.99061889946461" lat="31.78492784500122">
        <ele>341.3999938964844</ele>
        <time>2011-06-17T07:52:40.000Z</time>
      </trkpt>
      <trkpt lon="34.990442376583815" lat="31.784935975447297">
        <ele>341.0</ele>
        <time>2011-06-17T07:52:43.000Z</time>
      </trkpt>
      <trkpt lon="34.99012160114944" lat="31.785082910209894">
        <ele>338.0</ele>
        <time>2011-06-17T07:52:47.000Z</time>
      </trkpt>
      <trkpt lon="34.98999360948801" lat="31.785180810838938">
        <ele>336.6000061035156</ele>
        <time>2011-06-17T07:52:49.000Z</time>
      </trkpt>
      <trkpt lon="34.98993158340454" lat="31.78539647720754">
        <ele>335.6000061035156</ele>
        <time>2011-06-17T07:52:51.000Z</time>
      </trkpt>
      <trkpt lon="34.99008480459452" lat="31.785637959837914">
        <ele>335.20001220703125</ele>
        <time>2011-06-17T07:52:56.000Z</time>
      </trkpt>
      <trkpt lon="34.99016761779785" lat="31.785860499367118">
        <ele>335.6000061035156</ele>
        <time>2011-06-17T07:53:01.000Z</time>
      </trkpt>
      <trkpt lon="34.99012009240687" lat="31.786012463271618">
        <ele>334.6000061035156</ele>
        <time>2011-06-17T07:53:05.000Z</time>
      </trkpt>
      <trkpt lon="34.98996217735112" lat="31.786265093833208">
        <ele>334.20001220703125</ele>
        <time>2011-06-17T07:53:11.000Z</time>
      </trkpt>
      <trkpt lon="34.98956898227334" lat="31.786421164870262">
        <ele>334.6000061035156</ele>
        <time>2011-06-17T07:53:19.000Z</time>
      </trkpt>
      <trkpt lon="34.98914150521159" lat="31.78644102998078">
        <ele>333.79998779296875</ele>
        <time>2011-06-17T07:53:25.000Z</time>
      </trkpt>
      <trkpt lon="34.98872559517622" lat="31.78645427338779">
        <ele>331.3999938964844</ele>
        <time>2011-06-17T07:53:30.000Z</time>
      </trkpt>
      <trkpt lon="34.98788019642234" lat="31.786472965031862">
        <ele>331.79998779296875</ele>
        <time>2011-06-17T07:53:42.000Z</time>
      </trkpt>
      <trkpt lon="34.987561432644725" lat="31.786440024152398">
        <ele>333.79998779296875</ele>
        <time>2011-06-17T07:53:49.000Z</time>
      </trkpt>
      <trkpt lon="34.98698123730719" lat="31.78642988204956">
        <ele>335.6000061035156</ele>
        <time>2011-06-17T07:54:04.000Z</time>
      </trkpt>
      <trkpt lon="34.986512772738934" lat="31.78656910546124">
        <ele>336.20001220703125</ele>
        <time>2011-06-17T07:54:20.000Z</time>
      </trkpt>
      <trkpt lon="34.98665635474026" lat="31.786884935572743">
        <ele>337.0</ele>
        <time>2011-06-17T07:54:32.000Z</time>
      </trkpt>
      <trkpt lon="34.98681309632957" lat="31.78722968325019">
        <ele>337.0</ele>
        <time>2011-06-17T07:54:45.000Z</time>
      </trkpt>
      <trkpt lon="34.986969754099846" lat="31.787338815629482">
        <ele>337.0</ele>
        <time>2011-06-17T07:54:50.000Z</time>
      </trkpt>
      <trkpt lon="34.987179804593325" lat="31.787476195022464">
        <ele>337.0</ele>
        <time>2011-06-17T07:54:57.000Z</time>
      </trkpt>
      <trkpt lon="34.98768774792552" lat="31.787435291334987">
        <ele>338.0</ele>
        <time>2011-06-17T07:55:08.000Z</time>
      </trkpt>
      <trkpt lon="34.98791355639696" lat="31.787360021844506">
        <ele>338.6000061035156</ele>
        <time>2011-06-17T07:55:15.000Z</time>
      </trkpt>
      <trkpt lon="34.98821496963501" lat="31.787303779274225">
        <ele>339.3999938964844</ele>
        <time>2011-06-17T07:55:25.000Z</time>
      </trkpt>
      <trkpt lon="34.98866440728307" lat="31.78748390637338">
        <ele>338.6000061035156</ele>
        <time>2011-06-17T07:55:38.000Z</time>
      </trkpt>
      <trkpt lon="34.98955775052309" lat="31.787609299644828">
        <ele>337.0</ele>
        <time>2011-06-17T07:55:53.000Z</time>
      </trkpt>
      <trkpt lon="34.989751959219575" lat="31.78763872012496">
        <ele>336.20001220703125</ele>
        <time>2011-06-17T07:55:56.000Z</time>
      </trkpt>
      <trkpt lon="34.99002571217716" lat="31.787592954933643">
        <ele>337.0</ele>
        <time>2011-06-17T07:56:01.000Z</time>
      </trkpt>
      <trkpt lon="34.99033500440419" lat="31.787347868084908">
        <ele>339.3999938964844</ele>
        <time>2011-06-17T07:56:13.000Z</time>
      </trkpt>
      <trkpt lon="34.990803552791476" lat="31.787223564460874">
        <ele>338.0</ele>
        <time>2011-06-17T07:56:25.000Z</time>
      </trkpt>
      <trkpt lon="34.991038078442216" lat="31.787218116223812">
        <ele>337.6000061035156</ele>
        <time>2011-06-17T07:56:29.000Z</time>
      </trkpt>
      <trkpt lon="34.991228599101305" lat="31.78721367381513">
        <ele>336.6000061035156</ele>
        <time>2011-06-17T07:56:32.000Z</time>
      </trkpt>
      <trkpt lon="34.99151551164687" lat="31.787206968292594">
        <ele>335.6000061035156</ele>
        <time>2011-06-17T07:56:36.000Z</time>
      </trkpt>
      <trkpt lon="34.991667391732335" lat="31.787203447893262">
        <ele>335.20001220703125</ele>
        <time>2011-06-17T07:56:38.000Z</time>
      </trkpt>
      <trkpt lon="34.992197044193745" lat="31.787181235849857">
        <ele>334.20001220703125</ele>
        <time>2011-06-17T07:56:45.000Z</time>
      </trkpt>
      <trkpt lon="34.99220609664917" lat="31.78718090057373">
        <ele>335.6000061035156</ele>
        <time>2011-06-17T07:56:48.000Z</time>
      </trkpt>
      <trkpt lon="34.99241245910525" lat="31.78710713982582">
        <ele>336.20001220703125</ele>
        <time>2011-06-17T07:56:51.000Z</time>
      </trkpt>
      <trkpt lon="34.992704736068845" lat="31.786895245313644">
        <ele>340.0</ele>
        <time>2011-06-17T07:57:07.000Z</time>
      </trkpt>
      <trkpt lon="34.992938758805394" lat="31.786562483757734">
        <ele>342.79998779296875</ele>
        <time>2011-06-17T07:57:24.000Z</time>
      </trkpt>
      <trkpt lon="34.99320195056498" lat="31.786371879279613">
        <ele>344.79998779296875</ele>
        <time>2011-06-17T07:57:40.000Z</time>
      </trkpt>
      <trkpt lon="34.99363336712122" lat="31.78633449599147">
        <ele>347.20001220703125</ele>
        <time>2011-06-17T07:58:01.000Z</time>
      </trkpt>
      <trkpt lon="34.99401004984975" lat="31.78627112880349">
        <ele>350.0</ele>
        <time>2011-06-17T07:58:15.000Z</time>
      </trkpt>
      <trkpt lon="34.99446124769747" lat="31.786131067201495">
        <ele>352.3999938964844</ele>
        <time>2011-06-17T07:58:35.000Z</time>
      </trkpt>
      <trkpt lon="34.99490431509912" lat="31.78590609692037">
        <ele>349.6000061035156</ele>
        <time>2011-06-17T07:58:48.000Z</time>
      </trkpt>
      <trkpt lon="34.99537403695285" lat="31.78563293069601">
        <ele>346.20001220703125</ele>
        <time>2011-06-17T07:58:57.000Z</time>
      </trkpt>
      <trkpt lon="34.99564737081528" lat="31.785511057823896">
        <ele>344.20001220703125</ele>
        <time>2011-06-17T07:59:01.000Z</time>
      </trkpt>
      <trkpt lon="34.995721969753504" lat="31.7854970600456">
        <ele>343.79998779296875</ele>
        <time>2011-06-17T07:59:02.000Z</time>
      </trkpt>
      <trkpt lon="34.99600997194648" lat="31.78547560237348">
        <ele>341.0</ele>
        <time>2011-06-17T07:59:06.000Z</time>
      </trkpt>
      <trkpt lon="34.996268386021256" lat="31.7855816334486">
        <ele>338.0</ele>
        <time>2011-06-17T07:59:11.000Z</time>
      </trkpt>
      <trkpt lon="34.996304512023926" lat="31.78575170226395">
        <ele>336.6000061035156</ele>
        <time>2011-06-17T07:59:15.000Z</time>
      </trkpt>
      <trkpt lon="34.996347427368164" lat="31.78617238998413">
        <ele>332.79998779296875</ele>
        <time>2011-06-17T07:59:24.000Z</time>
      </trkpt>
      <trkpt lon="34.99635061249137" lat="31.786406496539712">
        <ele>331.79998779296875</ele>
        <time>2011-06-17T07:59:27.000Z</time>
      </trkpt>
      <trkpt lon="34.996332842856646" lat="31.786467097699642">
        <ele>331.3999938964844</ele>
        <time>2011-06-17T07:59:28.000Z</time>
      </trkpt>
      <trkpt lon="34.99628749676049" lat="31.78658368997276">
        <ele>329.79998779296875</ele>
        <time>2011-06-17T07:59:30.000Z</time>
      </trkpt>
      <trkpt lon="34.99622354283929" lat="31.786748310551047">
        <ele>329.0</ele>
        <time>2011-06-17T07:59:33.000Z</time>
      </trkpt>
      <trkpt lon="34.99617576599121" lat="31.786880493164062">
        <ele>326.6000061035156</ele>
        <time>2011-06-17T07:59:39.000Z</time>
      </trkpt>
      <trkpt lon="34.99651682563126" lat="31.787000354379416">
        <ele>324.20001220703125</ele>
        <time>2011-06-17T07:59:45.000Z</time>
      </trkpt>
      <trkpt lon="34.996702652424574" lat="31.787030026316643">
        <ele>322.6000061035156</ele>
        <time>2011-06-17T07:59:49.000Z</time>
      </trkpt>
      <trkpt lon="34.99689694494009" lat="31.787054752931">
        <ele>321.6000061035156</ele>
        <time>2011-06-17T07:59:53.000Z</time>
      </trkpt>
      <trkpt lon="34.99716239981353" lat="31.787066822871566">
        <ele>320.20001220703125</ele>
        <time>2011-06-17T07:59:58.000Z</time>
      </trkpt>
      <trkpt lon="34.99761468730867" lat="31.787001779302955">
        <ele>316.79998779296875</ele>
        <time>2011-06-17T08:00:07.000Z</time>
      </trkpt>
      <trkpt lon="34.99770470894873" lat="31.786980321630836">
        <ele>316.0</ele>
        <time>2011-06-17T08:00:09.000Z</time>
      </trkpt>
      <trkpt lon="34.99784401617944" lat="31.786935394629836">
        <ele>314.3999938964844</ele>
        <time>2011-06-17T08:00:12.000Z</time>
      </trkpt>
      <trkpt lon="34.998042583465576" lat="31.786859035491943">
        <ele>312.6000061035156</ele>
        <time>2011-06-17T08:00:17.000Z</time>
      </trkpt>
      <trkpt lon="34.998042583465576" lat="31.786859035491943">
        <ele>312.6000061035156</ele>
        <time>2011-06-17T08:00:28.000Z</time>
      </trkpt>
      <trkpt lon="34.998042583465576" lat="31.786859035491943">
        <ele>313.0</ele>
        <time>2011-06-17T08:00:34.000Z</time>
      </trkpt>
      <trkpt lon="34.99812841415405" lat="31.786987781524658">
        <ele>313.6000061035156</ele>
        <time>2011-06-17T08:00:41.000Z</time>
      </trkpt>
      <trkpt lon="34.997918447479606" lat="31.78707528859377">
        <ele>315.0</ele>
        <time>2011-06-17T08:00:57.000Z</time>
      </trkpt>
      <trkpt lon="34.99806420877576" lat="31.787206381559372">
        <ele>313.0</ele>
        <time>2011-06-17T08:01:02.000Z</time>
      </trkpt>
      <trkpt lon="34.998445166274905" lat="31.78742565214634">
        <ele>314.0</ele>
        <time>2011-06-17T08:01:14.000Z</time>
      </trkpt>
      <trkpt lon="34.99849093146622" lat="31.78745205514133">
        <ele>314.0</ele>
        <time>2011-06-17T08:01:16.000Z</time>
      </trkpt>
      <trkpt lon="34.99894238077104" lat="31.787608796730638">
        <ele>314.3999938964844</ele>
        <time>2011-06-17T08:01:31.000Z</time>
      </trkpt>
      <trkpt lon="34.999240105971694" lat="31.7878111358732">
        <ele>315.3999938964844</ele>
        <time>2011-06-17T08:01:44.000Z</time>
      </trkpt>
      <trkpt lon="34.99942014925182" lat="31.788023533299565">
        <ele>318.3999938964844</ele>
        <time>2011-06-17T08:01:57.000Z</time>
      </trkpt>
      <trkpt lon="34.999645287171006" lat="31.788323605433106">
        <ele>319.20001220703125</ele>
        <time>2011-06-17T08:02:13.000Z</time>
      </trkpt>
      <trkpt lon="34.99986866489053" lat="31.788599621504545">
        <ele>317.79998779296875</ele>
        <time>2011-06-17T08:02:25.000Z</time>
      </trkpt>
      <trkpt lon="35.00006128102541" lat="31.788839092478156">
        <ele>316.79998779296875</ele>
        <time>2011-06-17T08:02:32.000Z</time>
      </trkpt>
      <trkpt lon="35.00011811032891" lat="31.789100859314203">
        <ele>315.3999938964844</ele>
        <time>2011-06-17T08:02:38.000Z</time>
      </trkpt>
      <trkpt lon="35.00009162351489" lat="31.78946320898831">
        <ele>316.3999938964844</ele>
        <time>2011-06-17T08:02:49.000Z</time>
      </trkpt>
      <trkpt lon="35.00022782944143" lat="31.789867216721177">
        <ele>317.3999938964844</ele>
        <time>2011-06-17T08:03:05.000Z</time>
      </trkpt>
      <trkpt lon="35.00042228959501" lat="31.79019662551582">
        <ele>320.20001220703125</ele>
        <time>2011-06-17T08:03:21.000Z</time>
      </trkpt>
      <trkpt lon="35.000653797760606" lat="31.79047968238592">
        <ele>323.6000061035156</ele>
        <time>2011-06-17T08:03:38.000Z</time>
      </trkpt>
      <trkpt lon="35.00095143914223" lat="31.790592670440674">
        <ele>324.20001220703125</ele>
        <time>2011-06-17T08:03:56.000Z</time>
      </trkpt>
      <trkpt lon="35.00085814855993" lat="31.790986116975546">
        <ele>327.0</ele>
        <time>2011-06-17T08:04:13.000Z</time>
      </trkpt>
      <trkpt lon="35.00092185102403" lat="31.790592670440674">
        <ele>328.3999938964844</ele>
        <time>2011-06-17T08:04:18.000Z</time>
      </trkpt>
      <trkpt lon="35.0010184943676" lat="31.790960133075714">
        <ele>330.3999938964844</ele>
        <time>2011-06-17T08:04:25.000Z</time>
      </trkpt>
      <trkpt lon="35.00103718601167" lat="31.791046047583222">
        <ele>332.20001220703125</ele>
        <time>2011-06-17T08:04:31.000Z</time>
      </trkpt>
      <trkpt lon="35.00115939415991" lat="31.791099524125457">
        <ele>333.79998779296875</ele>
        <time>2011-06-17T08:04:44.000Z</time>
      </trkpt>
      <trkpt lon="35.001263078302145" lat="31.791157107800245">
        <ele>335.20001220703125</ele>
        <time>2011-06-17T08:04:55.000Z</time>
      </trkpt>
      <trkpt lon="35.00137631781399" lat="31.791247045621276">
        <ele>335.6000061035156</ele>
        <time>2011-06-17T08:05:08.000Z</time>
      </trkpt>
      <trkpt lon="35.001487294211984" lat="31.79131963290274">
        <ele>336.20001220703125</ele>
        <time>2011-06-17T08:05:20.000Z</time>
      </trkpt>
      <trkpt lon="35.001723831519485" lat="31.791310664266348">
        <ele>337.0</ele>
        <time>2011-06-17T08:05:37.000Z</time>
      </trkpt>
      <trkpt lon="35.00201091170311" lat="31.79134544916451">
        <ele>340.3999938964844</ele>
        <time>2011-06-17T08:05:55.000Z</time>
      </trkpt>
      <trkpt lon="35.00221660360694" lat="31.791391968727112">
        <ele>343.3999938964844</ele>
        <time>2011-06-17T08:06:09.000Z</time>
      </trkpt>
      <trkpt lon="35.002306792885065" lat="31.791454581543803">
        <ele>344.20001220703125</ele>
        <time>2011-06-17T08:06:19.000Z</time>
      </trkpt>
      <trkpt lon="35.002406537532806" lat="31.791470674797893">
        <ele>345.20001220703125</ele>
        <time>2011-06-17T08:06:27.000Z</time>
      </trkpt>
      <trkpt lon="35.002577444538474" lat="31.791568491607904">
        <ele>348.20001220703125</ele>
        <time>2011-06-17T08:06:42.000Z</time>
      </trkpt>
      <trkpt lon="35.00271105207503" lat="31.79168458096683">
        <ele>351.3999938964844</ele>
        <time>2011-06-17T08:06:57.000Z</time>
      </trkpt>
      <trkpt lon="35.00277693383396" lat="31.79176957346499">
        <ele>352.3999938964844</ele>
        <time>2011-06-17T08:07:06.000Z</time>
      </trkpt>
      <trkpt lon="35.00280987471342" lat="31.791799580678344">
        <ele>353.3999938964844</ele>
        <time>2011-06-17T08:07:09.000Z</time>
      </trkpt>
      <trkpt lon="35.00293132849038" lat="31.79191952571273">
        <ele>356.3999938964844</ele>
        <time>2011-06-17T08:07:23.000Z</time>
      </trkpt>
      <trkpt lon="35.003059236332774" lat="31.79196705110371">
        <ele>357.79998779296875</ele>
        <time>2011-06-17T08:07:36.000Z</time>
      </trkpt>
      <trkpt lon="35.00307893380523" lat="31.791977444663644">
        <ele>357.79998779296875</ele>
        <time>2011-06-17T08:07:38.000Z</time>
      </trkpt>
      <trkpt lon="35.003267442807555" lat="31.792078781872988">
        <ele>361.20001220703125</ele>
        <time>2011-06-17T08:07:54.000Z</time>
      </trkpt>
      <trkpt lon="35.0034411996603" lat="31.792153799906373">
        <ele>364.0</ele>
        <time>2011-06-17T08:08:07.000Z</time>
      </trkpt>
      <trkpt lon="35.003667091950774" lat="31.7921800352633">
        <ele>366.79998779296875</ele>
        <time>2011-06-17T08:08:28.000Z</time>
      </trkpt>
      <trkpt lon="35.00371185131371" lat="31.792178191244602">
        <ele>366.79998779296875</ele>
        <time>2011-06-17T08:08:32.000Z</time>
      </trkpt>
      <trkpt lon="35.00395425595343" lat="31.792155979201198">
        <ele>369.20001220703125</ele>
        <time>2011-06-17T08:08:51.000Z</time>
      </trkpt>
      <trkpt lon="35.004148380830884" lat="31.79204475134611">
        <ele>372.20001220703125</ele>
        <time>2011-06-17T08:09:10.000Z</time>
      </trkpt>
      <trkpt lon="35.004374692216516" lat="31.79191223345697">
        <ele>374.6000061035156</ele>
        <time>2011-06-17T08:09:30.000Z</time>
      </trkpt>
      <trkpt lon="35.004404531791806" lat="31.79193427786231">
        <ele>375.0</ele>
        <time>2011-06-17T08:09:34.000Z</time>
      </trkpt>
      <trkpt lon="35.00439899973571" lat="31.791983479633927">
        <ele>376.0</ele>
        <time>2011-06-17T08:09:39.000Z</time>
      </trkpt>
      <trkpt lon="35.004405872896314" lat="31.792069729417562">
        <ele>376.0</ele>
        <time>2011-06-17T08:09:46.000Z</time>
      </trkpt>
      <trkpt lon="35.00440335832536" lat="31.79210862144828">
        <ele>377.0</ele>
        <time>2011-06-17T08:09:50.000Z</time>
      </trkpt>
      <trkpt lon="35.00441743992269" lat="31.792367873713374">
        <ele>378.3999938964844</ele>
        <time>2011-06-17T08:10:12.000Z</time>
      </trkpt>
      <trkpt lon="35.00444007106125" lat="31.792566943913698">
        <ele>379.79998779296875</ele>
        <time>2011-06-17T08:10:28.000Z</time>
      </trkpt>
      <trkpt lon="35.00443395227194" lat="31.792746568098664">
        <ele>382.20001220703125</ele>
        <time>2011-06-17T08:10:45.000Z</time>
      </trkpt>
      <trkpt lon="35.00446446239948" lat="31.79292174987495">
        <ele>383.79998779296875</ele>
        <time>2011-06-17T08:11:00.000Z</time>
      </trkpt>
      <trkpt lon="35.00448717735708" lat="31.79296868853271">
        <ele>384.20001220703125</ele>
        <time>2011-06-17T08:11:05.000Z</time>
      </trkpt>
      <trkpt lon="35.00457560643554" lat="31.79315443150699">
        <ele>385.6000061035156</ele>
        <time>2011-06-17T08:11:24.000Z</time>
      </trkpt>
      <trkpt lon="35.00460544601083" lat="31.793302455917">
        <ele>386.6000061035156</ele>
        <time>2011-06-17T08:11:39.000Z</time>
      </trkpt>
      <trkpt lon="35.00452791340649" lat="31.79350865073502">
        <ele>387.0</ele>
        <time>2011-06-17T08:11:58.000Z</time>
      </trkpt>
      <trkpt lon="35.004433281719685" lat="31.79365575313568">
        <ele>387.0</ele>
        <time>2011-06-17T08:12:12.000Z</time>
      </trkpt>
      <trkpt lon="35.00420688651502" lat="31.79383797571063">
        <ele>388.6000061035156</ele>
        <time>2011-06-17T08:12:32.000Z</time>
      </trkpt>
      <trkpt lon="35.00411627814174" lat="31.793895307928324">
        <ele>389.0</ele>
        <time>2011-06-17T08:12:39.000Z</time>
      </trkpt>
      <trkpt lon="35.004080990329385" lat="31.793931601569057">
        <ele>389.3999938964844</ele>
        <time>2011-06-17T08:12:42.000Z</time>
      </trkpt>
      <trkpt lon="35.00380421988666" lat="31.79405389353633">
        <ele>390.0</ele>
        <time>2011-06-17T08:13:03.000Z</time>
      </trkpt>
      <trkpt lon="35.003529796376824" lat="31.79416143335402">
        <ele>390.0</ele>
        <time>2011-06-17T08:13:18.000Z</time>
      </trkpt>
      <trkpt lon="35.00304775312543" lat="31.79444725625217">
        <ele>387.6000061035156</ele>
        <time>2011-06-17T08:13:34.000Z</time>
      </trkpt>
      <trkpt lon="35.002595130354166" lat="31.794794937595725">
        <ele>383.79998779296875</ele>
        <time>2011-06-17T08:13:45.000Z</time>
      </trkpt>
      <trkpt lon="35.00206061638892" lat="31.79532928392291">
        <ele>382.20001220703125</ele>
        <time>2011-06-17T08:13:58.000Z</time>
      </trkpt>
      <trkpt lon="35.0014434568584" lat="31.79583848454058">
        <ele>379.3999938964844</ele>
        <time>2011-06-17T08:14:14.000Z</time>
      </trkpt>
      <trkpt lon="35.00137019902468" lat="31.795879639685154">
        <ele>378.79998779296875</ele>
        <time>2011-06-17T08:14:23.000Z</time>
      </trkpt>
      <trkpt lon="35.00137019902468" lat="31.795879639685154">
        <ele>378.79998779296875</ele>
        <time>2011-06-17T08:20:09.000Z</time>
      </trkpt>
      <trkpt lon="35.00120515935123" lat="31.7958927154541">
        <ele>377.3999938964844</ele>
        <time>2011-06-17T08:20:15.000Z</time>
      </trkpt>
      <trkpt lon="35.000904919579625" lat="31.795742847025394">
        <ele>374.6000061035156</ele>
        <time>2011-06-17T08:20:21.000Z</time>
      </trkpt>
      <trkpt lon="35.0008337572217" lat="31.795628098770976">
        <ele>373.6000061035156</ele>
        <time>2011-06-17T08:20:23.000Z</time>
      </trkpt>
      <trkpt lon="35.0007335934788" lat="31.795402877032757">
        <ele>371.6000061035156</ele>
        <time>2011-06-17T08:20:26.000Z</time>
      </trkpt>
      <trkpt lon="35.0006817933172" lat="31.795248230919242">
        <ele>370.79998779296875</ele>
        <time>2011-06-17T08:20:28.000Z</time>
      </trkpt>
      <trkpt lon="35.000641476362944" lat="31.795087130740285">
        <ele>370.20001220703125</ele>
        <time>2011-06-17T08:20:30.000Z</time>
      </trkpt>
      <trkpt lon="35.00070685520768" lat="31.794824609532952">
        <ele>368.79998779296875</ele>
        <time>2011-06-17T08:20:33.000Z</time>
      </trkpt>
      <trkpt lon="35.00078053213656" lat="31.79455135948956">
        <ele>366.79998779296875</ele>
        <time>2011-06-17T08:20:37.000Z</time>
      </trkpt>
      <trkpt lon="35.00074625015259" lat="31.794326305389404">
        <ele>364.3999938964844</ele>
        <time>2011-06-17T08:20:41.000Z</time>
      </trkpt>
      <trkpt lon="35.00074625015259" lat="31.794326305389404">
        <ele>365.0</ele>
        <time>2011-06-17T08:20:43.000Z</time>
      </trkpt>
      <trkpt lon="35.000533265993" lat="31.793842250481248">
        <ele>366.79998779296875</ele>
        <time>2011-06-17T08:20:52.000Z</time>
      </trkpt>
      <trkpt lon="35.000541396439075" lat="31.793538155034184">
        <ele>369.79998779296875</ele>
        <time>2011-06-17T08:21:06.000Z</time>
      </trkpt>
      <trkpt lon="35.00055053271353" lat="31.79320371709764">
        <ele>372.6000061035156</ele>
        <time>2011-06-17T08:21:23.000Z</time>
      </trkpt>
      <trkpt lon="35.000463696196675" lat="31.792951254174113">
        <ele>374.6000061035156</ele>
        <time>2011-06-17T08:21:39.000Z</time>
      </trkpt>
      <trkpt lon="35.000338554382324" lat="31.792738437652588">
        <ele>375.6000061035156</ele>
        <time>2011-06-17T08:21:54.000Z</time>
      </trkpt>
      <trkpt lon="35.000129425898194" lat="31.792446998879313">
        <ele>378.0</ele>
        <time>2011-06-17T08:22:15.000Z</time>
      </trkpt>
      <trkpt lon="34.99981225468218" lat="31.79234121926129">
        <ele>380.3999938964844</ele>
        <time>2011-06-17T08:22:34.000Z</time>
      </trkpt>
      <trkpt lon="34.99954964965582" lat="31.792184142395854">
        <ele>382.20001220703125</ele>
        <time>2011-06-17T08:22:50.000Z</time>
      </trkpt>
      <trkpt lon="34.999322835356" lat="31.791893960908055">
        <ele>384.6000061035156</ele>
        <time>2011-06-17T08:23:10.000Z</time>
      </trkpt>
      <trkpt lon="34.99897071160376" lat="31.7915843334049">
        <ele>383.79998779296875</ele>
        <time>2011-06-17T08:23:25.000Z</time>
      </trkpt>
      <trkpt lon="34.99861213378608" lat="31.791100362315774">
        <ele>383.20001220703125</ele>
        <time>2011-06-17T08:23:39.000Z</time>
      </trkpt>
      <trkpt lon="34.99851046130061" lat="31.790956361219287">
        <ele>381.79998779296875</ele>
        <time>2011-06-17T08:23:42.000Z</time>
      </trkpt>
      <trkpt lon="34.99826135113835" lat="31.790889892727137">
        <ele>381.3999938964844</ele>
        <time>2011-06-17T08:23:46.000Z</time>
      </trkpt>
      <trkpt lon="34.99799882993102" lat="31.790962647646666">
        <ele>384.20001220703125</ele>
        <time>2011-06-17T08:23:56.000Z</time>
      </trkpt>
      <trkpt lon="34.99797033146024" lat="31.791220726445317">
        <ele>385.6000061035156</ele>
        <time>2011-06-17T08:24:09.000Z</time>
      </trkpt>
      <trkpt lon="34.99807309359312" lat="31.791426418349147">
        <ele>386.20001220703125</ele>
        <time>2011-06-17T08:24:25.000Z</time>
      </trkpt>
      <trkpt lon="34.998085498809814" lat="31.79145097732544">
        <ele>386.20001220703125</ele>
        <time>2011-06-17T08:24:27.000Z</time>
      </trkpt>
      <trkpt lon="34.998061610385776" lat="31.79148333147168">
        <ele>386.20001220703125</ele>
        <time>2011-06-17T08:24:33.000Z</time>
      </trkpt>
      <trkpt lon="34.998039063066244" lat="31.791513925418258">
        <ele>385.6000061035156</ele>
        <time>2011-06-17T08:24:36.000Z</time>
      </trkpt>
      <trkpt lon="34.99794401228428" lat="31.791642419993877">
        <ele>385.20001220703125</ele>
        <time>2011-06-17T08:24:45.000Z</time>
      </trkpt>
      <trkpt lon="34.99791140668094" lat="31.79168659262359">
        <ele>384.6000061035156</ele>
        <time>2011-06-17T08:24:57.000Z</time>
      </trkpt>
      <trkpt lon="34.99791140668094" lat="31.79168659262359">
        <ele>384.6000061035156</ele>
        <time>2011-06-17T08:24:58.000Z</time>
      </trkpt>
      <trkpt lon="34.99796303920448" lat="31.79161668755114">
        <ele>385.20001220703125</ele>
        <time>2011-06-17T08:25:03.000Z</time>
      </trkpt>
      <trkpt lon="34.998085498809814" lat="31.79145097732544">
        <ele>385.6000061035156</ele>
        <time>2011-06-17T08:25:16.000Z</time>
      </trkpt>
      <trkpt lon="34.99807896092534" lat="31.79143823683262">
        <ele>386.20001220703125</ele>
        <time>2011-06-17T08:25:33.000Z</time>
      </trkpt>
      <trkpt lon="34.99807896092534" lat="31.79143823683262">
        <ele>386.20001220703125</ele>
        <time>2011-06-17T08:38:14.000Z</time>
      </trkpt>
      <trkpt lon="34.99807929620147" lat="31.79143882356584">
        <ele>384.6000061035156</ele>
        <time>2011-06-17T08:38:20.000Z</time>
      </trkpt>
      <trkpt lon="34.997940408065915" lat="31.791647281497717">
        <ele>384.20001220703125</ele>
        <time>2011-06-17T08:38:35.000Z</time>
      </trkpt>
      <trkpt lon="34.997720969840884" lat="31.791956406086683">
        <ele>380.79998779296875</ele>
        <time>2011-06-17T08:38:49.000Z</time>
      </trkpt>
      <trkpt lon="34.99773362651467" lat="31.792346835136414">
        <ele>380.79998779296875</ele>
        <time>2011-06-17T08:39:02.000Z</time>
      </trkpt>
      <trkpt lon="34.997721472755075" lat="31.79265503771603">
        <ele>382.79998779296875</ele>
        <time>2011-06-17T08:39:21.000Z</time>
      </trkpt>
      <trkpt lon="34.99754721298814" lat="31.79303666576743">
        <ele>384.20001220703125</ele>
        <time>2011-06-17T08:39:43.000Z</time>
      </trkpt>
      <trkpt lon="34.997347220778465" lat="31.793474787846208">
        <ele>385.6000061035156</ele>
        <time>2011-06-17T08:40:06.000Z</time>
      </trkpt>
      <trkpt lon="34.99707925133407" lat="31.793970074504614">
        <ele>387.0</ele>
        <time>2011-06-17T08:40:31.000Z</time>
      </trkpt>
      <trkpt lon="34.9968290515244" lat="31.79441012442112">
        <ele>388.0</ele>
        <time>2011-06-17T08:40:54.000Z</time>
      </trkpt>
      <trkpt lon="34.996648505330086" lat="31.794836847111583">
        <ele>388.0</ele>
        <time>2011-06-17T08:41:15.000Z</time>
      </trkpt>
      <trkpt lon="34.99676886945963" lat="31.79525342769921">
        <ele>385.20001220703125</ele>
        <time>2011-06-17T08:41:27.000Z</time>
      </trkpt>
      <trkpt lon="34.99689635820687" lat="31.795487785711884">
        <ele>383.20001220703125</ele>
        <time>2011-06-17T08:41:31.000Z</time>
      </trkpt>
      <trkpt lon="34.99702837318182" lat="31.795730525627732">
        <ele>381.3999938964844</ele>
        <time>2011-06-17T08:41:35.000Z</time>
      </trkpt>
      <trkpt lon="34.99723699875176" lat="31.796113830059767">
        <ele>378.79998779296875</ele>
        <time>2011-06-17T08:41:41.000Z</time>
      </trkpt>
      <trkpt lon="34.99740907922387" lat="31.796430246904492">
        <ele>375.0</ele>
        <time>2011-06-17T08:41:47.000Z</time>
      </trkpt>
      <trkpt lon="34.997421987354755" lat="31.796480286866426">
        <ele>375.0</ele>
        <time>2011-06-17T08:41:48.000Z</time>
      </trkpt>
      <trkpt lon="34.99743238091469" lat="31.79665882140398">
        <ele>373.20001220703125</ele>
        <time>2011-06-17T08:41:51.000Z</time>
      </trkpt>
      <trkpt lon="34.997402373701334" lat="31.797104822471738">
        <ele>369.20001220703125</ele>
        <time>2011-06-17T08:41:58.000Z</time>
      </trkpt>
      <trkpt lon="34.99735727906227" lat="31.79733792319894">
        <ele>367.79998779296875</ele>
        <time>2011-06-17T08:42:01.000Z</time>
      </trkpt>
      <trkpt lon="34.99710163101554" lat="31.797805381938815">
        <ele>365.3999938964844</ele>
        <time>2011-06-17T08:42:08.000Z</time>
      </trkpt>
      <trkpt lon="34.9965544603765" lat="31.798275774344802">
        <ele>366.0</ele>
        <time>2011-06-17T08:42:20.000Z</time>
      </trkpt>
      <trkpt lon="34.996264949440956" lat="31.798558328300714">
        <ele>364.3999938964844</ele>
        <time>2011-06-17T08:42:27.000Z</time>
      </trkpt>
      <trkpt lon="34.99611524865031" lat="31.798704424872994">
        <ele>363.0</ele>
        <time>2011-06-17T08:42:30.000Z</time>
      </trkpt>
      <trkpt lon="34.99543648213148" lat="31.799280429258943">
        <ele>360.20001220703125</ele>
        <time>2011-06-17T08:42:41.000Z</time>
      </trkpt>
      <trkpt lon="34.995254427194595" lat="31.799425520002842">
        <ele>359.6000061035156</ele>
        <time>2011-06-17T08:42:44.000Z</time>
      </trkpt>
      <trkpt lon="34.9950850289315" lat="31.79956030100584">
        <ele>359.6000061035156</ele>
        <time>2011-06-17T08:42:47.000Z</time>
      </trkpt>
      <trkpt lon="34.9948173109442" lat="31.799773536622524">
        <ele>359.20001220703125</ele>
        <time>2011-06-17T08:42:52.000Z</time>
      </trkpt>
      <trkpt lon="34.99464238062501" lat="31.80020721629262">
        <ele>357.79998779296875</ele>
        <time>2011-06-17T08:43:00.000Z</time>
      </trkpt>
      <trkpt lon="34.99469476751983" lat="31.8006968870759">
        <ele>356.79998779296875</ele>
        <time>2011-06-17T08:43:09.000Z</time>
      </trkpt>
      <trkpt lon="34.99462083913386" lat="31.800959492102265">
        <ele>355.79998779296875</ele>
        <time>2011-06-17T08:43:14.000Z</time>
      </trkpt>
      <trkpt lon="34.99433686025441" lat="31.801234921440482">
        <ele>354.79998779296875</ele>
        <time>2011-06-17T08:43:21.000Z</time>
      </trkpt>
      <trkpt lon="34.99368667602539" lat="31.801603892818093">
        <ele>354.79998779296875</ele>
        <time>2011-06-17T08:43:38.000Z</time>
      </trkpt>
      <trkpt lon="34.99340772628784" lat="31.802008152008057">
        <ele>354.3999938964844</ele>
        <time>2011-06-17T08:43:52.000Z</time>
      </trkpt>
      <trkpt lon="34.99297438189387" lat="31.802778532728553">
        <ele>352.0</ele>
        <time>2011-06-17T08:44:09.000Z</time>
      </trkpt>
      <trkpt lon="34.9926448892802" lat="31.803122023120522">
        <ele>351.3999938964844</ele>
        <time>2011-06-17T08:44:18.000Z</time>
      </trkpt>
      <trkpt lon="34.992474652826786" lat="31.803219756111503">
        <ele>351.3999938964844</ele>
        <time>2011-06-17T08:44:22.000Z</time>
      </trkpt>
      <trkpt lon="34.991764202713966" lat="31.803627535700798">
        <ele>349.0</ele>
        <time>2011-06-17T08:44:40.000Z</time>
      </trkpt>
      <trkpt lon="34.99164090491831" lat="31.803727196529508">
        <ele>348.20001220703125</ele>
        <time>2011-06-17T08:44:43.000Z</time>
      </trkpt>
      <trkpt lon="34.991537472233176" lat="31.803889637812972">
        <ele>346.6000061035156</ele>
        <time>2011-06-17T08:44:47.000Z</time>
      </trkpt>
      <trkpt lon="34.991549123078585" lat="31.80409625172615">
        <ele>346.20001220703125</ele>
        <time>2011-06-17T08:44:51.000Z</time>
      </trkpt>
      <trkpt lon="34.991562366485596" lat="31.80417537689209">
        <ele>346.20001220703125</ele>
        <time>2011-06-17T08:44:53.000Z</time>
      </trkpt>
      <trkpt lon="34.99126589857042" lat="31.804710561409593">
        <ele>344.20001220703125</ele>
        <time>2011-06-17T08:45:08.000Z</time>
      </trkpt>
      <trkpt lon="34.99103128910065" lat="31.805056231096387">
        <ele>342.79998779296875</ele>
        <time>2011-06-17T08:45:22.000Z</time>
      </trkpt>
      <trkpt lon="34.99101586639881" lat="31.805079029873013">
        <ele>342.79998779296875</ele>
        <time>2011-06-17T08:45:32.000Z</time>
      </trkpt>
      <trkpt lon="34.99086884781718" lat="31.805295618250966">
        <ele>341.79998779296875</ele>
        <time>2011-06-17T08:47:44.000Z</time>
      </trkpt>
      <trkpt lon="34.99056718312204" lat="31.80582594126463">
        <ele>340.0</ele>
        <time>2011-06-17T08:47:59.000Z</time>
      </trkpt>
      <trkpt lon="34.99040700495243" lat="31.806180495768785">
        <ele>338.6000061035156</ele>
        <time>2011-06-17T08:48:07.000Z</time>
      </trkpt>
      <trkpt lon="34.990443382412195" lat="31.80674652568996">
        <ele>337.6000061035156</ele>
        <time>2011-06-17T08:48:17.000Z</time>
      </trkpt>
      <trkpt lon="34.99054471962154" lat="31.80695707909763">
        <ele>337.0</ele>
        <time>2011-06-17T08:48:21.000Z</time>
      </trkpt>
      <trkpt lon="34.99107780866325" lat="31.807404505088925">
        <ele>333.79998779296875</ele>
        <time>2011-06-17T08:48:32.000Z</time>
      </trkpt>
      <trkpt lon="34.99137503094971" lat="31.807641964405775">
        <ele>331.79998779296875</ele>
        <time>2011-06-17T08:48:37.000Z</time>
      </trkpt>
      <trkpt lon="34.99147058464587" lat="31.808006325736642">
        <ele>331.3999938964844</ele>
        <time>2011-06-17T08:48:46.000Z</time>
      </trkpt>
      <trkpt lon="34.991306802257895" lat="31.807955112308264">
        <ele>328.3999938964844</ele>
        <time>2011-06-17T08:48:53.000Z</time>
      </trkpt>
      <trkpt lon="34.990966664627194" lat="31.80803214199841">
        <ele>322.6000061035156</ele>
        <time>2011-06-17T08:48:57.000Z</time>
      </trkpt>
      <trkpt lon="34.99073423445225" lat="31.808084696531296">
        <ele>319.79998779296875</ele>
        <time>2011-06-17T08:48:59.000Z</time>
      </trkpt>
      <trkpt lon="34.99035805463791" lat="31.808200031518936">
        <ele>316.3999938964844</ele>
        <time>2011-06-17T08:49:02.000Z</time>
      </trkpt>
      <trkpt lon="34.990241546183825" lat="31.80825828574598">
        <ele>315.0</ele>
        <time>2011-06-17T08:49:03.000Z</time>
      </trkpt>
      <trkpt lon="34.98973268084228" lat="31.808579061180353">
        <ele>310.6000061035156</ele>
        <time>2011-06-17T08:49:08.000Z</time>
      </trkpt>
      <trkpt lon="34.98929740861058" lat="31.808837642893195">
        <ele>307.20001220703125</ele>
        <time>2011-06-17T08:49:12.000Z</time>
      </trkpt>
      <trkpt lon="34.98882877640426" lat="31.80907200090587">
        <ele>304.0</ele>
        <time>2011-06-17T08:49:16.000Z</time>
      </trkpt>
      <trkpt lon="34.98849442228675" lat="31.80925070308149">
        <ele>300.6000061035156</ele>
        <time>2011-06-17T08:49:19.000Z</time>
      </trkpt>
      <trkpt lon="34.988316893577576" lat="31.80935145355761">
        <ele>299.6000061035156</ele>
        <time>2011-06-17T08:49:21.000Z</time>
      </trkpt>
      <trkpt lon="34.98802310787141" lat="31.809518169611692">
        <ele>296.20001220703125</ele>
        <time>2011-06-17T08:49:25.000Z</time>
      </trkpt>
      <trkpt lon="34.98795261606574" lat="31.80955815128982">
        <ele>295.79998779296875</ele>
        <time>2011-06-17T08:49:26.000Z</time>
      </trkpt>
      <trkpt lon="34.98762077651918" lat="31.809584889560938">
        <ele>292.3999938964844</ele>
        <time>2011-06-17T08:49:31.000Z</time>
      </trkpt>
      <trkpt lon="34.987316597253084" lat="31.809507440775633">
        <ele>289.0</ele>
        <time>2011-06-17T08:49:35.000Z</time>
      </trkpt>
      <trkpt lon="34.98672475107014" lat="31.809418005868793">
        <ele>284.6000061035156</ele>
        <time>2011-06-17T08:49:41.000Z</time>
      </trkpt>
      <trkpt lon="34.98639768920839" lat="31.809385232627392">
        <ele>281.3999938964844</ele>
        <time>2011-06-17T08:49:44.000Z</time>
      </trkpt>
      <trkpt lon="34.98605922795832" lat="31.809285739436746">
        <ele>277.3999938964844</ele>
        <time>2011-06-17T08:49:47.000Z</time>
      </trkpt>
      <trkpt lon="34.985717330127954" lat="31.809185156598687">
        <ele>275.0</ele>
        <time>2011-06-17T08:49:50.000Z</time>
      </trkpt>
      <trkpt lon="34.98500377871096" lat="31.80928104557097">
        <ele>272.20001220703125</ele>
        <time>2011-06-17T08:49:56.000Z</time>
      </trkpt>
      <trkpt lon="34.98424236662686" lat="31.809573909267783">
        <ele>268.79998779296875</ele>
        <time>2011-06-17T08:50:04.000Z</time>
      </trkpt>
      <trkpt lon="34.983784295618534" lat="31.80975009687245">
        <ele>265.3999938964844</ele>
        <time>2011-06-17T08:50:09.000Z</time>
      </trkpt>
      <trkpt lon="34.983260594308376" lat="31.809995183721185">
        <ele>261.6000061035156</ele>
        <time>2011-06-17T08:50:15.000Z</time>
      </trkpt>
      <trkpt lon="34.98286848887801" lat="31.810358623042703">
        <ele>259.6000061035156</ele>
        <time>2011-06-17T08:50:21.000Z</time>
      </trkpt>
      <trkpt lon="34.98207891359925" lat="31.8106937315315">
        <ele>255.8000030517578</ele>
        <time>2011-06-17T08:50:31.000Z</time>
      </trkpt>
      <trkpt lon="34.98191471211612" lat="31.810749555006623">
        <ele>255.39999389648438</ele>
        <time>2011-06-17T08:50:33.000Z</time>
      </trkpt>
      <trkpt lon="34.98100326396525" lat="31.81098449975252">
        <ele>252.0</ele>
        <time>2011-06-17T08:50:45.000Z</time>
      </trkpt>
      <trkpt lon="34.97997195459902" lat="31.81089648976922">
        <ele>248.60000610351562</ele>
        <time>2011-06-17T08:50:59.000Z</time>
      </trkpt>
      <trkpt lon="34.97908649034798" lat="31.81061837822199">
        <ele>245.1999969482422</ele>
        <time>2011-06-17T08:51:10.000Z</time>
      </trkpt>
      <trkpt lon="34.97807253152132" lat="31.810375219210982">
        <ele>242.39999389648438</ele>
        <time>2011-06-17T08:51:23.000Z</time>
      </trkpt>
      <trkpt lon="34.97735462151468" lat="31.81027354672551">
        <ele>239.0</ele>
        <time>2011-06-17T08:51:32.000Z</time>
      </trkpt>
      <trkpt lon="34.97726225294173" lat="31.810260470956564">
        <ele>239.0</ele>
        <time>2011-06-17T08:51:33.000Z</time>
      </trkpt>
      <trkpt lon="34.97625198215246" lat="31.810117391869426">
        <ele>235.60000610351562</ele>
        <time>2011-06-17T08:51:43.000Z</time>
      </trkpt>
      <trkpt lon="34.97509729117155" lat="31.80988747626543">
        <ele>232.1999969482422</ele>
        <time>2011-06-17T08:51:56.000Z</time>
      </trkpt>
      <trkpt lon="34.975011041387916" lat="31.809867694973946">
        <ele>231.8000030517578</ele>
        <time>2011-06-17T08:51:57.000Z</time>
      </trkpt>
      <trkpt lon="34.97373774647713" lat="31.80971355177462">
        <ele>229.39999389648438</ele>
        <time>2011-06-17T08:52:13.000Z</time>
      </trkpt>
      <trkpt lon="34.973211362957954" lat="31.80961925536394">
        <ele>227.0</ele>
        <time>2011-06-17T08:52:20.000Z</time>
      </trkpt>
      <trkpt lon="34.97206564061344" lat="31.80917887017131">
        <ele>225.60000610351562</ele>
        <time>2011-06-17T08:52:33.000Z</time>
      </trkpt>
      <trkpt lon="34.97120716609061" lat="31.808816771954298">
        <ele>227.39999389648438</ele>
        <time>2011-06-17T08:52:45.000Z</time>
      </trkpt>
      <trkpt lon="34.97017912566662" lat="31.808493565768003">
        <ele>228.39999389648438</ele>
        <time>2011-06-17T08:53:05.000Z</time>
      </trkpt>
      <trkpt lon="34.96937873773277" lat="31.80825342424214">
        <ele>229.0</ele>
        <time>2011-06-17T08:53:24.000Z</time>
      </trkpt>
      <trkpt lon="34.968483382835984" lat="31.807895684614778">
        <ele>227.0</ele>
        <time>2011-06-17T08:53:43.000Z</time>
      </trkpt>
      <trkpt lon="34.96763580478728" lat="31.807675072923303">
        <ele>227.39999389648438</ele>
        <time>2011-06-17T08:54:01.000Z</time>
      </trkpt>
      <trkpt lon="34.966846480965614" lat="31.807555630803108">
        <ele>228.39999389648438</ele>
        <time>2011-06-17T08:54:21.000Z</time>
      </trkpt>
      <trkpt lon="34.96622957289219" lat="31.80751028470695">
        <ele>231.39999389648438</ele>
        <time>2011-06-17T08:54:38.000Z</time>
      </trkpt>
      <trkpt lon="34.965756330639124" lat="31.807440714910626">
        <ele>234.60000610351562</ele>
        <time>2011-06-17T08:54:55.000Z</time>
      </trkpt>
      <trkpt lon="34.965469082817435" lat="31.807371145114303">
        <ele>238.0</ele>
        <time>2011-06-17T08:55:07.000Z</time>
      </trkpt>
      <trkpt lon="34.965168507769704" lat="31.80730501189828">
        <ele>241.0</ele>
        <time>2011-06-17T08:55:23.000Z</time>
      </trkpt>
      <trkpt lon="34.96513548307121" lat="31.8072987254709">
        <ele>241.39999389648438</ele>
        <time>2011-06-17T08:55:25.000Z</time>
      </trkpt>
      <trkpt lon="34.964992152526975" lat="31.80727140046656">
        <ele>243.39999389648438</ele>
        <time>2011-06-17T08:55:42.000Z</time>
      </trkpt>
      <trkpt lon="34.964847564697266" lat="31.807243824005127">
        <ele>245.1999969482422</ele>
        <time>2011-06-17T08:56:03.000Z</time>
      </trkpt>
      <trkpt lon="34.9644760787487" lat="31.807028744369745">
        <ele>244.39999389648438</ele>
        <time>2011-06-17T08:56:12.000Z</time>
      </trkpt>
      <trkpt lon="34.96407072991133" lat="31.807073252275586">
        <ele>241.0</ele>
        <time>2011-06-17T08:56:18.000Z</time>
      </trkpt>
      <trkpt lon="34.96362430974841" lat="31.807152461260557">
        <ele>237.60000610351562</ele>
        <time>2011-06-17T08:56:23.000Z</time>
      </trkpt>
      <trkpt lon="34.96322667226195" lat="31.80722303688526">
        <ele>235.1999969482422</ele>
        <time>2011-06-17T08:56:27.000Z</time>
      </trkpt>
      <trkpt lon="34.962691236287355" lat="31.807180708274245">
        <ele>231.8000030517578</ele>
        <time>2011-06-17T08:56:32.000Z</time>
      </trkpt>
      <trkpt lon="34.962132163345814" lat="31.80709638632834">
        <ele>228.0</ele>
        <time>2011-06-17T08:56:37.000Z</time>
      </trkpt>
      <trkpt lon="34.962019845843315" lat="31.8070793710649">
        <ele>227.0</ele>
        <time>2011-06-17T08:56:38.000Z</time>
      </trkpt>
      <trkpt lon="34.96140972711146" lat="31.807207949459553">
        <ele>223.1999969482422</ele>
        <time>2011-06-17T08:56:44.000Z</time>
      </trkpt>
      <trkpt lon="34.96131509542465" lat="31.807225048542023">
        <ele>222.60000610351562</ele>
        <time>2011-06-17T08:56:45.000Z</time>
      </trkpt>
      <trkpt lon="34.96103681623936" lat="31.807234520092607">
        <ele>220.8000030517578</ele>
        <time>2011-06-17T08:56:48.000Z</time>
      </trkpt>
      <trkpt lon="34.960675137117505" lat="31.80703637190163">
        <ele>218.8000030517578</ele>
        <time>2011-06-17T08:56:53.000Z</time>
      </trkpt>
      <trkpt lon="34.96057748794556" lat="31.806857585906982">
        <ele>218.39999389648438</ele>
        <time>2011-06-17T08:56:56.000Z</time>
      </trkpt>
      <trkpt lon="34.960424937307835" lat="31.806445699185133">
        <ele>217.0</ele>
        <time>2011-06-17T08:57:06.000Z</time>
      </trkpt>
      <trkpt lon="34.96018781326711" lat="31.806509401649237">
        <ele>217.39999389648438</ele>
        <time>2011-06-17T08:57:15.000Z</time>
      </trkpt>
      <trkpt lon="34.95993074029684" lat="31.806680811569095">
        <ele>217.39999389648438</ele>
        <time>2011-06-17T08:57:34.000Z</time>
      </trkpt>
      <trkpt lon="34.95993074029684" lat="31.806680811569095">
        <ele>217.39999389648438</ele>
        <time>2011-06-17T08:57:38.000Z</time>
      </trkpt>
      <trkpt lon="34.959679283201694" lat="31.806848533451557">
        <ele>215.0</ele>
        <time>2011-06-17T08:57:48.000Z</time>
      </trkpt>
      <trkpt lon="34.95943025685847" lat="31.80701575241983">
        <ele>211.60000610351562</ele>
        <time>2011-06-17T08:57:57.000Z</time>
      </trkpt>
      <trkpt lon="34.959328919649124" lat="31.807083897292614">
        <ele>210.60000610351562</ele>
        <time>2011-06-17T08:58:00.000Z</time>
      </trkpt>
      <trkpt lon="34.95908441953361" lat="31.807248098775744">
        <ele>209.1999969482422</ele>
        <time>2011-06-17T08:58:06.000Z</time>
      </trkpt>
      <trkpt lon="34.95848838239908" lat="31.807648418471217">
        <ele>207.39999389648438</ele>
        <time>2011-06-17T08:58:23.000Z</time>
      </trkpt>
      <trkpt lon="34.95818051509559" lat="31.80785520002246">
        <ele>207.39999389648438</ele>
        <time>2011-06-17T08:58:36.000Z</time>
      </trkpt>
      <trkpt lon="34.95800097472966" lat="31.807975647971034">
        <ele>207.8000030517578</ele>
        <time>2011-06-17T08:58:45.000Z</time>
      </trkpt>
      <trkpt lon="34.95775965973735" lat="31.80813775397837">
        <ele>211.1999969482422</ele>
        <time>2011-06-17T08:59:00.000Z</time>
      </trkpt>
      <trkpt lon="34.95749294757843" lat="31.80831695906818">
        <ele>213.0</ele>
        <time>2011-06-17T08:59:17.000Z</time>
      </trkpt>
      <trkpt lon="34.95720905251801" lat="31.8085075635463">
        <ele>215.39999389648438</ele>
        <time>2011-06-17T08:59:37.000Z</time>
      </trkpt>
      <trkpt lon="34.95689230039716" lat="31.808720380067825">
        <ele>216.39999389648438</ele>
        <time>2011-06-17T08:59:56.000Z</time>
      </trkpt>
      <trkpt lon="34.957064716145396" lat="31.808949122205377">
        <ele>217.0</ele>
        <time>2011-06-17T09:00:15.000Z</time>
      </trkpt>
      <trkpt lon="34.95714811608195" lat="31.809000754728913">
        <ele>217.39999389648438</ele>
        <time>2011-06-17T09:00:22.000Z</time>
      </trkpt>
      <trkpt lon="34.95722070336342" lat="31.80904367007315">
        <ele>217.39999389648438</ele>
        <time>2011-06-17T09:00:28.000Z</time>
      </trkpt>
      <trkpt lon="34.95722070336342" lat="31.80904367007315">
        <ele>217.39999389648438</ele>
        <time>2011-06-17T09:00:44.000Z</time>
      </trkpt>
      <trkpt lon="34.95756855234504" lat="31.809249194338918">
        <ele>217.39999389648438</ele>
        <time>2011-06-17T09:00:56.000Z</time>
      </trkpt>
      <trkpt lon="34.95808269828558" lat="31.809559408575296">
        <ele>217.8000030517578</ele>
        <time>2011-06-17T09:01:13.000Z</time>
      </trkpt>
      <trkpt lon="34.958210019394755" lat="31.80964859202504">
        <ele>218.39999389648438</ele>
        <time>2011-06-17T09:01:19.000Z</time>
      </trkpt>
      <trkpt lon="34.95807942934334" lat="31.809757724404335">
        <ele>217.39999389648438</ele>
        <time>2011-06-17T09:01:26.000Z</time>
      </trkpt>
      <trkpt lon="34.95785756036639" lat="31.809881944209337">
        <ele>217.0</ele>
        <time>2011-06-17T09:01:39.000Z</time>
      </trkpt>
      <trkpt lon="34.95750376023352" lat="31.81008000858128">
        <ele>215.39999389648438</ele>
        <time>2011-06-17T09:01:50.000Z</time>
      </trkpt>
      <trkpt lon="34.957459503784776" lat="31.81010481901467">
        <ele>215.39999389648438</ele>
        <time>2011-06-17T09:01:51.000Z</time>
      </trkpt>
      <trkpt lon="34.95684200897813" lat="31.810421403497458">
        <ele>215.39999389648438</ele>
        <time>2011-06-17T09:02:06.000Z</time>
      </trkpt>
      <trkpt lon="34.95672717690468" lat="31.810713009908795">
        <ele>215.0</ele>
        <time>2011-06-17T09:02:16.000Z</time>
      </trkpt>
      <trkpt lon="34.95672130957246" lat="31.810752572491765">
        <ele>214.60000610351562</ele>
        <time>2011-06-17T09:02:17.000Z</time>
      </trkpt>
      <trkpt lon="34.95666112750769" lat="31.8111564964056">
        <ele>214.0</ele>
        <time>2011-06-17T09:02:26.000Z</time>
      </trkpt>
      <trkpt lon="34.95663455687463" lat="31.81133469566703">
        <ele>214.0</ele>
        <time>2011-06-17T09:02:30.000Z</time>
      </trkpt>
      <trkpt lon="34.95660790242255" lat="31.81151364929974">
        <ele>214.0</ele>
        <time>2011-06-17T09:02:34.000Z</time>
      </trkpt>
      <trkpt lon="34.95651042088866" lat="31.811828054487705">
        <ele>213.60000610351562</ele>
        <time>2011-06-17T09:02:41.000Z</time>
      </trkpt>
      <trkpt lon="34.95627388358116" lat="31.812297105789185">
        <ele>212.60000610351562</ele>
        <time>2011-06-17T09:02:56.000Z</time>
      </trkpt>
      <trkpt lon="34.95588638819754" lat="31.81260966695845">
        <ele>213.60000610351562</ele>
        <time>2011-06-17T09:03:09.000Z</time>
      </trkpt>
      <trkpt lon="34.955442901700735" lat="31.81277043186128">
        <ele>213.0</ele>
        <time>2011-06-17T09:03:21.000Z</time>
      </trkpt>
      <trkpt lon="34.95504258200526" lat="31.81283103302121">
        <ele>214.0</ele>
        <time>2011-06-17T09:03:35.000Z</time>
      </trkpt>
      <trkpt lon="34.95495557785034" lat="31.812844276428223">
        <ele>214.60000610351562</ele>
        <time>2011-06-17T09:03:38.000Z</time>
      </trkpt>
      <trkpt lon="34.95486555621028" lat="31.812898255884647">
        <ele>215.0</ele>
        <time>2011-06-17T09:03:43.000Z</time>
      </trkpt>
      <trkpt lon="34.95466363616288" lat="31.81328432634473">
        <ele>215.0</ele>
        <time>2011-06-17T09:03:56.000Z</time>
      </trkpt>
      <trkpt lon="34.95451318100095" lat="31.813532346859574">
        <ele>215.0</ele>
        <time>2011-06-17T09:04:08.000Z</time>
      </trkpt>
      <trkpt lon="34.95446791872382" lat="31.813573837280273">
        <ele>215.0</ele>
        <time>2011-06-17T09:04:10.000Z</time>
      </trkpt>
      <trkpt lon="34.95407950133085" lat="31.813674168661237">
        <ele>217.39999389648438</ele>
        <time>2011-06-17T09:04:22.000Z</time>
      </trkpt>
      <trkpt lon="34.954056199640036" lat="31.813675593584776">
        <ele>217.39999389648438</ele>
        <time>2011-06-17T09:04:23.000Z</time>
      </trkpt>
      <trkpt lon="34.95355303399265" lat="31.813690597191453">
        <ele>218.39999389648438</ele>
        <time>2011-06-17T09:04:39.000Z</time>
      </trkpt>
      <trkpt lon="34.95303804986179" lat="31.81364994496107">
        <ele>217.39999389648438</ele>
        <time>2011-06-17T09:04:55.000Z</time>
      </trkpt>
      <trkpt lon="34.95230656117201" lat="31.81338658556342">
        <ele>215.0</ele>
        <time>2011-06-17T09:05:12.000Z</time>
      </trkpt>
      <trkpt lon="34.95205141603947" lat="31.81330058723688">
        <ele>216.0</ele>
        <time>2011-06-17T09:05:19.000Z</time>
      </trkpt>
      <trkpt lon="34.95153022930026" lat="31.813326571136713">
        <ele>216.0</ele>
        <time>2011-06-17T09:05:28.000Z</time>
      </trkpt>
      <trkpt lon="34.95130140334368" lat="31.813280805945396">
        <ele>215.39999389648438</ele>
        <time>2011-06-17T09:05:33.000Z</time>
      </trkpt>
      <trkpt lon="34.95124842971563" lat="31.813280722126365">
        <ele>215.39999389648438</ele>
        <time>2011-06-17T09:05:37.000Z</time>
      </trkpt>
      <trkpt lon="34.951029075309634" lat="31.813377616927028">
        <ele>211.1999969482422</ele>
        <time>2011-06-17T09:05:44.000Z</time>
      </trkpt>
      <trkpt lon="34.95098448358476" lat="31.81339731439948">
        <ele>211.1999969482422</ele>
        <time>2011-06-17T09:05:45.000Z</time>
      </trkpt>
      <trkpt lon="34.95085104368627" lat="31.813456239178777">
        <ele>209.8000030517578</ele>
        <time>2011-06-17T09:05:48.000Z</time>
      </trkpt>
      <trkpt lon="34.9505611974746" lat="31.813584314659238">
        <ele>206.39999389648438</ele>
        <time>2011-06-17T09:05:55.000Z</time>
      </trkpt>
      <trkpt lon="34.95024897158146" lat="31.813758742064238">
        <ele>204.0</ele>
        <time>2011-06-17T09:06:04.000Z</time>
      </trkpt>
      <trkpt lon="34.949903804808855" lat="31.813541566953063">
        <ele>203.39999389648438</ele>
        <time>2011-06-17T09:06:17.000Z</time>
      </trkpt>
      <trkpt lon="34.949492923915386" lat="31.81335188448429">
        <ele>200.0</ele>
        <time>2011-06-17T09:06:26.000Z</time>
      </trkpt>
      <trkpt lon="34.94911012239754" lat="31.81327259168029">
        <ele>198.1999969482422</ele>
        <time>2011-06-17T09:06:32.000Z</time>
      </trkpt>
      <trkpt lon="34.948999313637614" lat="31.813252056017518">
        <ele>198.1999969482422</ele>
        <time>2011-06-17T09:06:34.000Z</time>
      </trkpt>
      <trkpt lon="34.94830487295985" lat="31.813004706054926">
        <ele>195.1999969482422</ele>
        <time>2011-06-17T09:06:49.000Z</time>
      </trkpt>
      <trkpt lon="34.94768863543868" lat="31.812958186492324">
        <ele>192.8000030517578</ele>
        <time>2011-06-17T09:07:02.000Z</time>
      </trkpt>
      <trkpt lon="34.94759283028543" lat="31.812950978055596">
        <ele>192.0</ele>
        <time>2011-06-17T09:07:04.000Z</time>
      </trkpt>
      <trkpt lon="34.94722193107009" lat="31.812994396314025">
        <ele>189.60000610351562</ele>
        <time>2011-06-17T09:07:13.000Z</time>
      </trkpt>
      <trkpt lon="34.94684491306543" lat="31.813010573387146">
        <ele>186.1999969482422</ele>
        <time>2011-06-17T09:07:18.000Z</time>
      </trkpt>
      <trkpt lon="34.946771739050746" lat="31.813019709661603">
        <ele>186.1999969482422</ele>
        <time>2011-06-17T09:07:19.000Z</time>
      </trkpt>
      <trkpt lon="34.94620084762573" lat="31.812994480133057">
        <ele>184.1999969482422</ele>
        <time>2011-06-17T09:07:31.000Z</time>
      </trkpt>
      <trkpt lon="34.946023067459464" lat="31.812885096296668">
        <ele>183.8000030517578</ele>
        <time>2011-06-17T09:07:35.000Z</time>
      </trkpt>
      <trkpt lon="34.945925418287516" lat="31.812677225098014">
        <ele>183.8000030517578</ele>
        <time>2011-06-17T09:07:42.000Z</time>
      </trkpt>
      <trkpt lon="34.945937152951956" lat="31.812207670882344">
        <ele>186.60000610351562</ele>
        <time>2011-06-17T09:08:00.000Z</time>
      </trkpt>
      <trkpt lon="34.945899434387684" lat="31.811817744746804">
        <ele>187.1999969482422</ele>
        <time>2011-06-17T09:08:14.000Z</time>
      </trkpt>
      <trkpt lon="34.94553532451391" lat="31.811492275446653">
        <ele>185.60000610351562</ele>
        <time>2011-06-17T09:08:28.000Z</time>
      </trkpt>
      <trkpt lon="34.94541102088988" lat="31.811430165544152">
        <ele>185.1999969482422</ele>
        <time>2011-06-17T09:08:33.000Z</time>
      </trkpt>
      <trkpt lon="34.94525067508221" lat="31.811602748930454">
        <ele>183.8000030517578</ele>
        <time>2011-06-17T09:08:37.000Z</time>
      </trkpt>
      <trkpt lon="34.94454827159643" lat="31.811974570155144">
        <ele>183.1999969482422</ele>
        <time>2011-06-17T09:08:53.000Z</time>
      </trkpt>
      <trkpt lon="34.9443703237921" lat="31.812159726396203">
        <ele>182.39999389648438</ele>
        <time>2011-06-17T09:08:59.000Z</time>
      </trkpt>
      <trkpt lon="34.94440594688058" lat="31.812335327267647">
        <ele>181.39999389648438</ele>
        <time>2011-06-17T09:09:03.000Z</time>
      </trkpt>
      <trkpt lon="34.94442958384752" lat="31.812489135190845">
        <ele>180.8000030517578</ele>
        <time>2011-06-17T09:09:06.000Z</time>
      </trkpt>
      <trkpt lon="34.94440292939544" lat="31.812718212604523">
        <ele>179.0</ele>
        <time>2011-06-17T09:09:10.000Z</time>
      </trkpt>
      <trkpt lon="34.94409766048193" lat="31.813553469255567">
        <ele>177.60000610351562</ele>
        <time>2011-06-17T09:09:26.000Z</time>
      </trkpt>
      <trkpt lon="34.94403622113168" lat="31.81392210535705">
        <ele>177.0</ele>
        <time>2011-06-17T09:09:34.000Z</time>
      </trkpt>
      <trkpt lon="34.94406497105956" lat="31.81411597877741">
        <ele>175.60000610351562</ele>
        <time>2011-06-17T09:09:38.000Z</time>
      </trkpt>
      <trkpt lon="34.94418801739812" lat="31.81457337923348">
        <ele>173.60000610351562</ele>
        <time>2011-06-17T09:09:46.000Z</time>
      </trkpt>
      <trkpt lon="34.94422581978142" lat="31.814698353409767">
        <ele>172.1999969482422</ele>
        <time>2011-06-17T09:09:48.000Z</time>
      </trkpt>
      <trkpt lon="34.944213749840856" lat="31.814824752509594">
        <ele>172.60000610351562</ele>
        <time>2011-06-17T09:09:50.000Z</time>
      </trkpt>
      <trkpt lon="34.944099336862564" lat="31.81535130366683">
        <ele>170.8000030517578</ele>
        <time>2011-06-17T09:09:59.000Z</time>
      </trkpt>
      <trkpt lon="34.94369910098612" lat="31.81569730862975">
        <ele>171.8000030517578</ele>
        <time>2011-06-17T09:10:12.000Z</time>
      </trkpt>
      <trkpt lon="34.94309300556779" lat="31.81561667472124">
        <ele>174.60000610351562</ele>
        <time>2011-06-17T09:10:30.000Z</time>
      </trkpt>
      <trkpt lon="34.94239873252809" lat="31.815508548170328">
        <ele>175.0</ele>
        <time>2011-06-17T09:10:51.000Z</time>
      </trkpt>
      <trkpt lon="34.94173949584365" lat="31.815365301445127">
        <ele>176.60000610351562</ele>
        <time>2011-06-17T09:11:10.000Z</time>
      </trkpt>
      <trkpt lon="34.94125954806805" lat="31.815190706402063">
        <ele>179.39999389648438</ele>
        <time>2011-06-17T09:11:29.000Z</time>
      </trkpt>
      <trkpt lon="34.940884206444025" lat="31.815063217654824">
        <ele>182.39999389648438</ele>
        <time>2011-06-17T09:11:46.000Z</time>
      </trkpt>
      <trkpt lon="34.940541135147214" lat="31.814955258741975">
        <ele>184.1999969482422</ele>
        <time>2011-06-17T09:12:06.000Z</time>
      </trkpt>
      <trkpt lon="34.94010452181101" lat="31.814857022836804">
        <ele>185.60000610351562</ele>
        <time>2011-06-17T09:12:27.000Z</time>
      </trkpt>
      <trkpt lon="34.939575623720884" lat="31.814767504110932">
        <ele>185.60000610351562</ele>
        <time>2011-06-17T09:12:47.000Z</time>
      </trkpt>
      <trkpt lon="34.93912191130221" lat="31.814745711162686">
        <ele>181.8000030517578</ele>
        <time>2011-06-17T09:12:57.000Z</time>
      </trkpt>
      <trkpt lon="34.93866861797869" lat="31.814723582938313">
        <ele>178.0</ele>
        <time>2011-06-17T09:13:03.000Z</time>
      </trkpt>
      <trkpt lon="34.93826787918806" lat="31.814706986770034">
        <ele>173.1999969482422</ele>
        <time>2011-06-17T09:13:08.000Z</time>
      </trkpt>
      <trkpt lon="34.938193280249834" lat="31.81470480747521">
        <ele>177.0</ele>
        <time>2011-06-17T09:13:09.000Z</time>
      </trkpt>
      <trkpt lon="34.93755382485688" lat="31.81468142196536">
        <ele>177.60000610351562</ele>
        <time>2011-06-17T09:13:21.000Z</time>
      </trkpt>
      <trkpt lon="34.93705694563687" lat="31.814640015363693">
        <ele>174.60000610351562</ele>
        <time>2011-06-17T09:13:31.000Z</time>
      </trkpt>
      <trkpt lon="34.93682887405157" lat="31.814606906846166">
        <ele>172.1999969482422</ele>
        <time>2011-06-17T09:13:35.000Z</time>
      </trkpt>
      <trkpt lon="34.93658194318414" lat="31.814571116119623">
        <ele>168.8000030517578</ele>
        <time>2011-06-17T09:13:40.000Z</time>
      </trkpt>
      <trkpt lon="34.93654648773372" lat="31.814565919339657">
        <ele>168.8000030517578</ele>
        <time>2011-06-17T09:13:41.000Z</time>
      </trkpt>
      <trkpt lon="34.9364542029798" lat="31.814552508294582">
        <ele>167.39999389648438</ele>
        <time>2011-06-17T09:13:44.000Z</time>
      </trkpt>
      <trkpt lon="34.9362834636122" lat="31.814527781680226">
        <ele>164.60000610351562</ele>
        <time>2011-06-17T09:13:49.000Z</time>
      </trkpt>
      <trkpt lon="34.93608229793608" lat="31.814498528838158">
        <ele>160.1999969482422</ele>
        <time>2011-06-17T09:13:54.000Z</time>
      </trkpt>
      <trkpt lon="34.93586420081556" lat="31.8144669290632">
        <ele>156.8000030517578</ele>
        <time>2011-06-17T09:13:58.000Z</time>
      </trkpt>
      <trkpt lon="34.935684744268656" lat="31.814488638192415">
        <ele>154.39999389648438</ele>
        <time>2011-06-17T09:14:02.000Z</time>
      </trkpt>
      <trkpt lon="34.935649959370494" lat="31.81450255215168">
        <ele>154.39999389648438</ele>
        <time>2011-06-17T09:14:03.000Z</time>
      </trkpt>
      <trkpt lon="34.935499001294374" lat="31.814421834424138">
        <ele>153.39999389648438</ele>
        <time>2011-06-17T09:14:08.000Z</time>
      </trkpt>
      <trkpt lon="34.93534041568637" lat="31.814262913540006">
        <ele>154.0</ele>
        <time>2011-06-17T09:14:16.000Z</time>
      </trkpt>
      <trkpt lon="34.93502374738455" lat="31.81420256383717">
        <ele>154.0</ele>
        <time>2011-06-17T09:14:31.000Z</time>
      </trkpt>
      <trkpt lon="34.93493054062128" lat="31.814189236611128">
        <ele>153.39999389648438</ele>
        <time>2011-06-17T09:14:34.000Z</time>
      </trkpt>
      <trkpt lon="34.93460942991078" lat="31.814407166093588">
        <ele>152.0</ele>
        <time>2011-06-17T09:14:49.000Z</time>
      </trkpt>
      <trkpt lon="34.934236938133836" lat="31.814545216038823">
        <ele>151.0</ele>
        <time>2011-06-17T09:15:03.000Z</time>
      </trkpt>
      <trkpt lon="34.93380996398628" lat="31.814627526327968">
        <ele>152.60000610351562</ele>
        <time>2011-06-17T09:15:20.000Z</time>
      </trkpt>
      <trkpt lon="34.933264469727874" lat="31.814727019518614">
        <ele>153.39999389648438</ele>
        <time>2011-06-17T09:15:40.000Z</time>
      </trkpt>
      <trkpt lon="34.93291829712689" lat="31.815022565424442">
        <ele>153.39999389648438</ele>
        <time>2011-06-17T09:15:58.000Z</time>
      </trkpt>
      <trkpt lon="34.93293011561036" lat="31.815278884023428">
        <ele>153.39999389648438</ele>
        <time>2011-06-17T09:16:15.000Z</time>
      </trkpt>
      <trkpt lon="34.933141842484474" lat="31.815552385523915">
        <ele>151.0</ele>
        <time>2011-06-17T09:16:30.000Z</time>
      </trkpt>
      <trkpt lon="34.93319163098931" lat="31.815699320286512">
        <ele>148.60000610351562</ele>
        <time>2011-06-17T09:16:35.000Z</time>
      </trkpt>
      <trkpt lon="34.93319674395025" lat="31.815735530108213">
        <ele>148.60000610351562</ele>
        <time>2011-06-17T09:16:36.000Z</time>
      </trkpt>
      <trkpt lon="34.933004630729556" lat="31.816062675789">
        <ele>145.8000030517578</ele>
        <time>2011-06-17T09:16:44.000Z</time>
      </trkpt>
      <trkpt lon="34.93282006122172" lat="31.81620106101036">
        <ele>145.8000030517578</ele>
        <time>2011-06-17T09:16:54.000Z</time>
      </trkpt>
      <trkpt lon="34.93282006122172" lat="31.81620106101036">
        <ele>146.1999969482422</ele>
        <time>2011-06-17T09:17:03.000Z</time>
      </trkpt>
      <trkpt lon="34.93282006122172" lat="31.81620106101036">
        <ele>146.1999969482422</ele>
        <time>2011-06-17T09:17:05.000Z</time>
      </trkpt>
      <trkpt lon="34.93253809399903" lat="31.815984472632408">
        <ele>146.1999969482422</ele>
        <time>2011-06-17T09:17:18.000Z</time>
      </trkpt>
      <trkpt lon="34.93240331299603" lat="31.815869556739926">
        <ele>147.60000610351562</ele>
        <time>2011-06-17T09:17:23.000Z</time>
      </trkpt>
      <trkpt lon="34.93232452310622" lat="31.815633019432425">
        <ele>150.60000610351562</ele>
        <time>2011-06-17T09:17:37.000Z</time>
      </trkpt>
      <trkpt lon="34.93231773376465" lat="31.815612316131592">
        <ele>151.60000610351562</ele>
        <time>2011-06-17T09:17:44.000Z</time>
      </trkpt>
      <trkpt lon="34.932378586381674" lat="31.815134463831782">
        <ele>152.60000610351562</ele>
        <time>2011-06-17T09:18:05.000Z</time>
      </trkpt>
      <trkpt lon="34.93225277401507" lat="31.81472442112863">
        <ele>153.0</ele>
        <time>2011-06-17T09:18:24.000Z</time>
      </trkpt>
      <trkpt lon="34.93194742128253" lat="31.814395850524306">
        <ele>151.60000610351562</ele>
        <time>2011-06-17T09:18:40.000Z</time>
      </trkpt>
      <trkpt lon="34.93168104439974" lat="31.81408278644085">
        <ele>148.1999969482422</ele>
        <time>2011-06-17T09:18:49.000Z</time>
      </trkpt>
      <trkpt lon="34.931567469611764" lat="31.813877932727337">
        <ele>147.1999969482422</ele>
        <time>2011-06-17T09:18:55.000Z</time>
      </trkpt>
      <trkpt lon="34.93130151182413" lat="31.813960410654545">
        <ele>146.8000030517578</ele>
        <time>2011-06-17T09:19:02.000Z</time>
      </trkpt>
      <trkpt lon="34.93072299286723" lat="31.814148500561714">
        <ele>143.8000030517578</ele>
        <time>2011-06-17T09:19:17.000Z</time>
      </trkpt>
      <trkpt lon="34.93037003092468" lat="31.814165515825152">
        <ele>141.39999389648438</ele>
        <time>2011-06-17T09:19:23.000Z</time>
      </trkpt>
      <trkpt lon="34.92980961687863" lat="31.81440724991262">
        <ele>138.0</ele>
        <time>2011-06-17T09:19:33.000Z</time>
      </trkpt>
      <trkpt lon="34.9297212716192" lat="31.814468437805772">
        <ele>139.0</ele>
        <time>2011-06-17T09:19:35.000Z</time>
      </trkpt>
      <trkpt lon="34.929597806185484" lat="31.81455393321812">
        <ele>138.60000610351562</ele>
        <time>2011-06-17T09:19:38.000Z</time>
      </trkpt>
      <trkpt lon="34.92934190668166" lat="31.8144997023046">
        <ele>138.0</ele>
        <time>2011-06-17T09:19:43.000Z</time>
      </trkpt>
      <trkpt lon="34.92903563193977" lat="31.814129976555705">
        <ele>139.60000610351562</ele>
        <time>2011-06-17T09:19:58.000Z</time>
      </trkpt>
      <trkpt lon="34.92864444851875" lat="31.813809955492616">
        <ele>140.39999389648438</ele>
        <time>2011-06-17T09:20:16.000Z</time>
      </trkpt>
      <trkpt lon="34.927951181307435" lat="31.813669055700302">
        <ele>141.39999389648438</ele>
        <time>2011-06-17T09:20:37.000Z</time>
      </trkpt>
      <trkpt lon="34.92739210836589" lat="31.813725885003805">
        <ele>141.39999389648438</ele>
        <time>2011-06-17T09:20:54.000Z</time>
      </trkpt>
      <trkpt lon="34.92703730240464" lat="31.813935600221157">
        <ele>142.0</ele>
        <time>2011-06-17T09:21:08.000Z</time>
      </trkpt>
      <trkpt lon="34.927084408700466" lat="31.81444153189659">
        <ele>142.8000030517578</ele>
        <time>2011-06-17T09:21:25.000Z</time>
      </trkpt>
      <trkpt lon="34.927241234108806" lat="31.814877977594733">
        <ele>142.39999389648438</ele>
        <time>2011-06-17T09:21:42.000Z</time>
      </trkpt>
      <trkpt lon="34.92754692211747" lat="31.815184336155653">
        <ele>140.39999389648438</ele>
        <time>2011-06-17T09:21:53.000Z</time>
      </trkpt>
      <trkpt lon="34.92767348885536" lat="31.815284248441458">
        <ele>139.0</ele>
        <time>2011-06-17T09:21:56.000Z</time>
      </trkpt>
      <trkpt lon="34.927760576829314" lat="31.81545532308519">
        <ele>137.1999969482422</ele>
        <time>2011-06-17T09:21:59.000Z</time>
      </trkpt>
      <trkpt lon="34.92765890434384" lat="31.815722035244107">
        <ele>137.60000610351562</ele>
        <time>2011-06-17T09:22:04.000Z</time>
      </trkpt>
      <trkpt lon="34.927112739533186" lat="31.816209023818374">
        <ele>138.0</ele>
        <time>2011-06-17T09:22:21.000Z</time>
      </trkpt>
      <trkpt lon="34.92690520361066" lat="31.816594591364264">
        <ele>137.1999969482422</ele>
        <time>2011-06-17T09:22:35.000Z</time>
      </trkpt>
      <trkpt lon="34.92688508704305" lat="31.81670037098229">
        <ele>136.60000610351562</ele>
        <time>2011-06-17T09:22:38.000Z</time>
      </trkpt>
      <trkpt lon="34.926814679056406" lat="31.816908828914165">
        <ele>134.8000030517578</ele>
        <time>2011-06-17T09:22:43.000Z</time>
      </trkpt>
      <trkpt lon="34.92653153836727" lat="31.81737377308309">
        <ele>133.1999969482422</ele>
        <time>2011-06-17T09:22:54.000Z</time>
      </trkpt>
      <trkpt lon="34.92609936743975" lat="31.817633444443345">
        <ele>132.8000030517578</ele>
        <time>2011-06-17T09:23:06.000Z</time>
      </trkpt>
      <trkpt lon="34.92559980601072" lat="31.817628582939506">
        <ele>131.39999389648438</ele>
        <time>2011-06-17T09:23:19.000Z</time>
      </trkpt>
      <trkpt lon="34.92509596981108" lat="31.817364133894444">
        <ele>130.8000030517578</ele>
        <time>2011-06-17T09:23:33.000Z</time>
      </trkpt>
      <trkpt lon="34.92449188604951" lat="31.81705266237259">
        <ele>130.8000030517578</ele>
        <time>2011-06-17T09:23:49.000Z</time>
      </trkpt>
      <trkpt lon="34.92387665435672" lat="31.816788967698812">
        <ele>129.0</ele>
        <time>2011-06-17T09:24:08.000Z</time>
      </trkpt>
      <trkpt lon="34.92347407154739" lat="31.816430389881134">
        <ele>128.39999389648438</ele>
        <time>2011-06-17T09:24:26.000Z</time>
      </trkpt>
      <trkpt lon="34.92310116067529" lat="31.816030237823725">
        <ele>129.0</ele>
        <time>2011-06-17T09:24:42.000Z</time>
      </trkpt>
      <trkpt lon="34.922568909823895" lat="31.81561801582575">
        <ele>128.39999389648438</ele>
        <time>2011-06-17T09:25:00.000Z</time>
      </trkpt>
      <trkpt lon="34.92199022322893" lat="31.81523747742176">
        <ele>126.5999984741211</ele>
        <time>2011-06-17T09:25:22.000Z</time>
      </trkpt>
      <trkpt lon="34.92132511921227" lat="31.814823914319277">
        <ele>125.19999694824219</ele>
        <time>2011-06-17T09:25:44.000Z</time>
      </trkpt>
      <trkpt lon="34.920843411237" lat="31.81492030620575">
        <ele>124.5999984741211</ele>
        <time>2011-06-17T09:25:57.000Z</time>
      </trkpt>
      <trkpt lon="34.920179480686784" lat="31.815082747489214">
        <ele>123.5999984741211</ele>
        <time>2011-06-17T09:26:16.000Z</time>
      </trkpt>
      <trkpt lon="34.91979558952153" lat="31.814970262348652">
        <ele>124.19999694824219</ele>
        <time>2011-06-17T09:26:31.000Z</time>
      </trkpt>
      <trkpt lon="34.919822830706835" lat="31.81505709886551">
        <ele>124.19999694824219</ele>
        <time>2011-06-17T09:26:37.000Z</time>
      </trkpt>
      <trkpt lon="34.91984814405441" lat="31.81511878967285">
        <ele>124.19999694824219</ele>
        <time>2011-06-17T09:26:52.000Z</time>
      </trkpt>
      <trkpt lon="34.91984814405441" lat="31.81511878967285">
        <ele>123.5999984741211</ele>
        <time>2011-06-17T09:27:02.000Z</time>
      </trkpt>
      <trkpt lon="34.91984814405441" lat="31.81511878967285">
        <ele>124.19999694824219</ele>
        <time>2011-06-17T09:27:19.000Z</time>
      </trkpt>
      <trkpt lon="34.91984814405441" lat="31.81511878967285">
        <ele>123.19999694824219</ele>
        <time>2011-06-17T09:28:47.000Z</time>
      </trkpt>
    </trkseg>
  </trk>
</gpx>
